Provisional Data: Pine Creek near Telescope, PA


Please select a monitoring station.
Please select start date.
Please select start date.

Toggle Unit: C/F Toggle Unit: C/F
Sample Time Temperature (C) Temperature (F) Specific Conductivity (mS/cm) pH   Turbidity (NTU+) DO (mg/L)
12/11/2021 12:00:00 AM 4.58 40.244 0.065 6.86 0.92 12.15
12/11/2021 12:15:00 AM 4.58 40.244 0.065 6.86 0.98 12.15
12/11/2021 12:30:00 AM 4.58 40.244 0.065 6.87 0.83 12.15
12/11/2021 12:45:00 AM 4.58 40.244 0.065 6.87 0.93 12.15
12/11/2021 1:00:00 AM 4.59 40.262 0.065 6.87 0.92 12.14
12/11/2021 1:15:00 AM 4.59 40.262 0.065 6.86 0.89 12.13
12/11/2021 1:30:00 AM 4.6 40.28 0.065 6.86 0.87 12.12
12/11/2021 1:45:00 AM 4.61 40.298 0.065 6.87 0.88 12.11
12/11/2021 2:00:00 AM 4.63 40.334 0.065 6.87 0.91 12.1
12/11/2021 2:15:00 AM 4.65 40.37 0.065 6.86 0.79 12.09
12/11/2021 2:30:00 AM 4.68 40.424 0.065 6.87 0.87 12.08
12/11/2021 2:45:00 AM 4.71 40.478 0.065 6.87 0.77 12.07
12/11/2021 3:00:00 AM 4.73 40.514 0.065 6.87 0.82 12.06
12/11/2021 3:15:00 AM 4.76 40.568 0.065 6.87 0.8 12.06
12/11/2021 3:30:00 AM 4.78 40.604 0.065 6.86 0.87 12.05
12/11/2021 3:45:00 AM 4.8 40.64 0.065 6.86 0.85 12.03
12/11/2021 4:00:00 AM 4.81 40.658 0.065 6.86 1.06 12.04
12/11/2021 4:15:00 AM 4.83 40.694 0.064 6.85 1.12 12.02
12/11/2021 4:30:00 AM 4.84 40.712 0.064 6.85 1.22 12.02
12/11/2021 4:45:00 AM 4.86 40.748 0.064 6.85 2.59 12
12/11/2021 5:00:00 AM 4.88 40.784 0.064 6.84 2.65 11.98
12/11/2021 5:15:00 AM 4.91 40.838 0.064 6.84 2.44 11.98
12/11/2021 5:30:00 AM 4.93 40.874 0.064 6.84 2.7 11.96
12/11/2021 5:45:00 AM 4.94 40.892 0.064 6.83 3.35 11.96
12/11/2021 6:00:00 AM 4.96 40.928 0.064 7.01 1.54 11.95
12/11/2021 6:15:00 AM 4.99 40.982 0.064 6.96 1.65 11.93
12/11/2021 6:30:00 AM 5.03 41.054 0.064 6.95 2.13 11.92
12/11/2021 6:45:00 AM 5.06 41.108 0.063 6.78 4.02 11.91
12/11/2021 7:00:00 AM 5.08 41.144 0.063 6.78 5.27 11.9
12/11/2021 7:15:00 AM 5.11 41.198 0.063 6.79 6.88 11.89
12/11/2021 7:30:00 AM 5.13 41.234 0.063 6.79 5.46 11.88
12/11/2021 7:45:00 AM 5.16 41.288 0.063 6.97 6.36 11.89
12/11/2021 8:00:00 AM 5.18 41.324 0.063 6.95 9.85 11.89
12/11/2021 8:15:00 AM 5.19 41.342 0.065 6.83 14.27 11.9
12/11/2021 8:30:00 AM 5.19 41.342 0.067 6.82 16.69 11.92
12/11/2021 8:45:00 AM 5.18 41.324 0.068 6.74 20.17 11.94
12/11/2021 9:00:00 AM 5.15 41.27 0.069 6.82 19.83 11.97
12/11/2021 9:15:00 AM 5.14 41.252 0.07 6.86 19.09 11.99
12/11/2021 9:30:00 AM 5.15 41.27 0.071 6.87 19.42 12.03
12/11/2021 9:45:00 AM 5.18 41.324 0.071 6.82 18.78 12.04
12/11/2021 10:00:00 AM 5.22 41.396 0.071 6.88 18.84 12.04
12/11/2021 10:15:00 AM 5.26 41.468 0.07 6.9 19.09 12.03
12/11/2021 10:30:00 AM 5.31 41.558 0.07 6.9 19.5 12.03
12/11/2021 10:45:00 AM 5.37 41.666 0.069 6.91 21.35 12.02
12/11/2021 11:00:00 AM 5.43 41.774 0.069 6.92 23.15 12.01
12/11/2021 11:15:00 AM 5.49 41.882 0.069 6.9 24.79 11.99
12/11/2021 11:30:00 AM 5.56 42.008 0.069 6.89 22.12 11.99
12/11/2021 11:45:00 AM 5.62 42.116 0.068 6.88 20.04 11.97
12/11/2021 12:00:00 PM 5.68 42.224 0.068 6.88 18.72 11.92
12/11/2021 12:15:00 PM 5.75 42.35 0.068 6.86 16.24 11.89
12/11/2021 12:30:00 PM 5.84 42.512 0.067 6.88 14.22 11.93
12/11/2021 12:45:00 PM 5.92 42.656 0.067 6.91 12.39 11.95
12/11/2021 1:00:00 PM 6 42.8 0.067 6.92 11.32 11.92
12/11/2021 1:15:00 PM 6.05 42.89 0.067 6.96 10.25 11.86
12/11/2021 1:30:00 PM 6.1 42.98 0.067 6.96 9.19 11.8
12/11/2021 1:45:00 PM 6.18 43.124 0.067 6.94 8.59 11.78
12/11/2021 2:00:00 PM 6.25 43.25 0.067 6.94 8.3 11.74
12/11/2021 2:15:00 PM 6.33 43.394 0.067 6.91 7.42 11.72
12/11/2021 2:30:00 PM 6.39 43.502 0.067 6.9 6.94 11.68
12/11/2021 2:45:00 PM 6.44 43.592 0.067 6.9 6.41 11.62
12/11/2021 3:00:00 PM 6.49 43.682 0.067 6.89 5.67 11.55
12/11/2021 3:15:00 PM 6.54 43.772 0.067 6.88 5.32 11.51
12/11/2021 3:30:00 PM 6.58 43.844 0.067 6.88 4.94 11.48
12/11/2021 3:45:00 PM 6.63 43.934 0.067 6.88 4.55 11.46
12/11/2021 4:00:00 PM 6.68 44.024 0.067 6.88 4.55 11.43
12/11/2021 4:15:00 PM 6.72 44.096 0.067 6.87 4.01 11.39
12/11/2021 4:30:00 PM 6.76 44.168 0.067 6.87 3.87 11.36
12/11/2021 4:45:00 PM 6.8 44.24 0.067 6.86 3.69 11.33
12/11/2021 5:00:00 PM 6.84 44.312 0.067 6.83 3.62 11.3
12/11/2021 5:15:00 PM 6.88 44.384 0.067 6.83 3.48 11.28
12/11/2021 5:30:00 PM 6.9 44.42 0.067 6.82 3.42 11.27
12/11/2021 5:45:00 PM 6.94 44.492 0.067 6.82 3.33 11.26
12/11/2021 6:00:00 PM 6.97 44.546 0.067 6.82 3.26 11.25
12/11/2021 6:15:00 PM 6.99 44.582 0.067 6.82 3.06 11.24
12/11/2021 6:30:00 PM 6.98 44.564 0.068 6.82 3.11 11.24
12/11/2021 6:45:00 PM 6.94 44.492 0.068 6.82 2.9 11.26
12/11/2021 7:00:00 PM 6.9 44.42 0.068 6.83 2.85 11.28
12/11/2021 7:15:00 PM 6.83 44.294 0.068 6.81 2.86 11.31
12/11/2021 7:30:00 PM 6.74 44.132 0.068 6.81 2.78 11.34
12/11/2021 7:45:00 PM 6.67 44.006 0.068 6.81 2.58 11.36
12/11/2021 8:00:00 PM 6.6 43.88 0.068 6.81 2.62 11.39
12/11/2021 8:15:00 PM 6.53 43.754 0.068 6.8 2.61 11.42
12/11/2021 8:30:00 PM 6.46 43.628 0.068 6.81 2.56 11.45
12/11/2021 8:45:00 PM 6.38 43.484 0.068 6.81 2.52 11.49
12/11/2021 9:00:00 PM 6.3 43.34 0.068 6.81 2.48 11.52
12/11/2021 9:15:00 PM 6.22 43.196 0.068 6.82 2.54 11.55
12/11/2021 9:30:00 PM 6.16 43.088 0.068 6.81 2.55 11.58
12/11/2021 9:45:00 PM 6.08 42.944 0.068 6.82 2.48 11.6
12/11/2021 10:00:00 PM 6.03 42.854 0.068 6.82 2.55 11.62
12/11/2021 10:15:00 PM 5.95 42.71 0.068 6.81 2.56 11.64
12/11/2021 10:30:00 PM 5.87 42.566 0.068 6.82 2.72 11.67
12/11/2021 10:45:00 PM 5.8 42.44 0.068 6.82 2.49 11.7
12/11/2021 11:00:00 PM 5.74 42.332 0.068 6.81 2.52 11.73
12/11/2021 11:15:00 PM 5.68 42.224 0.068 6.82 2.46 11.75
12/11/2021 11:30:00 PM 5.63 42.134 0.068 6.81 2.54 11.77
12/11/2021 11:45:00 PM 5.59 42.062 0.068 6.81 2.37 11.79
12/12/2021 12:00:00 AM 5.54 41.972 0.068 6.82 2.42 11.81
12/12/2021 12:15:00 AM 5.49 41.882 0.068 6.81 2.27 11.84
12/12/2021 12:30:00 AM 5.44 41.792 0.068 6.81 2.36 11.85
12/12/2021 12:45:00 AM 5.4 41.72 0.068 6.81 2.35 11.87
12/12/2021 1:00:00 AM 5.36 41.648 0.068 6.82 2.38 11.88
12/12/2021 1:15:00 AM 5.32 41.576 0.068 6.82 2.25 11.9
12/12/2021 1:30:00 AM 5.27 41.486 0.067 6.81 2.37 11.91
12/12/2021 1:45:00 AM 5.23 41.414 0.067 6.81 2.23 11.93
12/12/2021 2:00:00 AM 5.19 41.342 0.067 6.82 2.34 11.95
12/12/2021 2:15:00 AM 5.16 41.288 0.067 6.82 2.24 11.97
12/12/2021 2:30:00 AM 5.13 41.234 0.067 6.82 2.19 11.98
12/12/2021 2:45:00 AM 5.07 41.126 0.067 6.83 2.18 11.99
12/12/2021 3:00:00 AM 5.02 41.036 0.067 6.82 2.18 12.02
12/12/2021 3:15:00 AM 4.99 40.982 0.067 6.82 2.23 12.04
12/12/2021 3:30:00 AM 4.95 40.91 0.067 6.82 2.21 12.05
12/12/2021 3:45:00 AM 4.93 40.874 0.067 6.81 2.12 12.06
12/12/2021 4:00:00 AM 4.9 40.82 0.067 6.82 2.12 12.08
12/12/2021 4:15:00 AM 4.88 40.784 0.067 6.82 2.06 12.1
12/12/2021 4:30:00 AM 4.85 40.73 0.067 6.82 2.11 12.1
12/12/2021 4:45:00 AM 4.81 40.658 0.067 6.8 2.09 12.12
12/12/2021 5:00:00 AM 4.78 40.604 0.067 6.82 2.09 12.13
12/12/2021 5:15:00 AM 4.74 40.532 0.067 6.82 1.98 12.14
12/12/2021 5:30:00 AM 4.72 40.496 0.067 6.82 2.05 12.14
12/12/2021 5:45:00 AM 4.69 40.442 0.067 6.81 1.98 12.15
12/12/2021 6:00:00 AM 4.66 40.388 0.067 6.82 2.04 12.16
12/12/2021 6:15:00 AM 4.62 40.316 0.067 6.81 2.04 12.18
12/12/2021 6:30:00 AM 4.59 40.262 0.067 6.81 1.94 12.19
12/12/2021 6:45:00 AM 4.58 40.244 0.066 6.81 1.84 12.2
12/12/2021 7:00:00 AM 4.55 40.19 0.066 6.8 1.82 12.21
12/12/2021 7:15:00 AM 4.53 40.154 0.066 6.81 1.82 12.23
12/12/2021 7:30:00 AM 4.52 40.136 0.066 6.81 1.76 12.24
12/12/2021 7:45:00 AM 4.52 40.136 0.066 6.81 1.65 12.26
12/12/2021 8:00:00 AM 4.52 40.136 0.066 6.82 1.65 12.29
12/12/2021 8:15:00 AM 4.51 40.118 0.066 6.84 1.58 12.34
12/12/2021 8:30:00 AM 4.51 40.118 0.066 6.86 1.56 12.42
12/12/2021 8:45:00 AM 4.51 40.118 0.066 6.88 1.54 12.5
12/12/2021 9:00:00 AM 4.52 40.136 0.066 6.92 1.56 12.56
12/12/2021 9:15:00 AM 4.53 40.154 0.066 6.92 1.51 12.63
12/12/2021 9:30:00 AM 4.57 40.226 0.066 6.96 1.59 12.68
12/12/2021 9:45:00 AM 4.58 40.244 0.065 6.98 1.37 12.7
12/12/2021 10:00:00 AM 4.57 40.226 0.065 6.98 1.45 12.7
12/12/2021 10:15:00 AM 4.62 40.316 0.065 7.01 1.45 12.73
12/12/2021 10:30:00 AM 4.67 40.406 0.065 7.01 1.59 12.75
12/12/2021 10:45:00 AM 4.71 40.478 0.065 7.04 1.59 12.74
12/12/2021 11:00:00 AM 4.75 40.55 0.065 7.02 1.44 12.73
12/12/2021 11:15:00 AM 4.79 40.622 0.065 7.03 1.46 12.71
12/12/2021 11:30:00 AM 4.82 40.676 0.065 7.03 1.39 12.69
12/12/2021 11:45:00 AM 4.86 40.748 0.065 7.03 1.35 12.68
12/12/2021 12:00:00 PM 4.91 40.838 0.065 7.04 1.35 12.67
12/12/2021 12:15:00 PM 4.95 40.91 0.064 7.03 1.37 12.65
12/12/2021 12:30:00 PM 4.99 40.982 0.064 7.02 1.43 12.62
12/12/2021 12:45:00 PM 5.03 41.054 0.064 7.03 1.4 12.6
12/12/2021 1:00:00 PM 5.07 41.126 0.064 7.02 1.45 12.57
12/12/2021 1:15:00 PM 5.1 41.18 0.064 7.02 1.42 12.55
12/12/2021 1:30:00 PM 5.14 41.252 0.064 7.01 1.36 12.51
12/12/2021 1:45:00 PM 5.16 41.288 0.064 7.01 1.38 12.49
12/12/2021 2:00:00 PM 5.18 41.324 0.064 7.21 1.21 12.47
12/12/2021 2:15:00 PM 5.19 41.342 0.064 7.16 1.27 12.45
12/12/2021 2:30:00 PM 5.2 41.36 0.064 6.93 1.28 12.43
12/12/2021 2:45:00 PM 5.19 41.342 0.064 6.96 1.29 12.41
12/12/2021 3:00:00 PM 5.17 41.306 0.064 6.96 1.3 12.4
12/12/2021 3:15:00 PM 5.13 41.234 0.064 6.96 1.33 12.38
12/12/2021 3:30:00 PM 5.1 41.18 0.064 6.95 1.33 12.36
12/12/2021 3:45:00 PM 5.06 41.108 0.064 6.92 1.29 12.34
12/12/2021 4:00:00 PM 5.04 41.072 0.064 6.93 1.28 12.32
12/12/2021 4:15:00 PM 5.01 41.018 0.064 6.9 1.34 12.31
12/12/2021 4:30:00 PM 4.97 40.946 0.064 6.9 1.27 12.28
12/12/2021 4:45:00 PM 4.92 40.856 0.065 6.87 1.22 12.25
12/12/2021 5:00:00 PM 4.87 40.766 0.065 6.85 1.32 12.24
12/12/2021 5:15:00 PM 4.81 40.658 0.065 6.85 1.32 12.22
12/12/2021 5:30:00 PM 4.77 40.586 0.065 6.84 1.41 12.22
12/12/2021 5:45:00 PM 4.72 40.496 0.065 6.82 1.42 12.22
12/12/2021 6:00:00 PM 4.68 40.424 0.065 6.84 1.43 12.22
12/12/2021 6:15:00 PM 4.64 40.352 0.065 6.83 1.41 12.23
12/12/2021 6:30:00 PM 4.6 40.28 0.065 6.8 1.33 12.25
12/12/2021 6:45:00 PM 4.56 40.208 0.065 6.82 1.41 12.26
12/12/2021 7:00:00 PM 4.52 40.136 0.065 6.81 1.46 12.27
12/12/2021 7:15:00 PM 4.48 40.064 0.065 6.82 1.39 12.29
12/12/2021 7:30:00 PM 4.44 39.992 0.065 6.81 1.46 12.31
12/12/2021 7:45:00 PM 4.41 39.938 0.065 6.81 1.38 12.32
12/12/2021 8:00:00 PM 4.37 39.866 0.065 6.81 1.36 12.33
12/12/2021 8:15:00 PM 4.34 39.812 0.065 6.82 1.36 12.34
12/12/2021 8:30:00 PM 4.31 39.758 0.065 6.82 1.49 12.35
12/12/2021 8:45:00 PM 4.27 39.686 0.065 6.81 1.45 12.37
12/12/2021 9:00:00 PM 4.24 39.632 0.065 6.81 1.45 12.38
12/12/2021 9:15:00 PM 4.21 39.578 0.065 6.81 1.41 12.39
12/12/2021 9:30:00 PM 4.18 39.524 0.065 6.81 1.53 12.4
12/12/2021 9:45:00 PM 4.15 39.47 0.065 6.81 1.45 12.41
12/12/2021 10:00:00 PM 4.13 39.434 0.064 6.8 1.47 12.42
12/12/2021 10:15:00 PM 4.1 39.38 0.064 6.8 1.41 12.42
12/12/2021 10:30:00 PM 4.08 39.344 0.064 6.8 1.39 12.43
12/12/2021 10:45:00 PM 4.06 39.308 0.064 6.81 1.4 12.43
12/12/2021 11:00:00 PM 4.04 39.272 0.064 6.81 1.42 12.44
12/12/2021 11:15:00 PM 4.02 39.236 0.064 6.8 1.46 12.44
12/12/2021 11:30:00 PM 4 39.2 0.064 6.81 1.43 12.45
12/12/2021 11:45:00 PM 3.98 39.164 0.064 6.81 1.41 12.46
12/13/2021 12:00:00 AM 3.97 39.146 0.064 6.81 1.4 12.46
12/13/2021 12:15:00 AM 3.97 39.146 0.064 6.8 1.37 12.46
12/13/2021 12:30:00 AM 3.97 39.146 0.064 6.8 1.42 12.46
12/13/2021 12:45:00 AM 3.96 39.128 0.064 6.8 1.37 12.47
12/13/2021 1:00:00 AM 3.95 39.11 0.064 6.79 1.42 12.48
12/13/2021 1:15:00 AM 3.94 39.092 0.064 6.8 1.48 12.48
12/13/2021 1:30:00 AM 3.94 39.092 0.064 6.8 1.49 12.48
12/13/2021 1:45:00 AM 3.94 39.092 0.064 6.8 1.37 12.49
12/13/2021 2:00:00 AM 3.95 39.11 0.064 6.78 1.42 12.49
12/13/2021 2:15:00 AM 3.95 39.11 0.064 6.79 1.57 12.49
12/13/2021 2:30:00 AM 3.97 39.146 0.064 6.79 1.45 12.48
12/13/2021 2:45:00 AM 3.99 39.182 0.064 6.79 1.45 12.48
12/13/2021 3:00:00 AM 4.01 39.218 0.064 6.8 1.37 12.47
12/13/2021 3:15:00 AM 4.03 39.254 0.064 6.8 1.59 12.47
12/13/2021 3:30:00 AM 4.04 39.272 0.064 6.8 1.39 12.47
12/13/2021 3:45:00 AM 4.05 39.29 0.064 6.79 1.45 12.46
12/13/2021 4:00:00 AM 4.07 39.326 0.064 6.8 1.45 12.46
12/13/2021 4:15:00 AM 4.09 39.362 0.064 6.79 1.41 12.45
12/13/2021 4:30:00 AM 4.1 39.38 0.063 6.8 1.47 12.46
12/13/2021 4:45:00 AM 4.11 39.398 0.063 6.79 1.46 12.45
12/13/2021 5:00:00 AM 4.12 39.416 0.063 6.79 1.41 12.45
12/13/2021 5:15:00 AM 4.12 39.416 0.063 6.8 1.48 12.45
12/13/2021 5:30:00 AM 4.13 39.434 0.063 6.8 1.52 12.45
12/13/2021 5:45:00 AM 4.13 39.434 0.063 6.8 1.46 12.45
12/13/2021 6:00:00 AM 4.14 39.452 0.063 6.79 1.43 12.45
12/13/2021 6:15:00 AM 4.14 39.452 0.063 6.8 1.44 12.44
12/13/2021 6:30:00 AM 4.15 39.47 0.063 6.8 1.56 12.45
12/13/2021 6:45:00 AM 4.15 39.47 0.063 6.81 1.47 12.44
12/13/2021 7:00:00 AM 4.15 39.47 0.063 6.86 1.4 12.44
12/13/2021 7:15:00 AM 4.15 39.47 0.063 6.84 1.46 12.45
12/13/2021 7:30:00 AM 4.15 39.47 0.063 6.84 1.4 12.45
12/13/2021 7:45:00 AM 4.15 39.47 0.063 6.83 1.47 12.47
12/13/2021 8:00:00 AM 4.14 39.452 0.063 6.85 1.35 12.5
12/13/2021 8:15:00 AM 4.15 39.47 0.063 6.86 1.37 12.55
12/13/2021 8:30:00 AM 4.15 39.47 0.063 6.89 1.34 12.57
12/13/2021 8:45:00 AM 4.15 39.47 0.063 6.89 1.27 12.61
12/13/2021 9:00:00 AM 4.17 39.506 0.063 6.92 1.33 12.68
12/13/2021 9:15:00 AM 4.19 39.542 0.063 6.94 1.25 12.72
12/13/2021 9:30:00 AM 4.22 39.596 0.063 6.95 1.32 12.76
12/13/2021 9:45:00 AM 4.26 39.668 0.063 6.99 1.19 12.77
12/13/2021 10:00:00 AM 4.31 39.758 0.062 7.04 1.13 12.79
12/13/2021 10:15:00 AM 4.36 39.848 0.062 7.04 1.21 12.8
12/13/2021 10:30:00 AM 4.42 39.956 0.062 6.93 1.27 12.8
12/13/2021 10:45:00 AM 4.5 40.1 0.062 6.95 1.23 12.8
12/13/2021 11:00:00 AM 4.58 40.244 0.062 6.98 1.26 12.78
12/13/2021 11:15:00 AM 4.67 40.406 0.062 6.99 1.25 12.76
12/13/2021 11:30:00 AM 4.75 40.55 0.062 6.98 1.48 12.75
12/13/2021 11:45:00 AM 4.82 40.676 0.062 7.01 1.21 12.73
12/13/2021 12:00:00 PM 4.88 40.784 0.062 6.99 1.24 12.7
12/13/2021 12:15:00 PM 4.93 40.874 0.062 7 1.31 12.68
12/13/2021 12:30:00 PM 5 41 0.062 7 1.25 12.63
12/13/2021 12:45:00 PM 5.06 41.108 0.062 7 1.22 12.61
12/13/2021 1:00:00 PM 5.13 41.234 0.062 7 1.2 12.56
12/13/2021 1:15:00 PM 5.19 41.342 0.062 6.99 1.3 12.53
12/13/2021 1:30:00 PM 5.25 41.45 0.061 6.99 1.22 12.48
12/13/2021 1:45:00 PM 5.3 41.54 0.061 6.99 1.29 12.45
12/13/2021 2:00:00 PM 5.34 41.612 0.061 6.97 1.3 12.42
12/13/2021 2:15:00 PM 5.37 41.666 0.061 6.98 1.31 12.4
12/13/2021 2:30:00 PM 5.39 41.702 0.061 6.97 1.29 12.38
12/13/2021 2:45:00 PM 5.41 41.738 0.062 6.97 1.31 12.35
12/13/2021 3:00:00 PM 5.4 41.72 0.062 6.96 1.3 12.33
12/13/2021 3:15:00 PM 5.38 41.684 0.062 6.93 1.34 12.3
12/13/2021 3:30:00 PM 5.36 41.648 0.062 6.93 1.39 12.28
12/13/2021 3:45:00 PM 5.34 41.612 0.062 6.91 1.32 12.25
12/13/2021 4:00:00 PM 5.32 41.576 0.062 6.91 1.3 12.22
12/13/2021 4:15:00 PM 5.3 41.54 0.062 6.89 1.29 12.21
12/13/2021 4:30:00 PM 5.27 41.486 0.062 6.88 1.36 12.18
12/13/2021 4:45:00 PM 5.23 41.414 0.062 6.86 1.33 12.16
12/13/2021 5:00:00 PM 5.19 41.342 0.062 6.85 1.28 12.14
12/13/2021 5:15:00 PM 5.15 41.27 0.062 6.84 1.42 12.13
12/13/2021 5:30:00 PM 5.11 41.198 0.062 6.81 1.47 12.13
12/13/2021 5:45:00 PM 5.07 41.126 0.062 6.82 1.49 12.14
12/13/2021 6:00:00 PM 5.03 41.054 0.062 6.81 1.39 12.14
12/13/2021 6:15:00 PM 5 41 0.062 6.81 1.42 12.15
12/13/2021 6:30:00 PM 4.96 40.928 0.062 6.8 1.49 12.16
12/13/2021 6:45:00 PM 4.92 40.856 0.062 6.81 1.44 12.17
12/13/2021 7:00:00 PM 4.89 40.802 0.062 6.81 1.45 12.19
12/13/2021 7:15:00 PM 4.86 40.748 0.062 6.8 1.37 12.19
12/13/2021 7:30:00 PM 4.83 40.694 0.062 6.79 1.41 12.2
12/13/2021 7:45:00 PM 4.8 40.64 0.062 6.81 1.5 12.22
12/13/2021 8:00:00 PM 4.77 40.586 0.062 6.79 1.49 12.23
12/13/2021 8:15:00 PM 4.74 40.532 0.062 6.8 1.33 12.24
12/13/2021 8:30:00 PM 4.71 40.478 0.062 6.8 1.4 12.24
12/13/2021 8:45:00 PM 4.68 40.424 0.062 6.8 1.41 12.26
12/13/2021 9:00:00 PM 4.65 40.37 0.062 6.79 1.38 12.26
12/13/2021 9:15:00 PM 4.62 40.316 0.062 6.79 1.4 12.27
12/13/2021 9:30:00 PM 4.6 40.28 0.062 6.8 1.34 12.29
12/13/2021 9:45:00 PM 4.57 40.226 0.062 6.8 1.42 12.3
12/13/2021 10:00:00 PM 4.54 40.172 0.062 6.8 1.38 12.31
12/13/2021 10:15:00 PM 4.52 40.136 0.062 6.79 1.35 12.32
12/13/2021 10:30:00 PM 4.5 40.1 0.062 6.79 1.46 12.33
12/13/2021 10:45:00 PM 4.47 40.046 0.062 6.79 1.29 12.35
12/13/2021 11:00:00 PM 4.45 40.01 0.062 6.8 1.38 12.36
12/13/2021 11:15:00 PM 4.43 39.974 0.062 6.79 1.35 12.37
12/13/2021 11:30:00 PM 4.4 39.92 0.062 6.79 1.31 12.37
12/13/2021 11:45:00 PM 4.38 39.884 0.062 6.79 1.32 12.39
12/14/2021 12:00:00 AM 4.35 39.83 0.062 6.79 1.36 12.4
12/14/2021 12:15:00 AM 4.33 39.794 0.062 6.79 1.25 12.41
12/14/2021 12:30:00 AM 4.31 39.758 0.062 6.78 1.32 12.42
12/14/2021 12:45:00 AM 4.29 39.722 0.062 6.79 1.45 12.42
12/14/2021 1:00:00 AM 4.27 39.686 0.062 6.78 1.42 12.44
12/14/2021 1:15:00 AM 4.26 39.668 0.062 6.79 1.39 12.44
12/14/2021 1:30:00 AM 4.24 39.632 0.062 6.79 1.45 12.45
12/14/2021 1:45:00 AM 4.21 39.578 0.062 6.78 1.47 12.46
12/14/2021 2:00:00 AM 4.19 39.542 0.062 6.78 1.37 12.47
12/14/2021 2:15:00 AM 4.17 39.506 0.062 6.78 1.34 12.48
12/14/2021 2:30:00 AM 4.14 39.452 0.062 6.78 1.32 12.49
12/14/2021 2:45:00 AM 4.12 39.416 0.062 6.77 1.33 12.5
12/14/2021 3:00:00 AM 4.11 39.398 0.062 6.79 1.29 12.5
12/14/2021 3:15:00 AM 4.09 39.362 0.062 6.78 1.31 12.51
12/14/2021 3:30:00 AM 4.07 39.326 0.062 6.79 1.37 12.52
12/14/2021 3:45:00 AM 4.05 39.29 0.062 6.79 1.33 12.52
12/14/2021 4:00:00 AM 4.03 39.254 0.062 6.79 1.39 12.52
12/14/2021 4:15:00 AM 4.02 39.236 0.062 6.78 1.31 12.53
12/14/2021 4:30:00 AM 4 39.2 0.062 6.79 1.34 12.54
12/14/2021 4:45:00 AM 3.98 39.164 0.062 6.78 1.35 12.55
12/14/2021 5:00:00 AM 3.96 39.128 0.062 6.79 1.34 12.56
12/14/2021 5:15:00 AM 3.94 39.092 0.062 6.79 1.32 12.57
12/14/2021 5:30:00 AM 3.92 39.056 0.062 6.78 1.34 12.58
12/14/2021 5:45:00 AM 3.89 39.002 0.062 6.8 1.33 12.59
12/14/2021 6:00:00 AM 3.87 38.966 0.062 6.79 1.4 12.6
12/14/2021 6:15:00 AM 3.85 38.93 0.062 6.8 1.49 12.61
12/14/2021 6:30:00 AM 3.82 38.876 0.062 6.79 1.38 12.63
12/14/2021 6:45:00 AM 3.8 38.84 0.062 6.8 1.42 12.63
12/14/2021 7:00:00 AM 3.78 38.804 0.062 6.78 1.4 12.64
12/14/2021 7:15:00 AM 3.76 38.768 0.062 6.79 1.35 12.66
12/14/2021 7:30:00 AM 3.74 38.732 0.062 6.8 1.31 12.68
12/14/2021 7:45:00 AM 3.73 38.714 0.062 6.8 1.32 12.71
12/14/2021 8:00:00 AM 3.72 38.696 0.062 6.79 1.27 12.75
12/14/2021 8:15:00 AM 3.71 38.678 0.062 6.83 1.2 12.81
12/14/2021 8:30:00 AM 3.71 38.678 0.062 6.84 1.18 12.86
12/14/2021 8:45:00 AM 3.71 38.678 0.062 6.88 1.11 12.91
12/14/2021 9:00:00 AM 3.73 38.714 0.062 6.88 1.09 12.96
12/14/2021 9:15:00 AM 3.76 38.768 0.062 6.91 1.08 13.01
12/14/2021 9:30:00 AM 3.81 38.858 0.062 6.93 1.05 13.05
12/14/2021 9:45:00 AM 3.86 38.948 0.061 6.94 1.06 13.08
12/14/2021 10:00:00 AM 3.94 39.092 0.061 6.97 1.03 13.1
12/14/2021 10:15:00 AM 4.02 39.236 0.061 6.98 1.04 13.08
12/14/2021 10:30:00 AM 4.11 39.398 0.061 7.01 1.01 13.07
12/14/2021 10:45:00 AM 4.2 39.56 0.061 7.02 1.01 13.07
12/14/2021 11:00:00 AM 4.29 39.722 0.061 7.02 1.03 13.06
12/14/2021 11:15:00 AM 4.39 39.902 0.061 7.04 1.02 13.03
12/14/2021 11:30:00 AM 4.49 40.082 0.061 7.04 1.08 12.99
12/14/2021 11:45:00 AM 4.58 40.244 0.061 7.04 1.02 12.95
12/14/2021 12:00:00 PM 4.67 40.406 0.061 7.05 0.99 12.91
12/14/2021 12:15:00 PM 4.76 40.568 0.061 7.05 1 12.88
12/14/2021 12:30:00 PM 4.85 40.73 0.061 7.04 0.99 12.84
12/14/2021 12:45:00 PM 4.94 40.892 0.061 7.02 1.07 12.79
12/14/2021 1:00:00 PM 5.03 41.054 0.061 7.03 1.08 12.75
12/14/2021 1:15:00 PM 5.11 41.198 0.061 7.04 1.09 12.7
12/14/2021 1:30:00 PM 5.17 41.306 0.061 7.03 0.99 12.66
12/14/2021 1:45:00 PM 5.24 41.432 0.061 7.01 1.07 12.62
12/14/2021 2:00:00 PM 5.3 41.54 0.061 7.01 1.07 12.58
12/14/2021 2:15:00 PM 5.34 41.612 0.061 6.99 1.17 12.56
12/14/2021 2:30:00 PM 5.38 41.684 0.061 7.01 1.14 12.53
12/14/2021 2:45:00 PM 5.4 41.72 0.061 6.99 1.06 12.51
12/14/2021 3:00:00 PM 5.39 41.702 0.061 6.96 1.08 12.48
12/14/2021 3:15:00 PM 5.37 41.666 0.061 6.97 1.11 12.46
12/14/2021 3:30:00 PM 5.36 41.648 0.061 6.96 1.05 12.42
12/14/2021 3:45:00 PM 5.33 41.594 0.061 6.93 1.08 12.39
12/14/2021 4:00:00 PM 5.31 41.558 0.061 6.93 1.14 12.37
12/14/2021 4:15:00 PM 5.29 41.522 0.061 6.91 1.07 12.34
12/14/2021 4:30:00 PM 5.25 41.45 0.061 6.9 1.11 12.31
12/14/2021 4:45:00 PM 5.2 41.36 0.062 6.89 1.08 12.29
12/14/2021 5:00:00 PM 5.15 41.27 0.062 6.87 1.18 12.28
12/14/2021 5:15:00 PM 5.1 41.18 0.062 6.86 1.15 12.28
12/14/2021 5:30:00 PM 5.05 41.09 0.062 6.85 1.16 12.28
12/14/2021 5:45:00 PM 5.01 41.018 0.062 6.84 1.17 12.28
12/14/2021 6:00:00 PM 4.97 40.946 0.062 6.82 1.2 12.29
12/14/2021 6:15:00 PM 4.92 40.856 0.062 6.83 1.21 12.3
12/14/2021 6:30:00 PM 4.88 40.784 0.062 6.84 1.23 12.32
12/14/2021 6:45:00 PM 4.84 40.712 0.062 6.83 1.12 12.33
12/14/2021 7:00:00 PM 4.81 40.658 0.062 6.83 1.24 12.35
12/14/2021 7:15:00 PM 4.78 40.604 0.062 6.82 1.13 12.35
12/14/2021 7:30:00 PM 4.75 40.55 0.062 6.82 1.12 12.35
12/14/2021 7:45:00 PM 4.72 40.496 0.062 6.82 1.23 12.37
12/14/2021 8:00:00 PM 4.69 40.442 0.062 6.81 1.14 12.38
12/14/2021 8:15:00 PM 4.66 40.388 0.062 6.83 1.11 12.38
12/14/2021 8:30:00 PM 4.63 40.334 0.062 6.81 1.15 12.39
12/14/2021 8:45:00 PM 4.6 40.28 0.062 6.82 1.13 12.4
12/14/2021 9:00:00 PM 4.57 40.226 0.062 6.81 1.12 12.42
12/14/2021 9:15:00 PM 4.54 40.172 0.062 6.83 1.08 12.42
12/14/2021 9:30:00 PM 4.51 40.118 0.062 6.79 1.14 12.44
12/14/2021 9:45:00 PM 4.47 40.046 0.062 6.82 1.14 12.45
12/14/2021 10:00:00 PM 4.44 39.992 0.062 6.82 1.12 12.46
12/14/2021 10:15:00 PM 4.41 39.938 0.062 6.81 1.14 12.47
12/14/2021 10:30:00 PM 4.38 39.884 0.062 6.82 1.04 12.48
12/14/2021 10:45:00 PM 4.36 39.848 0.062 6.83 1.14 12.49
12/14/2021 11:00:00 PM 4.34 39.812 0.062 6.8 1.11 12.5
12/14/2021 11:15:00 PM 4.31 39.758 0.062 6.83 1.08 12.51
12/14/2021 11:30:00 PM 4.3 39.74 0.062 6.85 1.02 12.52
12/14/2021 11:45:00 PM 4.28 39.704 0.062 6.83 1 12.52
12/15/2021 12:00:00 AM 4.26 39.668 0.062 6.85 1.1 12.53
12/15/2021 12:15:00 AM 4.23 39.614 0.062 6.85 1.01 12.54
12/15/2021 12:30:00 AM 4.21 39.578 0.062 6.84 1.07 12.54
12/15/2021 12:45:00 AM 4.18 39.524 0.062 6.85 1.06 12.55
12/15/2021 1:00:00 AM 4.16 39.488 0.062 6.85 1.12 12.55
12/15/2021 1:15:00 AM 4.14 39.452 0.062 6.81 1.05 12.56
12/15/2021 1:30:00 AM 4.12 39.416 0.062 6.82 1.05 12.56
12/15/2021 1:45:00 AM 4.09 39.362 0.062 6.81 1.11 12.57
12/15/2021 2:00:00 AM 4.06 39.308 0.062 6.82 1.09 12.57
12/15/2021 2:15:00 AM 4.03 39.254 0.062 6.83 1.07 12.58
12/15/2021 2:30:00 AM 4.01 39.218 0.062 6.8 1.08 12.59
12/15/2021 2:45:00 AM 3.98 39.164 0.062 6.83 1.09 12.59
12/15/2021 3:00:00 AM 3.95 39.11 0.062 6.82 1.08 12.61
12/15/2021 3:15:00 AM 3.93 39.074 0.062 6.82 1.13 12.62
12/15/2021 3:30:00 AM 3.91 39.038 0.062 6.81 1.18 12.63
12/15/2021 3:45:00 AM 3.89 39.002 0.062 6.81 1.08 12.63
12/15/2021 4:00:00 AM 3.87 38.966 0.062 6.83 1.17 12.64
12/15/2021 4:15:00 AM 3.85 38.93 0.062 6.82 1.03 12.65
12/15/2021 4:30:00 AM 3.83 38.894 0.062 6.82 1.04 12.65
12/15/2021 4:45:00 AM 3.82 38.876 0.062 6.8 1.06 12.65
12/15/2021 5:00:00 AM 3.8 38.84 0.062 6.82 1.11 12.66
12/15/2021 5:15:00 AM 3.8 38.84 0.062 6.82 1.12 12.67
12/15/2021 5:30:00 AM 3.79 38.822 0.062 6.82 1.14 12.66
12/15/2021 5:45:00 AM 3.78 38.804 0.062 6.82 1.07 12.67
12/15/2021 6:00:00 AM 3.76 38.768 0.062 6.82 1.09 12.68
12/15/2021 6:15:00 AM 3.76 38.768 0.062 6.8 1.07 12.67
12/15/2021 6:30:00 AM 3.76 38.768 0.062 6.82 1.04 12.68
12/15/2021 6:45:00 AM 3.77 38.786 0.062 6.82 1.11 12.68
12/15/2021 7:00:00 AM 3.78 38.804 0.062 6.82 1.15 12.67
12/15/2021 7:15:00 AM 3.79 38.822 0.062 6.82 1.09 12.67
12/15/2021 7:30:00 AM 3.81 38.858 0.062 6.83 1.03 12.66
12/15/2021 7:45:00 AM 3.84 38.912 0.062 6.83 1.08 12.67
12/15/2021 8:00:00 AM 3.87 38.966 0.062 6.82 0.97 12.7
12/15/2021 8:15:00 AM 3.92 39.056 0.062 6.85 0.95 12.72
12/15/2021 8:30:00 AM 3.97 39.146 0.062 6.85 0.93 12.72
12/15/2021 8:45:00 AM 4.03 39.254 0.062 6.88 0.93 12.74
12/15/2021 9:00:00 AM 4.1 39.38 0.062 6.9 0.9 12.8
12/15/2021 9:15:00 AM 4.16 39.488 0.062 6.91 0.92 12.88
12/15/2021 9:30:00 AM 4.23 39.614 0.062 6.95 0.89 12.92
12/15/2021 9:45:00 AM 4.28 39.704 0.062 6.98 0.93 12.93
12/15/2021 10:00:00 AM 4.34 39.812 0.062 6.99 0.87 12.92
12/15/2021 10:15:00 AM 4.39 39.902 0.062 7 0.9 12.92
12/15/2021 10:30:00 AM 4.45 40.01 0.062 7.01 0.89 12.93
12/15/2021 10:45:00 AM 4.5 40.1 0.062 7.03 0.87 12.91
12/15/2021 11:00:00 AM 4.57 40.226 0.062 7.04 0.88 12.91
12/15/2021 11:15:00 AM 4.63 40.334 0.061 7.06 0.89 12.9
12/15/2021 11:30:00 AM 4.69 40.442 0.061 7.06 0.91 12.87
12/15/2021 11:45:00 AM 4.74 40.532 0.061 7.05 0.85 12.82
12/15/2021 12:00:00 PM 4.78 40.604 0.061 7.05 0.9 12.8
12/15/2021 12:15:00 PM 4.83 40.694 0.061 7.02 0.9 12.74
12/15/2021 12:30:00 PM 4.86 40.748 0.061 7.02 0.94 12.69
12/15/2021 12:45:00 PM 4.9 40.82 0.061 7 0.87 12.63
12/15/2021 1:00:00 PM 4.94 40.892 0.061 6.99 0.9 12.59
12/15/2021 1:15:00 PM 4.98 40.964 0.062 6.99 0.89 12.56
12/15/2021 1:30:00 PM 5.02 41.036 0.062 6.98 0.94 12.56
12/15/2021 1:45:00 PM 5.06 41.108 0.062 6.98 0.91 12.54
12/15/2021 2:00:00 PM 5.1 41.18 0.062 6.98 1 12.53
12/15/2021 2:15:00 PM 5.14 41.252 0.062 6.97 0.93 12.48
12/15/2021 2:30:00 PM 5.17 41.306 0.062 6.96 0.92 12.46
12/15/2021 2:45:00 PM 5.2 41.36 0.062 6.96 0.86 12.41
12/15/2021 3:00:00 PM 5.23 41.414 0.062 6.95 0.92 12.38
12/15/2021 3:15:00 PM 5.26 41.468 0.062 6.94 0.9 12.33
12/15/2021 3:30:00 PM 5.29 41.522 0.062 6.95 0.96 12.32
12/15/2021 3:45:00 PM 5.31 41.558 0.062 6.93 0.94 12.29
12/15/2021 4:00:00 PM 5.33 41.594 0.062 6.91 1.03 12.25
12/15/2021 4:15:00 PM 5.35 41.63 0.062 6.92 0.94 12.21
12/15/2021 4:30:00 PM 5.37 41.666 0.062 6.9 1.01 12.17
12/15/2021 4:45:00 PM 5.39 41.702 0.062 6.88 1 12.13
12/15/2021 5:00:00 PM 5.4 41.72 0.062 6.86 1 12.1
12/15/2021 5:15:00 PM 5.42 41.756 0.062 6.86 1.04 12.08
12/15/2021 5:30:00 PM 5.44 41.792 0.062 6.87 1.07 12.06
12/15/2021 5:45:00 PM 5.45 41.81 0.062 6.86 1.11 12.05
12/15/2021 6:00:00 PM 5.46 41.828 0.062 6.86 1.15 12.04
12/15/2021 6:15:00 PM 5.47 41.846 0.062 6.86 1.18 12.03
12/15/2021 6:30:00 PM 5.49 41.882 0.062 6.85 1.21 12.02
12/15/2021 6:45:00 PM 5.5 41.9 0.063 6.85 1.17 12.01
12/15/2021 7:00:00 PM 5.52 41.936 0.063 6.84 1.1 12.01
12/15/2021 7:15:00 PM 5.53 41.954 0.063 6.86 1.08 12
12/15/2021 7:30:00 PM 5.54 41.972 0.063 6.85 1.1 12
12/15/2021 7:45:00 PM 5.54 41.972 0.063 6.84 1.09 12
12/15/2021 8:00:00 PM 5.55 41.99 0.063 6.84 1.08 11.99
12/15/2021 8:15:00 PM 5.56 42.008 0.063 6.84 1.05 11.98
12/15/2021 8:30:00 PM 5.58 42.044 0.063 6.85 1.13 11.98
12/15/2021 8:45:00 PM 5.59 42.062 0.063 6.85 1.08 11.97
12/15/2021 9:00:00 PM 5.6 42.08 0.063 6.85 1.13 11.96
12/15/2021 9:15:00 PM 5.62 42.116 0.063 6.85 1.06 11.95
12/15/2021 9:30:00 PM 5.63 42.134 0.063 6.84 1.05 11.95
12/15/2021 9:45:00 PM 5.65 42.17 0.063 6.85 0.99 11.94
12/15/2021 10:00:00 PM 5.66 42.188 0.063 6.84 0.99 11.93
12/15/2021 10:15:00 PM 5.67 42.206 0.063 6.84 1.04 11.92
12/15/2021 10:30:00 PM 5.68 42.224 0.063 6.85 1.09 11.92
12/15/2021 10:45:00 PM 5.67 42.206 0.063 6.85 1.03 11.92
12/15/2021 11:00:00 PM 5.66 42.188 0.063 6.85 1.03 11.92
12/15/2021 11:15:00 PM 5.66 42.188 0.063 6.84 1.05 11.92
12/15/2021 11:30:00 PM 5.66 42.188 0.063 6.84 1.03 11.92
12/15/2021 11:45:00 PM 5.66 42.188 0.063 6.84 1.05 11.91
12/16/2021 12:00:00 AM 5.65 42.17 0.063 6.85 1.06 11.91
12/16/2021 12:15:00 AM 5.65 42.17 0.063 6.84 1.05 11.91
12/16/2021 12:30:00 AM 5.64 42.152 0.063 6.84 0.98 11.91
12/16/2021 12:45:00 AM 5.64 42.152 0.063 6.84 1.1 11.9
12/16/2021 1:00:00 AM 5.66 42.188 0.063 6.85 1.05 11.9
12/16/2021 1:15:00 AM 5.67 42.206 0.063 6.84 1.09 11.9
12/16/2021 1:30:00 AM 5.68 42.224 0.063 6.82 1.09 11.9
12/16/2021 1:45:00 AM 5.69 42.242 0.063 6.84 1.15 11.89
12/16/2021 2:00:00 AM 5.69 42.242 0.063 6.84 1.08 11.89
12/16/2021 2:15:00 AM 5.69 42.242 0.063 6.84 1.02 11.89
12/16/2021 2:30:00 AM 5.7 42.26 0.063 6.84 1.15 11.88
12/16/2021 2:45:00 AM 5.71 42.278 0.063 6.81 1.05 11.87
12/16/2021 3:00:00 AM 5.72 42.296 0.063 6.82 1.07 11.87
12/16/2021 3:15:00 AM 5.73 42.314 0.063 6.81 1.03 11.86
12/16/2021 3:30:00 AM 5.74 42.332 0.063 6.84 1.09 11.86
12/16/2021 3:45:00 AM 5.75 42.35 0.063 6.83 1.07 11.86
12/16/2021 4:00:00 AM 5.76 42.368 0.063 6.83 1.05 11.85
12/16/2021 4:15:00 AM 5.76 42.368 0.063 6.83 1.01 11.84
12/16/2021 4:30:00 AM 5.75 42.35 0.063 6.81 1.04 11.84
12/16/2021 4:45:00 AM 5.74 42.332 0.063 6.83 1.05 11.84
12/16/2021 5:00:00 AM 5.73 42.314 0.063 6.83 1.08 11.84
12/16/2021 5:15:00 AM 5.74 42.332 0.063 6.83 1.04 11.83
12/16/2021 5:30:00 AM 5.73 42.314 0.063 6.8 1.08 11.84
12/16/2021 5:45:00 AM 5.72 42.296 0.063 6.83 1.12 11.84
12/16/2021 6:00:00 AM 5.7 42.26 0.063 6.81 1.1 11.85
12/16/2021 6:15:00 AM 5.68 42.224 0.063 6.82 1.08 11.85
12/16/2021 6:30:00 AM 5.66 42.188 0.063 6.83 1.14 11.86
12/16/2021 6:45:00 AM 5.64 42.152 0.063 6.81 1.1 11.86
12/16/2021 7:00:00 AM 5.62 42.116 0.063 6.81 1.12 11.86
12/16/2021 7:15:00 AM 5.6 42.08 0.063 6.82 1.12 11.87
12/16/2021 7:30:00 AM 5.57 42.026 0.063 6.83 1.07 11.89
12/16/2021 7:45:00 AM 5.56 42.008 0.063 6.83 1.02 11.91
12/16/2021 8:00:00 AM 5.54 41.972 0.063 6.83 1.01 11.95
12/16/2021 8:15:00 AM 5.53 41.954 0.063 6.86 1.05 12
12/16/2021 8:30:00 AM 5.53 41.954 0.063 6.89 1.01 12.06
12/16/2021 8:45:00 AM 5.53 41.954 0.063 6.9 1 12.12
12/16/2021 9:00:00 AM 5.54 41.972 0.063 6.91 1.04 12.18
12/16/2021 9:15:00 AM 5.56 42.008 0.063 6.93 0.94 12.23
12/16/2021 9:30:00 AM 5.59 42.062 0.063 6.96 0.95 12.27
12/16/2021 9:45:00 AM 5.63 42.134 0.063 6.99 1 12.31
12/16/2021 10:00:00 AM 5.69 42.242 0.063 7.01 0.93 12.32
12/16/2021 10:15:00 AM 5.76 42.368 0.062 7.02 0.92 12.33
12/16/2021 10:30:00 AM 5.84 42.512 0.062 7.05 0.89 12.33
12/16/2021 10:45:00 AM 5.94 42.692 0.062 7.07 0.91 12.32
12/16/2021 11:00:00 AM 6.06 42.908 0.062 7.09 0.96 12.32
12/16/2021 11:15:00 AM 6.2 43.16 0.062 7.11 0.88 12.32
12/16/2021 11:30:00 AM 6.29 43.322 0.062 7.12 0.92 12.29
12/16/2021 11:45:00 AM 6.36 43.448 0.062 7.12 0.9 12.25
12/16/2021 12:00:00 PM 6.45 43.61 0.062 7.13 0.92 12.2
12/16/2021 12:15:00 PM 6.54 43.772 0.062 7.13 0.92 12.17
12/16/2021 12:30:00 PM 6.63 43.934 0.062 7.13 0.9 12.13
12/16/2021 12:45:00 PM 6.71 44.078 0.062 7.13 0.95 12.1
12/16/2021 1:00:00 PM 6.79 44.222 0.062 7.12 0.88 12.04
12/16/2021 1:15:00 PM 6.85 44.33 0.062 7.1 0.9 11.97
12/16/2021 1:30:00 PM 6.92 44.456 0.062 7.09 0.91 11.93
12/16/2021 1:45:00 PM 6.98 44.564 0.062 7.07 0.92 11.88
12/16/2021 2:00:00 PM 7.03 44.654 0.062 7.08 0.98 11.86
12/16/2021 2:15:00 PM 7.09 44.762 0.062 7.07 0.93 11.85
12/16/2021 2:30:00 PM 7.14 44.852 0.062 7.07 0.94 11.81
12/16/2021 2:45:00 PM 7.2 44.96 0.062 7.06 0.97 11.78
12/16/2021 3:00:00 PM 7.25 45.05 0.062 7.05 0.96 11.76
12/16/2021 3:15:00 PM 7.3 45.14 0.062 7.06 0.95 11.71
12/16/2021 3:30:00 PM 7.35 45.23 0.062 7.02 0.97 11.67
12/16/2021 3:45:00 PM 7.39 45.302 0.062 7.01 0.96 11.58
12/16/2021 4:00:00 PM 7.44 45.392 0.062 6.97 0.93 11.52
12/16/2021 4:15:00 PM 7.47 45.446 0.062 6.95 0.93 11.46
12/16/2021 4:30:00 PM 7.51 45.518 0.063 6.95 0.92 11.39
12/16/2021 4:45:00 PM 7.55 45.59 0.063 6.91 1 11.34
12/16/2021 5:00:00 PM 7.59 45.662 0.063 6.91 0.98 11.29
12/16/2021 5:15:00 PM 7.62 45.716 0.063 6.89 1 11.25
12/16/2021 5:30:00 PM 7.66 45.788 0.063 6.9 1.11 11.22
12/16/2021 5:45:00 PM 7.68 45.824 0.063 6.88 1.05 11.21
12/16/2021 6:00:00 PM 7.71 45.878 0.063 6.88 1.09 11.19
12/16/2021 6:15:00 PM 7.73 45.914 0.063 6.89 1.07 11.17
12/16/2021 6:30:00 PM 7.78 46.004 0.063 6.88 1.07 11.15
12/16/2021 6:45:00 PM 7.82 46.076 0.063 6.88 1.18 11.13
12/16/2021 7:00:00 PM 7.85 46.13 0.063 6.87 1.11 11.12
12/16/2021 7:15:00 PM 7.87 46.166 0.063 6.86 1.03 11.12
12/16/2021 7:30:00 PM 7.9 46.22 0.063 6.87 1.03 11.11
12/16/2021 7:45:00 PM 7.92 46.256 0.063 6.88 1.13 11.11
12/16/2021 8:00:00 PM 7.93 46.274 0.063 6.87 1.09 11.1
12/16/2021 8:15:00 PM 7.96 46.328 0.063 6.87 1.07 11.09
12/16/2021 8:30:00 PM 7.99 46.382 0.063 6.84 1.1 11.08
12/16/2021 8:45:00 PM 8.01 46.418 0.063 6.87 1.06 11.08
12/16/2021 9:00:00 PM 8.03 46.454 0.063 6.86 1.08 11.07
12/16/2021 9:15:00 PM 8.05 46.49 0.063 6.86 1.03 11.06
12/16/2021 9:30:00 PM 8.09 46.562 0.063 6.85 1.07 11.05
12/16/2021 9:45:00 PM 8.1 46.58 0.063 6.85 1.09 11.05
12/16/2021 10:00:00 PM 8.13 46.634 0.063 6.86 1.12 11.04
12/16/2021 10:15:00 PM 8.15 46.67 0.063 6.86 1.09 11.04
12/16/2021 10:30:00 PM 8.18 46.724 0.064 6.86 1.07 11.03
12/16/2021 10:45:00 PM 8.19 46.742 0.064 6.86 1.16 11.03
12/16/2021 11:00:00 PM 8.18 46.724 0.064 6.86 1.05 11.03
12/16/2021 11:15:00 PM 8.14 46.652 0.064 6.85 1.08 11.04
12/16/2021 11:30:00 PM 8.1 46.58 0.064 6.86 1.09 11.05
12/16/2021 11:45:00 PM 8.06 46.508 0.064 6.86 1.1 11.06
12/17/2021 12:00:00 AM 8.01 46.418 0.064 6.86 1.04 11.07
12/17/2021 12:15:00 AM 7.96 46.328 0.064 6.86 1.05 11.09
12/17/2021 12:30:00 AM 7.91 46.238 0.064 6.86 1.12 11.1
12/17/2021 12:45:00 AM 7.85 46.13 0.064 6.87 1.07 11.11
12/17/2021 1:00:00 AM 7.79 46.022 0.064 6.85 1.08 11.14
12/17/2021 1:15:00 AM 7.72 45.896 0.064 6.86 1.09 11.15
12/17/2021 1:30:00 AM 7.64 45.752 0.064 6.85 1.12 11.19
12/17/2021 1:45:00 AM 7.57 45.626 0.064 6.86 1.09 11.21
12/17/2021 2:00:00 AM 7.49 45.482 0.064 6.84 1.07 11.23
12/17/2021 2:15:00 AM 7.41 45.338 0.064 6.86 1.13 11.26
12/17/2021 2:30:00 AM 7.33 45.194 0.064 6.86 1.11 11.29
12/17/2021 2:45:00 AM 7.24 45.032 0.064 6.85 1.16 11.31
12/17/2021 3:00:00 AM 7.16 44.888 0.064 6.86 1.08 11.34
12/17/2021 3:15:00 AM 7.07 44.726 0.064 6.85 1.1 11.37
12/17/2021 3:30:00 AM 6.98 44.564 0.064 6.86 1.08 11.41
12/17/2021 3:45:00 AM 6.89 44.402 0.064 6.84 1.14 11.43
12/17/2021 4:00:00 AM 6.81 44.258 0.064 6.83 1.13 11.46
12/17/2021 4:15:00 AM 6.73 44.114 0.064 6.83 1.15 11.49
12/17/2021 4:30:00 AM 6.65 43.97 0.064 6.83 1.17 11.51
12/17/2021 4:45:00 AM 6.57 43.826 0.064 6.83 1.26 11.53
12/17/2021 5:00:00 AM 6.49 43.682 0.064 6.81 1.19 11.56
12/17/2021 5:15:00 AM 6.41 43.538 0.064 6.8 1.16 11.59
12/17/2021 5:30:00 AM 6.33 43.394 0.064 6.81 1.26 11.62
12/17/2021 5:45:00 AM 6.25 43.25 0.064 6.81 1.33 11.65
12/17/2021 6:00:00 AM 6.18 43.124 0.064 6.8 1.21 11.68
12/17/2021 6:15:00 AM 6.11 42.998 0.064 6.8 1.24 11.71
12/17/2021 6:30:00 AM 6.04 42.872 0.064 6.81 1.19 11.72
12/17/2021 6:45:00 AM 5.97 42.746 0.064 6.8 1.25 11.74
12/17/2021 7:00:00 AM 5.9 42.62 0.064 6.81 1.22 11.76
12/17/2021 7:15:00 AM 5.84 42.512 0.064 6.8 1.21 11.79
12/17/2021 7:30:00 AM 5.78 42.404 0.064 6.81 1.19 11.82
12/17/2021 7:45:00 AM 5.72 42.296 0.064 6.81 1.19 11.86
12/17/2021 8:00:00 AM 5.66 42.188 0.064 6.82 1.13 11.91
12/17/2021 8:15:00 AM 5.61 42.098 0.064 6.84 1.08 11.98
12/17/2021 8:30:00 AM 5.57 42.026 0.064 6.86 1.1 12.05
12/17/2021 8:45:00 AM 5.54 41.972 0.064 6.87 1.08 12.13
12/17/2021 9:00:00 AM 5.52 41.936 0.064 6.91 1.09 12.2
12/17/2021 9:15:00 AM 5.51 41.918 0.064 6.93 1.04 12.27
12/17/2021 9:30:00 AM 5.49 41.882 0.064 6.94 1.08 12.32
12/17/2021 9:45:00 AM 5.48 41.864 0.064 6.96 0.99 12.36
12/17/2021 10:00:00 AM 5.48 41.864 0.064 6.97 1 12.4
12/17/2021 10:15:00 AM 5.48 41.864 0.063 7 1.01 12.43
12/17/2021 10:30:00 AM 5.5 41.9 0.063 7.01 0.99 12.45
12/17/2021 10:45:00 AM 5.54 41.972 0.063 7.02 0.98 12.46
12/17/2021 11:00:00 AM 5.59 42.062 0.063 7.04 1.02 12.46
12/17/2021 11:15:00 AM 5.65 42.17 0.063 7.05 1 12.46
12/17/2021 11:30:00 AM 5.71 42.278 0.063 7.1 0.96 12.45
12/17/2021 11:45:00 AM 5.75 42.35 0.063 7.11 0.92 12.43
12/17/2021 12:00:00 PM 5.79 42.422 0.063 7.1 0.96 12.41
12/17/2021 12:15:00 PM 5.83 42.494 0.063 7.11 0.92 12.39
12/17/2021 12:30:00 PM 5.86 42.548 0.063 7.11 0.94 12.38
12/17/2021 12:45:00 PM 5.89 42.602 0.063 7.1 0.98 12.36
12/17/2021 1:00:00 PM 5.93 42.674 0.063 7.11 0.97 12.33
12/17/2021 1:15:00 PM 5.95 42.71 0.063 7.1 0.93 12.32
12/17/2021 1:30:00 PM 5.98 42.764 0.063 7.12 0.93 12.32
12/17/2021 1:45:00 PM 6.01 42.818 0.063 7.12 0.94 12.32
12/17/2021 2:00:00 PM 6.03 42.854 0.063 7.1 0.96 12.32
12/17/2021 2:15:00 PM 6.04 42.872 0.063 7.12 0.96 12.33
12/17/2021 2:30:00 PM 6.05 42.89 0.063 7.14 0.94 12.35
12/17/2021 2:45:00 PM 6.07 42.926 0.063 7.15 0.96 12.36
12/17/2021 3:00:00 PM 6.07 42.926 0.063 7.15 0.95 12.33
12/17/2021 3:15:00 PM 6.07 42.926 0.063 7.14 0.95 12.32
12/17/2021 3:30:00 PM 6.06 42.908 0.063 7.13 1 12.29
12/17/2021 3:45:00 PM 6.05 42.89 0.063 7.09 1 12.25
12/17/2021 4:00:00 PM 6.04 42.872 0.063 7.08 1.02 12.2
12/17/2021 4:15:00 PM 6.02 42.836 0.063 7.05 1.02 12.13
12/17/2021 4:30:00 PM 5.99 42.782 0.063 7.01 1.01 12.05
12/17/2021 4:45:00 PM 5.96 42.728 0.064 6.97 1 11.98
12/17/2021 5:00:00 PM 5.92 42.656 0.064 6.95 1 11.93
12/17/2021 5:15:00 PM 5.87 42.566 0.064 6.94 1.03 11.91
12/17/2021 5:30:00 PM 5.83 42.494 0.064 6.91 1.11 11.89
12/17/2021 5:45:00 PM 5.78 42.404 0.064 6.89 1.09 11.89
12/17/2021 6:00:00 PM 5.73 42.314 0.064 6.9 1.13 11.9
12/17/2021 6:15:00 PM 5.68 42.224 0.064 6.88 1.11 11.91
12/17/2021 6:30:00 PM 5.64 42.152 0.064 6.88 1.07 11.92
12/17/2021 6:45:00 PM 5.6 42.08 0.064 6.88 1.04 11.93
12/17/2021 7:00:00 PM 5.55 41.99 0.064 6.87 1.09 11.94
12/17/2021 7:15:00 PM 5.5 41.9 0.065 6.87 1.05 11.96
12/17/2021 7:30:00 PM 5.45 41.81 0.065 6.87 1.07 11.98
12/17/2021 7:45:00 PM 5.4 41.72 0.065 6.86 1.04 11.99
12/17/2021 8:00:00 PM 5.35 41.63 0.065 6.86 1.09 12
12/17/2021 8:15:00 PM 5.31 41.558 0.065 6.87 1.05 12.01
12/17/2021 8:30:00 PM 5.27 41.486 0.065 6.87 1.05 12.02
12/17/2021 8:45:00 PM 5.23 41.414 0.065 6.87 1.07 12.03
12/17/2021 9:00:00 PM 5.2 41.36 0.065 6.87 1.03 12.05
12/17/2021 9:15:00 PM 5.16 41.288 0.065 6.87 1.07 12.06
12/17/2021 9:30:00 PM 5.13 41.234 0.065 6.87 1.03 12.08
12/17/2021 9:45:00 PM 5.1 41.18 0.065 6.86 0.98 12.09
12/17/2021 10:00:00 PM 5.07 41.126 0.065 6.86 1.01 12.1
12/17/2021 10:15:00 PM 5.04 41.072 0.065 6.86 1.02 12.1
12/17/2021 10:30:00 PM 5.02 41.036 0.065 6.87 0.99 12.11
12/17/2021 10:45:00 PM 5 41 0.065 6.86 1 12.13
12/17/2021 11:00:00 PM 4.98 40.964 0.065 6.86 0.98 12.13
12/17/2021 11:15:00 PM 4.97 40.946 0.065 6.86 1 12.13
12/17/2021 11:30:00 PM 4.95 40.91 0.065 6.87 1.02 12.14
12/17/2021 11:45:00 PM 4.94 40.892 0.065 6.86 1.04 12.15
12/18/2021 12:00:00 AM 4.93 40.874 0.065 6.86 0.95 12.14
12/18/2021 12:15:00 AM 4.92 40.856 0.065 6.87 1.02 12.15
12/18/2021 12:30:00 AM 4.91 40.838 0.065 6.86 0.96 12.15
12/18/2021 12:45:00 AM 4.91 40.838 0.065 6.86 1 12.15
12/18/2021 1:00:00 AM 4.9 40.82 0.065 6.86 1.09 12.15
12/18/2021 1:15:00 AM 4.9 40.82 0.065 6.86 1.11 12.15
12/18/2021 1:30:00 AM 4.9 40.82 0.065 6.86 1.05 12.15
12/18/2021 1:45:00 AM 4.89 40.802 0.065 6.86 1.01 12.14
12/18/2021 2:00:00 AM 4.89 40.802 0.065 6.86 1.08 12.15
12/18/2021 2:15:00 AM 4.89 40.802 0.065 6.86 1.14 12.15
12/18/2021 2:30:00 AM 4.89 40.802 0.065 6.86 1.06 12.15
12/18/2021 2:45:00 AM 4.9 40.82 0.065 6.87 1.08 12.14
12/18/2021 3:00:00 AM 4.9 40.82 0.065 6.86 1.08 12.14
12/18/2021 3:15:00 AM 4.91 40.838 0.065 6.87 1.07 12.14
12/18/2021 3:30:00 AM 4.91 40.838 0.065 6.87 1.05 12.13
12/18/2021 3:45:00 AM 4.92 40.856 0.065 6.87 1.02 12.14
12/18/2021 4:00:00 AM 4.93 40.874 0.065 6.87 1.06 12.13
12/18/2021 4:15:00 AM 4.93 40.874 0.065 6.87 1.01 12.13
12/18/2021 4:30:00 AM 4.93 40.874 0.065 6.87 1.07 12.13
12/18/2021 4:45:00 AM 4.94 40.892 0.065 6.88 1.02 12.12
12/18/2021 5:00:00 AM 4.95 40.91 0.065 6.87 1.07 12.12
12/18/2021 5:15:00 AM 4.95 40.91 0.065 6.88 1.04 12.11
12/18/2021 5:30:00 AM 4.95 40.91 0.065 6.87 1.06 12.11
12/18/2021 5:45:00 AM 4.95 40.91 0.065 6.87 1.03 12.11
12/18/2021 6:00:00 AM 4.94 40.892 0.065 6.87 1.09 12.11
12/18/2021 6:15:00 AM 4.94 40.892 0.065 6.88 1.06 12.1
12/18/2021 6:30:00 AM 4.94 40.892 0.065 6.88 1.03 12.11
12/18/2021 6:45:00 AM 4.93 40.874 0.065 6.89 1.05 12.11
12/18/2021 7:00:00 AM 4.93 40.874 0.065 6.87 1.01 12.11
12/18/2021 7:15:00 AM 4.92 40.856 0.065 6.89 1.03 12.11
12/18/2021 7:30:00 AM 4.92 40.856 0.065 6.88 1.04 12.11
12/18/2021 7:45:00 AM 4.91 40.838 0.065 6.88 0.99 12.12
12/18/2021 8:00:00 AM 4.9 40.82 0.065 6.89 1.02 12.15
12/18/2021 8:15:00 AM 4.89 40.802 0.065 6.89 0.97 12.18
12/18/2021 8:30:00 AM 4.88 40.784 0.065 6.9 1.07 12.2
12/18/2021 8:45:00 AM 4.87 40.766 0.064 6.9 1.08 12.23
12/18/2021 9:00:00 AM 4.86 40.748 0.064 6.91 1.09 12.26
12/18/2021 9:15:00 AM 4.86 40.748 0.064 6.92 1.06 12.28
12/18/2021 9:30:00 AM 4.86 40.748 0.064 6.92 1.11 12.29
12/18/2021 9:45:00 AM 4.87 40.766 0.064 6.93 1.03 12.33
12/18/2021 10:00:00 AM 4.87 40.766 0.064 6.94 1.11 12.35
12/18/2021 10:15:00 AM 4.88 40.784 0.064 6.96 1.15 12.38
12/18/2021 10:30:00 AM 4.89 40.802 0.064 6.98 1.11 12.42
12/18/2021 10:45:00 AM 4.9 40.82 0.064 6.98 1.18 12.46
12/18/2021 11:00:00 AM 4.92 40.856 0.064 7 1.17 12.5
12/18/2021 11:15:00 AM 4.94 40.892 0.063 7.03 1.16 12.53
12/18/2021 11:30:00 AM 4.96 40.928 0.063 7.03 1.12 12.53
12/18/2021 11:45:00 AM 4.97 40.946 0.063 7.04 1.23 12.53
12/18/2021 12:00:00 PM 4.99 40.982 0.063 7.05 1.17 12.52
12/18/2021 12:15:00 PM 5 41 0.063 7.04 1.23 12.48
12/18/2021 12:30:00 PM 5.02 41.036 0.063 7.02 1.25 12.44
12/18/2021 12:45:00 PM 5.04 41.072 0.063 7.03 1.3 12.42
12/18/2021 1:00:00 PM 5.06 41.108 0.063 7.03 1.29 12.43
12/18/2021 1:15:00 PM 5.08 41.144 0.064 7.04 1.24 12.42
12/18/2021 1:30:00 PM 5.1 41.18 0.064 7.03 1.31 12.41
12/18/2021 1:45:00 PM 5.13 41.234 0.064 7.05 1.33 12.43
12/18/2021 2:00:00 PM 5.14 41.252 0.064 7.04 1.34 12.39
12/18/2021 2:15:00 PM 5.16 41.288 0.064 7.03 1.32 12.35
12/18/2021 2:30:00 PM 5.17 41.306 0.064 7.03 1.39 12.32
12/18/2021 2:45:00 PM 5.19 41.342 0.064 7.01 1.38 12.29
12/18/2021 3:00:00 PM 5.2 41.36 0.064 7 1.41 12.25
12/18/2021 3:15:00 PM 5.22 41.396 0.064 7 1.53 12.22
12/18/2021 3:30:00 PM 5.23 41.414 0.064 6.98 1.46 12.18
12/18/2021 3:45:00 PM 5.23 41.414 0.065 6.96 1.52 12.14
12/18/2021 4:00:00 PM 5.24 41.432 0.065 6.95 1.4 12.1
12/18/2021 4:15:00 PM 5.24 41.432 0.065 6.94 1.49 12.06
12/18/2021 4:30:00 PM 5.25 41.45 0.065 6.92 1.47 12.03
12/18/2021 4:45:00 PM 5.25 41.45 0.066 6.9 1.48 11.99
12/18/2021 5:00:00 PM 5.25 41.45 0.066 6.89 1.55 11.96
12/18/2021 5:15:00 PM 5.25 41.45 0.066 6.89 1.62 11.94
12/18/2021 5:30:00 PM 5.25 41.45 0.066 6.88 1.55 11.92
12/18/2021 5:45:00 PM 5.26 41.468 0.066 6.87 1.57 11.91
12/18/2021 6:00:00 PM 5.26 41.468 0.067 6.86 1.55 11.9
12/18/2021 6:15:00 PM 5.26 41.468 0.067 6.87 1.64 11.9
12/18/2021 6:30:00 PM 5.27 41.486 0.067 6.87 1.6 11.9
12/18/2021 6:45:00 PM 5.27 41.486 0.067 6.86 1.6 11.89
12/18/2021 7:00:00 PM 5.28 41.504 0.067 6.86 1.6 11.89
12/18/2021 7:15:00 PM 5.29 41.522 0.067 6.86 1.63 11.89
12/18/2021 7:30:00 PM 5.3 41.54 0.068 6.86 1.67 11.88
12/18/2021 7:45:00 PM 5.3 41.54 0.068 6.85 1.62 11.88
12/18/2021 8:00:00 PM 5.31 41.558 0.068 6.85 1.53 11.88
12/18/2021 8:15:00 PM 5.32 41.576 0.068 6.86 1.54 11.87
12/18/2021 8:30:00 PM 5.33 41.594 0.068 6.87 1.48 11.87
12/18/2021 8:45:00 PM 5.35 41.63 0.068 6.86 1.59 11.88
12/18/2021 9:00:00 PM 5.35 41.63 0.068 6.85 1.57 11.87
12/18/2021 9:15:00 PM 5.36 41.648 0.068 6.86 1.54 11.87
12/18/2021 9:30:00 PM 5.37 41.666 0.068 6.85 1.56 11.87
12/18/2021 9:45:00 PM 5.38 41.684 0.068 6.86 1.53 11.87
12/18/2021 10:00:00 PM 5.39 41.702 0.068 6.85 1.55 11.87
12/18/2021 10:15:00 PM 5.39 41.702 0.068 6.86 1.55 11.87
12/18/2021 10:30:00 PM 5.38 41.684 0.067 6.85 1.56 11.87
12/18/2021 10:45:00 PM 5.38 41.684 0.067 6.86 1.59 11.87
12/18/2021 11:00:00 PM 5.37 41.666 0.067 6.86 1.54 11.88
12/18/2021 11:15:00 PM 5.36 41.648 0.067 6.86 1.48 11.88
12/18/2021 11:30:00 PM 5.33 41.594 0.067 6.86 1.52 11.89
12/18/2021 11:45:00 PM 5.29 41.522 0.068 6.86 1.48 11.9
12/19/2021 12:00:00 AM 5.26 41.468 0.068 6.86 1.56 11.91
12/19/2021 12:15:00 AM 5.23 41.414 0.068 6.85 1.45 11.93
12/19/2021 12:30:00 AM 5.2 41.36 0.068 6.87 1.57 11.94
12/19/2021 12:45:00 AM 5.16 41.288 0.068 6.86 1.57 11.96
12/19/2021 1:00:00 AM 5.13 41.234 0.068 6.87 1.53 11.97
12/19/2021 1:15:00 AM 5.08 41.144 0.068 6.86 1.49 12
12/19/2021 1:30:00 AM 5.05 41.09 0.068 6.86 1.49 12.02
12/19/2021 1:45:00 AM 5.02 41.036 0.068 6.86 1.48 12.03
12/19/2021 2:00:00 AM 4.98 40.964 0.068 6.86 1.54 12.04
12/19/2021 2:15:00 AM 4.94 40.892 0.068 6.87 1.5 12.06
12/19/2021 2:30:00 AM 4.91 40.838 0.068 6.86 1.47 12.08
12/19/2021 2:45:00 AM 4.88 40.784 0.068 6.88 1.47 12.09
12/19/2021 3:00:00 AM 4.84 40.712 0.068 6.86 1.42 12.1
12/19/2021 3:15:00 AM 4.8 40.64 0.068 6.88 1.48 12.12
12/19/2021 3:30:00 AM 4.76 40.568 0.068 6.88 1.45 12.13
12/19/2021 3:45:00 AM 4.74 40.532 0.068 6.88 1.44 12.14
12/19/2021 4:00:00 AM 4.71 40.478 0.068 6.88 1.43 12.15
12/19/2021 4:15:00 AM 4.69 40.442 0.068 6.87 1.38 12.16
12/19/2021 4:30:00 AM 4.65 40.37 0.068 6.88 1.5 12.17
12/19/2021 4:45:00 AM 4.62 40.316 0.068 6.87 1.48 12.18
12/19/2021 5:00:00 AM 4.59 40.262 0.068 6.86 1.54 12.19
12/19/2021 5:15:00 AM 4.55 40.19 0.068 6.85 1.53 12.21
12/19/2021 5:30:00 AM 4.51 40.118 0.068 6.84 1.44 12.23
12/19/2021 5:45:00 AM 4.48 40.064 0.068 6.84 1.44 12.24
12/19/2021 6:00:00 AM 4.45 40.01 0.068 6.85 1.44 12.26
12/19/2021 6:15:00 AM 4.41 39.938 0.068 6.84 1.43 12.27
12/19/2021 6:30:00 AM 4.38 39.884 0.068 6.85 1.54 12.29
12/19/2021 6:45:00 AM 4.35 39.83 0.068 6.85 1.44 12.3
12/19/2021 7:00:00 AM 4.31 39.758 0.068 6.85 1.46 12.31
12/19/2021 7:15:00 AM 4.27 39.686 0.068 6.84 1.4 12.33
12/19/2021 7:30:00 AM 4.24 39.632 0.068 6.85 1.41 12.35
12/19/2021 7:45:00 AM 4.19 39.542 0.068 6.85 1.35 12.37
12/19/2021 8:00:00 AM 4.16 39.488 0.068 6.85 1.4 12.39
12/19/2021 8:15:00 AM 4.12 39.416 0.068 6.86 1.39 12.42
12/19/2021 8:30:00 AM 4.09 39.362 0.068 6.86 1.41 12.45
12/19/2021 8:45:00 AM 4.07 39.326 0.068 6.88 1.31 12.51
12/19/2021 9:00:00 AM 4.05 39.29 0.067 6.89 1.33 12.59
12/19/2021 9:15:00 AM 4.04 39.272 0.067 6.92 1.28 12.67
12/19/2021 9:30:00 AM 4.03 39.254 0.067 6.95 1.29 12.76
12/19/2021 9:45:00 AM 4.03 39.254 0.067 6.98 1.12 12.84
12/19/2021 10:00:00 AM 4.02 39.236 0.067 7.01 1.15 12.91
12/19/2021 10:15:00 AM 4.03 39.254 0.067 7.04 1.11 12.97
12/19/2021 10:30:00 AM 4.04 39.272 0.067 7.07 1.13 13.02
12/19/2021 10:45:00 AM 4.07 39.326 0.067 7.1 1.16 13.06
12/19/2021 11:00:00 AM 4.1 39.38 0.066 7.12 1.15 13.09
12/19/2021 11:15:00 AM 4.13 39.434 0.066 7.13 1.15 13.09
12/19/2021 11:30:00 AM 4.16 39.488 0.066 7.17 1.13 13.09
12/19/2021 11:45:00 AM 4.18 39.524 0.066 7.17 1.07 13.09
12/19/2021 12:00:00 PM 4.22 39.596 0.066 7.19 1.12 13.1
12/19/2021 12:15:00 PM 4.26 39.668 0.066 7.19 1.09 13.09
12/19/2021 12:30:00 PM 4.3 39.74 0.066 7.19 1.08 13.06
12/19/2021 12:45:00 PM 4.3 39.74 0.066 7.19 1.05 13.05
12/19/2021 1:00:00 PM 4.29 39.722 0.066 7.2 1.06 13.04
12/19/2021 1:15:00 PM 4.33 39.794 0.066 7.2 1.1 13.04
12/19/2021 1:30:00 PM 4.35 39.83 0.066 7.2 1.08 13.02
12/19/2021 1:45:00 PM 4.37 39.866 0.066 7.2 1.05 13.01
12/19/2021 2:00:00 PM 4.36 39.848 0.066 7.19 1.07 13
12/19/2021 2:15:00 PM 4.37 39.866 0.066 7.2 1.02 12.99
12/19/2021 2:30:00 PM 4.37 39.866 0.066 7.18 1.03 12.97
12/19/2021 2:45:00 PM 4.36 39.848 0.066 7.18 1.15 12.94
12/19/2021 3:00:00 PM 4.34 39.812 0.066 7.15 1.08 12.92
12/19/2021 3:15:00 PM 4.3 39.74 0.066 7.13 1.17 12.86
12/19/2021 3:30:00 PM 4.25 39.65 0.066 7.09 1.1 12.82
12/19/2021 3:45:00 PM 4.21 39.578 0.066 7.09 1.14 12.79
12/19/2021 4:00:00 PM 4.17 39.506 0.066 7.06 1.13 12.75
12/19/2021 4:15:00 PM 4.15 39.47 0.066 7.03 1.13 12.71
12/19/2021 4:30:00 PM 4.12 39.416 0.066 7.02 1.15 12.66
12/19/2021 4:45:00 PM 4.08 39.344 0.066 6.99 1.11 12.61
12/19/2021 5:00:00 PM 4.04 39.272 0.067 6.96 1.13 12.56
12/19/2021 5:15:00 PM 4 39.2 0.067 6.95 1.14 12.53
12/19/2021 5:30:00 PM 3.96 39.128 0.067 6.95 1.12 12.52
12/19/2021 5:45:00 PM 3.91 39.038 0.067 6.93 1.12 12.53
12/19/2021 6:00:00 PM 3.86 38.948 0.067 6.94 1.17 12.53
12/19/2021 6:15:00 PM 3.8 38.84 0.067 6.91 1.16 12.55
12/19/2021 6:30:00 PM 3.74 38.732 0.067 6.93 1.19 12.57
12/19/2021 6:45:00 PM 3.69 38.642 0.067 6.91 1.16 12.59
12/19/2021 7:00:00 PM 3.64 38.552 0.067 6.91 1.17 12.6
12/19/2021 7:15:00 PM 3.59 38.462 0.067 6.91 1.19 12.62
12/19/2021 7:30:00 PM 3.54 38.372 0.067 6.91 1.16 12.64
12/19/2021 7:45:00 PM 3.49 38.282 0.067 6.91 1.18 12.66
12/19/2021 8:00:00 PM 3.44 38.192 0.067 6.87 1.11 12.67
12/19/2021 8:15:00 PM 3.4 38.12 0.067 6.83 1.18 12.68
12/19/2021 8:30:00 PM 3.35 38.03 0.067 6.87 1.14 12.69
12/19/2021 8:45:00 PM 3.3 37.94 0.067 6.86 1.12 12.72
12/19/2021 9:00:00 PM 3.25 37.85 0.067 6.86 1.21 12.73
12/19/2021 9:15:00 PM 3.21 37.778 0.067 6.87 1.16 12.75
12/19/2021 9:30:00 PM 3.17 37.706 0.067 6.87 1.18 12.76
12/19/2021 9:45:00 PM 3.12 37.616 0.067 6.87 1.18 12.78
12/19/2021 10:00:00 PM 3.08 37.544 0.067 6.87 1.19 12.8
12/19/2021 10:15:00 PM 3.03 37.454 0.067 6.86 1.13 12.82
12/19/2021 10:30:00 PM 2.98 37.364 0.067 6.86 1.14 12.84
12/19/2021 10:45:00 PM 2.94 37.292 0.067 6.86 1.2 12.86
12/19/2021 11:00:00 PM 2.89 37.202 0.067 6.87 1.18 12.87
12/19/2021 11:15:00 PM 2.84 37.112 0.067 6.87 1.18 12.89
12/19/2021 11:30:00 PM 2.79 37.022 0.067 6.86 1.15 12.9
12/19/2021 11:45:00 PM 2.74 36.932 0.067 6.86 1.16 12.91
12/20/2021 12:00:00 AM 2.69 36.842 0.067 6.86 1.12 12.93
12/20/2021 12:15:00 AM 2.65 36.77 0.067 6.85 1.12 12.95
12/20/2021 12:30:00 AM 2.6 36.68 0.067 6.86 1.11 12.97
12/20/2021 12:45:00 AM 2.55 36.59 0.067 6.86 1.09 12.99
12/20/2021 1:00:00 AM 2.51 36.518 0.068 6.86 1.15 13.01
12/20/2021 1:15:00 AM 2.46 36.428 0.067 6.85 1.12 13.03
12/20/2021 1:30:00 AM 2.41 36.338 0.067 6.86 1.09 13.04
12/20/2021 1:45:00 AM 2.37 36.266 0.067 6.86 1.01 13.07
12/20/2021 2:00:00 AM 2.32 36.176 0.067 6.85 1.05 13.08
12/20/2021 2:15:00 AM 2.28 36.104 0.067 6.86 1.1 13.1
12/20/2021 2:30:00 AM 2.23 36.014 0.067 6.86 1.13 13.12
12/20/2021 2:45:00 AM 2.19 35.942 0.067 6.86 1.23 13.13
12/20/2021 3:00:00 AM 2.15 35.87 0.067 6.87 1.15 13.14
12/20/2021 3:15:00 AM 2.11 35.798 0.067 6.86 1.1 13.15
12/20/2021 3:30:00 AM 2.07 35.726 0.067 6.86 1.11 13.16
12/20/2021 3:45:00 AM 2.03 35.654 0.067 6.86 1.13 13.18
12/20/2021 4:00:00 AM 1.99 35.582 0.067 6.86 1.17 13.2
12/20/2021 4:15:00 AM 1.95 35.51 0.067 6.86 1.19 13.22
12/20/2021 4:30:00 AM 1.91 35.438 0.067 6.86 1.19 13.23
12/20/2021 4:45:00 AM 1.88 35.384 0.067 6.86 1.14 13.25
12/20/2021 5:00:00 AM 1.84 35.312 0.067 6.86 1.11 13.27
12/20/2021 5:15:00 AM 1.8 35.24 0.067 6.98 1.08 13.29
12/20/2021 5:30:00 AM 1.76 35.168 0.067 6.97 1.04 13.3
12/20/2021 5:45:00 AM 1.73 35.114 0.067 6.85 1.12 13.31
12/20/2021 6:00:00 AM 1.7 35.06 0.067 6.85 1.19 13.32
12/20/2021 6:15:00 AM 1.66 34.988 0.067 6.85 1.24 13.33
12/20/2021 6:30:00 AM 1.63 34.934 0.067 6.84 1.29 13.35
12/20/2021 6:45:00 AM 1.6 34.88 0.067 6.85 1.16 13.36
12/20/2021 7:00:00 AM 1.57 34.826 0.067 6.85 1.14 13.37
12/20/2021 7:15:00 AM 1.54 34.772 0.067 6.86 1.09 13.39
12/20/2021 7:30:00 AM 1.52 34.736 0.067 6.87 1.18 13.4
12/20/2021 7:45:00 AM 1.49 34.682 0.067 6.88 1.1 13.43
12/20/2021 8:00:00 AM 1.48 34.664 0.067 6.9 1.09 13.49
12/20/2021 8:15:00 AM 1.49 34.682 0.067 6.93 1.1 13.57
12/20/2021 8:30:00 AM 1.5 34.7 0.067 6.95 1.08 13.65
12/20/2021 8:45:00 AM 1.52 34.736 0.067 6.97 1.07 13.71
12/20/2021 9:00:00 AM 1.54 34.772 0.067 6.99 1.07 13.77
12/20/2021 9:15:00 AM 1.59 34.862 0.067 7.02 1.02 13.83
12/20/2021 9:30:00 AM 1.63 34.934 0.067 7.04 1.04 13.87
12/20/2021 9:45:00 AM 1.7 35.06 0.067 7.06 1.02 13.89
12/20/2021 10:00:00 AM 1.79 35.222 0.066 7.08 1.03 13.9
12/20/2021 10:15:00 AM 1.86 35.348 0.066 7.1 1.03 13.89
12/20/2021 10:30:00 AM 1.95 35.51 0.066 7.11 1.04 13.87
12/20/2021 10:45:00 AM 2.04 35.672 0.066 7.13 1.03 13.85
12/20/2021 11:00:00 AM 2.12 35.816 0.066 7.14 0.99 13.83
12/20/2021 11:15:00 AM 2.17 35.906 0.066 7.14 1.01 13.78
12/20/2021 11:30:00 AM 2.29 36.122 0.066 7.14 1.01 13.74
12/20/2021 11:45:00 AM 2.37 36.266 0.066 7.14 1.01 13.69
12/20/2021 12:00:00 PM 2.43 36.374 0.066 7.13 0.98 13.62
12/20/2021 12:15:00 PM 2.52 36.536 0.066 7.12 1.01 13.57
12/20/2021 12:30:00 PM 2.6 36.68 0.066 7.12 1 13.52
12/20/2021 12:45:00 PM 2.7 36.86 0.066 7.11 1 13.46
12/20/2021 1:00:00 PM 2.78 37.004 0.066 7.11 1.01 13.41
12/20/2021 1:15:00 PM 2.85 37.13 0.066 7.1 1.01 13.37
12/20/2021 1:30:00 PM 2.91 37.238 0.066 7.09 0.98 13.33
12/20/2021 1:45:00 PM 2.97 37.346 0.066 7.1 1.01 13.29
12/20/2021 2:00:00 PM 3.03 37.454 0.066 7.08 1.02 13.25
12/20/2021 2:15:00 PM 3.09 37.562 0.066 7.08 1.03 13.2
12/20/2021 2:30:00 PM 3.15 37.67 0.066 7.07 1.05 13.17
12/20/2021 2:45:00 PM 3.19 37.742 0.066 7.08 1.04 13.13
12/20/2021 3:00:00 PM 3.22 37.796 0.066 7.06 1.1 13.1
12/20/2021 3:15:00 PM 3.23 37.814 0.066 7.06 1.07 13.07
12/20/2021 3:30:00 PM 3.22 37.796 0.066 7.06 1.09 13.05
12/20/2021 3:45:00 PM 3.2 37.76 0.066 7.04 1.08 13.02
12/20/2021 4:00:00 PM 3.18 37.724 0.066 7.03 1.12 12.99
12/20/2021 4:15:00 PM 3.18 37.724 0.066 7.02 1.08 12.96
12/20/2021 4:30:00 PM 3.18 37.724 0.066 6.99 1.1 12.91
12/20/2021 4:45:00 PM 3.17 37.706 0.066 6.98 1.1 12.87
12/20/2021 5:00:00 PM 3.15 37.67 0.066 6.96 1.13 12.83
12/20/2021 5:15:00 PM 3.13 37.634 0.066 6.95 1.15 12.81
12/20/2021 5:30:00 PM 3.09 37.562 0.066 6.94 1.16 12.79
12/20/2021 5:45:00 PM 3.06 37.508 0.066 6.94 1.15 12.79
12/20/2021 6:00:00 PM 3.03 37.454 0.066 6.92 1.2 12.79
12/20/2021 6:15:00 PM 2.99 37.382 0.067 6.93 1.18 12.8
12/20/2021 6:30:00 PM 2.97 37.346 0.067 6.92 1.14 12.8
12/20/2021 6:45:00 PM 2.93 37.274 0.067 6.92 1.13 12.8
12/20/2021 7:00:00 PM 2.9 37.22 0.067 6.9 1.21 12.81
12/20/2021 7:15:00 PM 2.88 37.184 0.067 6.9 1.16 12.82
12/20/2021 7:30:00 PM 2.85 37.13 0.067 6.91 1.2 12.83
12/20/2021 7:45:00 PM 2.82 37.076 0.067 6.91 1.18 12.84
12/20/2021 8:00:00 PM 2.78 37.004 0.067 6.9 1.16 12.84
12/20/2021 8:15:00 PM 2.75 36.95 0.067 6.9 1.15 12.85
12/20/2021 8:30:00 PM 2.72 36.896 0.067 6.9 1.14 12.86
12/20/2021 8:45:00 PM 2.69 36.842 0.067 6.9 1.14 12.87
12/20/2021 9:00:00 PM 2.66 36.788 0.067 6.9 1.1 12.88
12/20/2021 9:15:00 PM 2.63 36.734 0.067 6.9 1.16 12.89
12/20/2021 9:30:00 PM 2.6 36.68 0.067 6.91 1.15 12.9
12/20/2021 9:45:00 PM 2.58 36.644 0.067 6.91 1.12 12.92
12/20/2021 10:00:00 PM 2.54 36.572 0.067 6.9 1.14 12.93
12/20/2021 10:15:00 PM 2.51 36.518 0.067 6.91 1.14 12.94
12/20/2021 10:30:00 PM 2.48 36.464 0.067 6.9 1.2 12.94
12/20/2021 10:45:00 PM 2.45 36.41 0.067 6.9 1.21 12.96
12/20/2021 11:00:00 PM 2.42 36.356 0.067 6.91 1.13 12.97
12/20/2021 11:15:00 PM 2.4 36.32 0.067 6.9 1.18 12.98
12/20/2021 11:30:00 PM 2.37 36.266 0.067 6.89 1.18 12.99
12/20/2021 11:45:00 PM 2.34 36.212 0.067 6.9 1.18 13
12/21/2021 12:00:00 AM 2.31 36.158 0.067 6.89 1.13 13.01
12/21/2021 12:15:00 AM 2.28 36.104 0.067 6.9 1.14 13.02
12/21/2021 12:30:00 AM 2.25 36.05 0.067 6.89 1.11 13.03
12/21/2021 12:45:00 AM 2.22 35.996 0.067 6.89 1.18 13.04
12/21/2021 1:00:00 AM 2.19 35.942 0.067 6.89 1.1 13.04
12/21/2021 1:15:00 AM 2.17 35.906 0.067 6.89 1.16 13.05
12/21/2021 1:30:00 AM 2.14 35.852 0.067 6.89 1.2 13.06
12/21/2021 1:45:00 AM 2.12 35.816 0.067 6.9 1.2 13.06
12/21/2021 2:00:00 AM 2.1 35.78 0.067 6.89 1.2 13.07
12/21/2021 2:15:00 AM 2.08 35.744 0.067 6.88 1.26 13.08
12/21/2021 2:30:00 AM 2.07 35.726 0.067 6.9 1.16 13.08
12/21/2021 2:45:00 AM 2.07 35.726 0.067 6.89 1.17 13.09
12/21/2021 3:00:00 AM 2.08 35.744 0.067 6.89 1.23 13.09
12/21/2021 3:15:00 AM 2.08 35.744 0.067 6.89 1.23 13.09
12/21/2021 3:30:00 AM 2.09 35.762 0.067 6.89 1.19 13.09
12/21/2021 3:45:00 AM 2.1 35.78 0.067 6.89 1.18 13.09
12/21/2021 4:00:00 AM 2.12 35.816 0.067 6.89 1.23 13.09
12/21/2021 4:15:00 AM 2.15 35.87 0.067 6.89 1.18 13.07
12/21/2021 4:30:00 AM 2.17 35.906 0.067 6.89 1.13 13.07
12/21/2021 4:45:00 AM 2.2 35.96 0.066 6.9 1.28 13.07
12/21/2021 5:00:00 AM 2.23 36.014 0.066 6.89 1.15 13.06
12/21/2021 5:15:00 AM 2.26 36.068 0.066 6.9 1.22 13.04
12/21/2021 5:30:00 AM 2.3 36.14 0.066 6.89 1.15 13.03
12/21/2021 5:45:00 AM 2.34 36.212 0.066 6.9 1.22 13.02
12/21/2021 6:00:00 AM 2.37 36.266 0.066 6.89 1.22 13
12/21/2021 6:15:00 AM 2.41 36.338 0.066 6.89 1.12 12.99
12/21/2021 6:30:00 AM 2.45 36.41 0.066 6.9 1.16 12.97
12/21/2021 6:45:00 AM 2.49 36.482 0.066 6.89 1.14 12.96
12/21/2021 7:00:00 AM 2.53 36.554 0.066 6.88 1.21 12.94
12/21/2021 7:15:00 AM 2.56 36.608 0.066 6.88 1.14 12.93
12/21/2021 7:30:00 AM 2.6 36.68 0.066 6.89 1.13 12.92
12/21/2021 7:45:00 AM 2.64 36.752 0.066 6.89 1.1 12.91
12/21/2021 8:00:00 AM 2.68 36.824 0.066 6.89 1.15 12.91
12/21/2021 8:15:00 AM 2.72 36.896 0.066 6.91 1.14 12.95
12/21/2021 8:30:00 AM 2.77 36.986 0.066 6.94 1.13 13.03
12/21/2021 8:45:00 AM 2.83 37.094 0.066 6.97 1.11 13.13
12/21/2021 9:00:00 AM 2.88 37.184 0.066 6.99 1.1 13.19
12/21/2021 9:15:00 AM 2.94 37.292 0.066 7.02 1.11 13.24
12/21/2021 9:30:00 AM 3 37.4 0.065 7.05 1.09 13.27
12/21/2021 9:45:00 AM 3.06 37.508 0.065 7.07 1.08 13.28
12/21/2021 10:00:00 AM 3.11 37.598 0.065 7.07 1.09 13.26
12/21/2021 10:15:00 AM 3.17 37.706 0.065 7.07 1.05 13.25
12/21/2021 10:30:00 AM 3.23 37.814 0.065 7.1 1.07 13.25
12/21/2021 10:45:00 AM 3.3 37.94 0.065 7.11 1.06 13.24
12/21/2021 11:00:00 AM 3.37 38.066 0.065 7.13 1.03 13.23
12/21/2021 11:15:00 AM 3.43 38.174 0.065 7.13 1.03 13.22
12/21/2021 11:30:00 AM 3.5 38.3 0.065 7.15 1.1 13.22
12/21/2021 11:45:00 AM 3.57 38.426 0.065 7.16 1.1 13.22
12/21/2021 12:00:00 PM 3.63 38.534 0.064 7.17 1.1 13.21
12/21/2021 12:15:00 PM 3.7 38.66 0.064 7.18 1.04 13.19
12/21/2021 12:30:00 PM 3.77 38.786 0.064 7.18 1.11 13.17
12/21/2021 12:45:00 PM 3.79 38.822 0.064 7.17 1.11 13.12
12/21/2021 1:00:00 PM 3.82 38.876 0.064 7.16 1.08 13.07
12/21/2021 1:15:00 PM 3.86 38.948 0.064 7.15 1.17 13
12/21/2021 1:30:00 PM 3.92 39.056 0.064 7.13 1.1 12.94
12/21/2021 1:45:00 PM 3.96 39.128 0.064 7.13 1.18 12.89
12/21/2021 2:00:00 PM 4.02 39.236 0.064 7.12 1.12 12.86
12/21/2021 2:15:00 PM 4.05 39.29 0.064 7.1 1.13 12.82
12/21/2021 2:30:00 PM 4.08 39.344 0.064 7.1 1.25 12.79
12/21/2021 2:45:00 PM 4.1 39.38 0.064 7.09 1.18 12.76
12/21/2021 3:00:00 PM 4.11 39.398 0.064 7.08 1.2 12.73
12/21/2021 3:15:00 PM 4.1 39.38 0.064 7.06 1.26 12.71
12/21/2021 3:30:00 PM 4.07 39.326 0.064 7.06 1.26 12.68
12/21/2021 3:45:00 PM 4.04 39.272 0.065 7.05 1.27 12.65
12/21/2021 4:00:00 PM 4.01 39.218 0.065 7.03 1.24 12.61
12/21/2021 4:15:00 PM 3.99 39.182 0.065 7.03 1.25 12.58
12/21/2021 4:30:00 PM 3.97 39.146 0.065 7.01 1.29 12.54
12/21/2021 4:45:00 PM 3.96 39.128 0.065 6.99 1.23 12.49
12/21/2021 5:00:00 PM 3.93 39.074 0.065 6.96 1.23 12.45
12/21/2021 5:15:00 PM 3.89 39.002 0.065 6.95 1.25 12.43
12/21/2021 5:30:00 PM 3.84 38.912 0.065 6.93 1.34 12.41
12/21/2021 5:45:00 PM 3.8 38.84 0.065 6.93 1.2 12.41
12/21/2021 6:00:00 PM 3.75 38.75 0.065 6.92 1.38 12.42
12/21/2021 6:15:00 PM 3.7 38.66 0.065 6.91 1.35 12.42
12/21/2021 6:30:00 PM 3.65 38.57 0.065 6.91 1.45 12.43
12/21/2021 6:45:00 PM 3.61 38.498 0.066 6.9 1.33 12.44
12/21/2021 7:00:00 PM 3.56 38.408 0.066 6.9 1.34 12.46
12/21/2021 7:15:00 PM 3.52 38.336 0.066 6.9 1.25 12.47
12/21/2021 7:30:00 PM 3.47 38.246 0.066 6.9 1.34 12.48
12/21/2021 7:45:00 PM 3.43 38.174 0.066 6.89 1.26 12.48
12/21/2021 8:00:00 PM 3.38 38.084 0.066 6.9 1.31 12.49
12/21/2021 8:15:00 PM 3.34 38.012 0.066 6.89 1.26 12.51
12/21/2021 8:30:00 PM 3.3 37.94 0.066 6.9 1.29 12.52
12/21/2021 8:45:00 PM 3.26 37.868 0.066 6.9 1.28 12.53
12/21/2021 9:00:00 PM 3.23 37.814 0.066 6.9 1.3 12.55
12/21/2021 9:15:00 PM 3.2 37.76 0.066 6.9 1.24 12.56
12/21/2021 9:30:00 PM 3.17 37.706 0.066 6.9 1.31 12.57
12/21/2021 9:45:00 PM 3.15 37.67 0.066 6.89 1.31 12.57
12/21/2021 10:00:00 PM 3.13 37.634 0.066 6.9 1.3 12.57
12/21/2021 10:15:00 PM 3.11 37.598 0.066 6.89 1.26 12.58
12/21/2021 10:30:00 PM 3.1 37.58 0.066 6.91 1.2 12.58
12/21/2021 10:45:00 PM 3.08 37.544 0.066 6.91 1.22 12.59
12/21/2021 11:00:00 PM 3.06 37.508 0.066 6.94 1.24 12.59
12/21/2021 11:15:00 PM 3.04 37.472 0.066 6.95 1.28 12.6
12/21/2021 11:30:00 PM 3.02 37.436 0.066 6.88 1.29 12.6
12/21/2021 11:45:00 PM 3 37.4 0.066 6.87 1.29 12.6
12/22/2021 12:00:00 AM 2.99 37.382 0.066 6.88 1.3 12.61
12/22/2021 12:15:00 AM 2.97 37.346 0.066 6.89 1.32 12.61
12/22/2021 12:30:00 AM 2.95 37.31 0.066 6.88 1.28 12.61
12/22/2021 12:45:00 AM 2.93 37.274 0.066 6.89 1.29 12.62
12/22/2021 1:00:00 AM 2.91 37.238 0.066 6.89 1.25 12.62
12/22/2021 1:15:00 AM 2.88 37.184 0.066 6.89 1.19 12.63
12/22/2021 1:30:00 AM 2.86 37.148 0.066 6.89 1.23 12.63
12/22/2021 1:45:00 AM 2.83 37.094 0.066 6.89 1.26 12.63
12/22/2021 2:00:00 AM 2.82 37.076 0.066 6.89 1.26 12.64
12/22/2021 2:15:00 AM 2.8 37.04 0.066 6.9 1.24 12.64
12/22/2021 2:30:00 AM 2.78 37.004 0.066 6.89 1.23 12.64
12/22/2021 2:45:00 AM 2.76 36.968 0.066 6.89 1.27 12.64
12/22/2021 3:00:00 AM 2.74 36.932 0.066 6.89 1.22 12.65
12/22/2021 3:15:00 AM 2.75 36.95 0.066 6.89 1.24 12.65
12/22/2021 3:30:00 AM 2.75 36.95 0.066 6.88 1.31 12.65
12/22/2021 3:45:00 AM 2.76 36.968 0.066 6.89 1.29 12.65
12/22/2021 4:00:00 AM 2.76 36.968 0.066 6.89 1.3 12.65
12/22/2021 4:15:00 AM 2.77 36.986 0.066 6.88 1.24 12.65
12/22/2021 4:30:00 AM 2.79 37.022 0.066 6.89 1.25 12.65
12/22/2021 4:45:00 AM 2.8 37.04 0.066 6.89 1.27 12.64
12/22/2021 5:00:00 AM 2.82 37.076 0.066 6.89 1.27 12.64
12/22/2021 5:15:00 AM 2.84 37.112 0.065 6.9 1.22 12.64
12/22/2021 5:30:00 AM 2.86 37.148 0.065 6.89 1.31 12.63
12/22/2021 5:45:00 AM 2.89 37.202 0.065 6.88 1.27 12.62
12/22/2021 6:00:00 AM 2.91 37.238 0.065 6.89 1.27 12.61
12/22/2021 6:15:00 AM 2.94 37.292 0.065 6.88 1.22 12.6
12/22/2021 6:30:00 AM 2.97 37.346 0.065 6.88 1.18 12.59
12/22/2021 6:45:00 AM 3 37.4 0.065 6.89 1.27 12.58
12/22/2021 7:00:00 AM 3.03 37.454 0.065 6.88 1.28 12.56
12/22/2021 7:15:00 AM 3.07 37.526 0.065 6.89 1.2 12.56
12/22/2021 7:30:00 AM 3.1 37.58 0.065 6.88 1.18 12.54
12/22/2021 7:45:00 AM 3.14 37.652 0.065 6.89 1.23 12.53
12/22/2021 8:00:00 AM 3.17 37.706 0.065 6.9 1.18 12.55
12/22/2021 8:15:00 AM 3.2 37.76 0.065 6.9 1.18 12.55
12/22/2021 8:30:00 AM 3.24 37.832 0.065 6.9 1.18 12.55
12/22/2021 8:45:00 AM 3.27 37.886 0.065 6.9 1.25 12.55
12/22/2021 9:00:00 AM 3.29 37.922 0.065 6.93 1.2 12.63
12/22/2021 9:15:00 AM 3.33 37.994 0.065 6.95 1.18 12.69
12/22/2021 9:30:00 AM 3.35 38.03 0.065 6.97 1.12 12.72
12/22/2021 9:45:00 AM 3.38 38.084 0.065 7 1.21 12.8
12/22/2021 10:00:00 AM 3.4 38.12 0.065 7.04 1.13 12.86
12/22/2021 10:15:00 AM 3.42 38.156 0.065 7.06 1.16 12.89
12/22/2021 10:30:00 AM 3.43 38.174 0.064 7.07 1.22 12.88
12/22/2021 10:45:00 AM 3.43 38.174 0.064 7.07 1.22 12.9
12/22/2021 11:00:00 AM 3.47 38.246 0.064 7.1 1.14 12.97
12/22/2021 11:15:00 AM 3.45 38.21 0.064 7.1 1.2 12.95
12/22/2021 11:30:00 AM 3.48 38.264 0.064 7.1 1.18 12.97
12/22/2021 11:45:00 AM 3.51 38.318 0.064 7.13 1.13 13.02
12/22/2021 12:00:00 PM 3.53 38.354 0.064 7.15 1.16 13.02
12/22/2021 12:15:00 PM 3.58 38.444 0.064 7.17 1.15 13.05
12/22/2021 12:30:00 PM 3.56 38.408 0.064 7.14 1.13 13.01
12/22/2021 12:45:00 PM 3.55 38.39 0.064 7.14 1.18 12.98
12/22/2021 1:00:00 PM 3.54 38.372 0.064 7.14 1.1 13
12/22/2021 1:15:00 PM 3.51 38.318 0.064 7.15 1.19 12.99
12/22/2021 1:30:00 PM 3.52 38.336 0.064 7.16 1.27 13.03
12/22/2021 1:45:00 PM 3.53 38.354 0.064 7.16 1.23 13.03
12/22/2021 2:00:00 PM 3.53 38.354 0.064 7.2 1.29 13.01
12/22/2021 2:15:00 PM 3.5 38.3 0.064 7.15 1.23 13.02
12/22/2021 2:30:00 PM 3.48 38.264 0.064 7.16 1.24 13.01
12/22/2021 2:45:00 PM 3.46 38.228 0.064 7.15 1.24 13.01
12/22/2021 3:00:00 PM 3.44 38.192 0.064 7.13 1.12 12.98
12/22/2021 3:15:00 PM 3.4 38.12 0.064 7.13 1.21 12.97
12/22/2021 3:30:00 PM 3.37 38.066 0.064 7.11 1.19 12.94
12/22/2021 3:45:00 PM 3.35 38.03 0.064 7.1 1.18 12.88
12/22/2021 4:00:00 PM 3.31 37.958 0.064 7.08 1.15 12.85
12/22/2021 4:15:00 PM 3.27 37.886 0.064 7.06 1.28 12.8
12/22/2021 4:30:00 PM 3.25 37.85 0.064 7.05 1.17 12.76
12/22/2021 4:45:00 PM 3.21 37.778 0.064 7.06 1.23 12.72
12/22/2021 5:00:00 PM 3.17 37.706 0.064 7.01 1.21 12.7
12/22/2021 5:15:00 PM 3.14 37.652 0.065 6.99 1.18 12.69
12/22/2021 5:30:00 PM 3.1 37.58 0.065 6.99 1.21 12.68
12/22/2021 5:45:00 PM 3.07 37.526 0.065 7 1.24 12.68
12/22/2021 6:00:00 PM 3.05 37.49 0.065 6.99 1.26 12.69
12/22/2021 6:15:00 PM 3.02 37.436 0.065 6.99 1.25 12.69
12/22/2021 6:30:00 PM 3 37.4 0.065 6.97 1.26 12.7
12/22/2021 6:45:00 PM 2.96 37.328 0.065 6.91 1.28 12.71
12/22/2021 7:00:00 PM 2.93 37.274 0.065 6.91 1.29 12.72
12/22/2021 7:15:00 PM 2.9 37.22 0.065 6.91 1.3 12.73
12/22/2021 7:30:00 PM 2.88 37.184 0.065 6.93 1.28 12.74
12/22/2021 7:45:00 PM 2.85 37.13 0.065 6.93 1.31 12.75
12/22/2021 8:00:00 PM 2.83 37.094 0.065 6.92 1.33 12.76
12/22/2021 8:15:00 PM 2.8 37.04 0.065 6.92 1.29 12.77
12/22/2021 8:30:00 PM 2.77 36.986 0.065 6.92 1.3 12.78
12/22/2021 8:45:00 PM 2.75 36.95 0.065 6.92 1.29 12.79
12/22/2021 9:00:00 PM 2.73 36.914 0.065 6.92 1.25 12.8
12/22/2021 9:15:00 PM 2.7 36.86 0.065 6.91 1.24 12.81
12/22/2021 9:30:00 PM 2.67 36.806 0.065 6.94 1.26 12.82
12/22/2021 9:45:00 PM 2.65 36.77 0.065 6.93 1.24 12.83
12/22/2021 10:00:00 PM 2.63 36.734 0.065 6.93 1.24 12.85
12/22/2021 10:15:00 PM 2.61 36.698 0.065 6.91 1.24 12.86
12/22/2021 10:30:00 PM 2.58 36.644 0.065 6.94 1.23 12.87
12/22/2021 10:45:00 PM 2.57 36.626 0.065 6.91 1.21 12.88
12/22/2021 11:00:00 PM 2.56 36.608 0.065 6.91 1.24 12.88
12/22/2021 11:15:00 PM 2.55 36.59 0.065 6.93 1.19 12.89
12/22/2021 11:30:00 PM 2.53 36.554 0.065 6.9 1.25 12.9
12/22/2021 11:45:00 PM 2.52 36.536 0.065 6.93 1.27 12.9
12/23/2021 12:00:00 AM 2.51 36.518 0.065 6.95 1.22 12.91
12/23/2021 12:15:00 AM 2.49 36.482 0.065 6.94 1.21 12.92
12/23/2021 12:30:00 AM 2.49 36.482 0.065 6.93 1.2 12.92
12/23/2021 12:45:00 AM 2.47 36.446 0.065 6.93 1.2 12.92
12/23/2021 1:00:00 AM 2.45 36.41 0.065 6.93 1.23 12.93
12/23/2021 1:15:00 AM 2.44 36.392 0.065 6.93 1.21 12.93
12/23/2021 1:30:00 AM 2.44 36.392 0.065 6.93 1.21 12.94
12/23/2021 1:45:00 AM 2.43 36.374 0.065 6.93 1.23 12.95
12/23/2021 2:00:00 AM 2.42 36.356 0.065 6.93 1.28 12.95
12/23/2021 2:15:00 AM 2.4 36.32 0.065 6.94 1.3 12.95
12/23/2021 2:30:00 AM 2.38 36.284 0.065 6.93 1.25 12.97
12/23/2021 2:45:00 AM 2.35 36.23 0.065 6.93 1.25 12.97
12/23/2021 3:00:00 AM 2.32 36.176 0.065 6.92 1.25 12.99
12/23/2021 3:15:00 AM 2.3 36.14 0.065 6.92 1.21 13
12/23/2021 3:30:00 AM 2.28 36.104 0.065 6.92 1.21 13.01
12/23/2021 3:45:00 AM 2.27 36.086 0.065 6.92 1.26 13.01
12/23/2021 4:00:00 AM 2.25 36.05 0.065 6.93 1.24 13.02
12/23/2021 4:15:00 AM 2.23 36.014 0.065 6.93 1.2 13.03
12/23/2021 4:30:00 AM 2.22 35.996 0.065 6.93 1.24 13.04
12/23/2021 4:45:00 AM 2.2 35.96 0.065 6.93 1.25 13.04
12/23/2021 5:00:00 AM 2.19 35.942 0.065 6.93 1.19 13.05
12/23/2021 5:15:00 AM 2.18 35.924 0.065 6.92 1.23 13.06
12/23/2021 5:30:00 AM 2.17 35.906 0.065 6.93 1.22 13.06
12/23/2021 5:45:00 AM 2.17 35.906 0.065 6.93 1.27 13.07
12/23/2021 6:00:00 AM 2.16 35.888 0.065 6.91 1.24 13.07
12/23/2021 6:15:00 AM 2.16 35.888 0.065 6.92 1.24 13.08
12/23/2021 6:30:00 AM 2.15 35.87 0.065 6.92 1.23 13.08
12/23/2021 6:45:00 AM 2.15 35.87 0.065 6.93 1.24 13.09
12/23/2021 7:00:00 AM 2.14 35.852 0.065 6.92 1.28 13.09
12/23/2021 7:15:00 AM 2.13 35.834 0.065 6.91 1.25 13.09
12/23/2021 7:30:00 AM 2.13 35.834 0.065 6.93 1.25 13.1
12/23/2021 7:45:00 AM 2.13 35.834 0.065 6.93 1.2 13.12
12/23/2021 8:00:00 AM 2.12 35.816 0.065 6.94 1.19 13.15
12/23/2021 8:15:00 AM 2.12 35.816 0.065 6.93 1.23 13.21
12/23/2021 8:30:00 AM 2.13 35.834 0.065 6.95 1.21 13.28
12/23/2021 8:45:00 AM 2.14 35.852 0.065 6.99 1.22 13.37
12/23/2021 9:00:00 AM 2.14 35.852 0.065 7.01 1.2 13.43
12/23/2021 9:15:00 AM 2.16 35.888 0.065 7.03 1.2 13.5
12/23/2021 9:30:00 AM 2.18 35.924 0.065 7.05 1.21 13.54
12/23/2021 9:45:00 AM 2.19 35.942 0.065 7.07 1.19 13.57
12/23/2021 10:00:00 AM 2.21 35.978 0.065 7.1 1.17 13.61
12/23/2021 10:15:00 AM 2.23 36.014 0.065 7.11 1.19 13.63
12/23/2021 10:30:00 AM 2.28 36.104 0.064 7.11 1.18 13.66
12/23/2021 10:45:00 AM 2.35 36.23 0.064 7.14 1.19 13.67
12/23/2021 11:00:00 AM 2.41 36.338 0.064 7.15 1.16 13.67
12/23/2021 11:15:00 AM 2.47 36.446 0.064 7.16 1.15 13.66
12/23/2021 11:30:00 AM 2.52 36.536 0.064 7.17 1.17 13.65
12/23/2021 11:45:00 AM 2.58 36.644 0.064 7.17 1.2 13.63
12/23/2021 12:00:00 PM 2.6 36.68 0.064 7.17 1.15 13.61
12/23/2021 12:15:00 PM 2.66 36.788 0.064 7.17 1.14 13.56
12/23/2021 12:30:00 PM 2.73 36.914 0.064 7.17 1.14 13.51
12/23/2021 12:45:00 PM 2.78 37.004 0.064 7.15 1.16 13.47
12/23/2021 1:00:00 PM 2.86 37.148 0.064 7.17 1.2 13.48
12/23/2021 1:15:00 PM 2.92 37.256 0.064 7.18 1.18 13.47
12/23/2021 1:30:00 PM 2.97 37.346 0.064 7.2 1.18 13.45
12/23/2021 1:45:00 PM 3.03 37.454 0.064 7.18 1.17 13.44
12/23/2021 2:00:00 PM 3.05 37.49 0.064 7.18 1.15 13.42
12/23/2021 2:15:00 PM 3.08 37.544 0.064 7.19 1.18 13.4
12/23/2021 2:30:00 PM 3.1 37.58 0.064 7.18 1.15 13.38
12/23/2021 2:45:00 PM 3.11 37.598 0.064 7.19 1.16 13.36
12/23/2021 3:00:00 PM 3.11 37.598 0.064 7.18 1.19 13.34
12/23/2021 3:15:00 PM 3.11 37.598 0.064 7.17 1.21 13.32
12/23/2021 3:30:00 PM 3.11 37.598 0.064 7.15 1.27 13.27
12/23/2021 3:45:00 PM 3.12 37.616 0.064 7.15 1.23 13.22
12/23/2021 4:00:00 PM 3.11 37.598 0.064 7.1 1.23 13.13
12/23/2021 4:15:00 PM 3.12 37.616 0.064 7.08 1.26 13.05
12/23/2021 4:30:00 PM 3.11 37.598 0.064 7.05 1.21 12.97
12/23/2021 4:45:00 PM 3.11 37.598 0.064 7.03 1.26 12.91
12/23/2021 5:00:00 PM 3.1 37.58 0.065 7.01 1.21 12.86
12/23/2021 5:15:00 PM 3.09 37.562 0.065 6.99 1.27 12.81
12/23/2021 5:30:00 PM 3.06 37.508 0.065 6.97 1.27 12.79
12/23/2021 5:45:00 PM 3.02 37.436 0.065 6.95 1.24 12.78
12/23/2021 6:00:00 PM 2.9 37.22 0.065 6.95 1.34 12.78
12/23/2021 6:15:00 PM 2.87 37.166 0.065 6.96 1.33 12.79
12/23/2021 6:30:00 PM 2.86 37.148 0.065 6.94 1.32 12.8
12/23/2021 6:45:00 PM 2.84 37.112 0.065 6.94 1.3 12.8
12/23/2021 7:00:00 PM 2.83 37.094 0.065 6.93 1.3 12.81
12/23/2021 7:15:00 PM 2.82 37.076 0.065 6.92 1.29 12.81
12/23/2021 7:30:00 PM 2.81 37.058 0.065 6.94 1.3 12.81
12/23/2021 7:45:00 PM 2.79 37.022 0.065 6.93 1.33 12.82
12/23/2021 8:00:00 PM 2.77 36.986 0.065 6.92 1.3 12.82
12/23/2021 8:15:00 PM 2.77 36.986 0.065 6.93 1.32 12.82
12/23/2021 8:30:00 PM 2.76 36.968 0.065 6.93 1.33 12.82
12/23/2021 8:45:00 PM 2.75 36.95 0.065 6.94 1.32 12.82
12/23/2021 9:00:00 PM 2.75 36.95 0.065 6.94 1.3 12.82
12/23/2021 9:15:00 PM 2.75 36.95 0.065 6.93 1.36 12.82
12/23/2021 9:30:00 PM 2.74 36.932 0.065 6.93 1.42 12.82
12/23/2021 9:45:00 PM 2.74 36.932 0.065 6.92 1.28 12.81
12/23/2021 10:00:00 PM 2.73 36.914 0.065 6.91 1.28 12.81
12/23/2021 10:15:00 PM 2.72 36.896 0.066 6.94 1.29 12.81
12/23/2021 10:30:00 PM 2.73 36.914 0.066 6.93 1.28 12.82
12/23/2021 10:45:00 PM 2.73 36.914 0.066 6.93 1.26 12.81
12/23/2021 11:00:00 PM 2.73 36.914 0.066 6.93 1.25 12.81
12/23/2021 11:15:00 PM 2.7 36.86 0.066 6.91 1.25 12.81
12/23/2021 11:30:00 PM 2.65 36.77 0.066 6.91 1.27 12.81
12/23/2021 11:45:00 PM 2.57 36.626 0.066 6.93 1.35 12.83
12/24/2021 12:00:00 AM 2.49 36.482 0.065 6.92 1.29 12.85
12/24/2021 12:15:00 AM 2.47 36.446 0.065 6.93 1.32 12.86
12/24/2021 12:30:00 AM 2.48 36.464 0.065 6.91 1.3 12.87
12/24/2021 12:45:00 AM 2.47 36.446 0.065 6.91 1.32 12.88
12/24/2021 1:00:00 AM 2.47 36.446 0.065 6.91 1.3 12.89
12/24/2021 1:15:00 AM 2.44 36.392 0.065 6.93 1.31 12.9
12/24/2021 1:30:00 AM 2.43 36.374 0.065 6.92 1.34 12.9
12/24/2021 1:45:00 AM 2.42 36.356 0.065 6.91 1.36 12.91
12/24/2021 2:00:00 AM 2.41 36.338 0.065 6.91 1.42 12.92
12/24/2021 2:15:00 AM 2.41 36.338 0.065 6.92 1.33 12.92
12/24/2021 2:30:00 AM 2.42 36.356 0.065 6.92 1.27 12.92
12/24/2021 2:45:00 AM 2.44 36.392 0.065 6.91 1.32 12.92
12/24/2021 3:00:00 AM 2.45 36.41 0.065 6.92 1.32 12.92
12/24/2021 3:15:00 AM 2.46 36.428 0.065 6.91 1.39 12.91
12/24/2021 3:30:00 AM 2.47 36.446 0.065 6.9 1.28 12.91
12/24/2021 3:45:00 AM 2.49 36.482 0.065 6.92 1.33 12.9
12/24/2021 4:00:00 AM 2.5 36.5 0.065 6.93 1.29 12.9
12/24/2021 4:15:00 AM 2.52 36.536 0.065 6.92 1.3 12.88
12/24/2021 4:30:00 AM 2.54 36.572 0.065 6.9 1.32 12.88
12/24/2021 4:45:00 AM 2.56 36.608 0.065 6.92 1.31 12.87
12/24/2021 5:00:00 AM 2.59 36.662 0.065 6.92 1.28 12.86
12/24/2021 5:15:00 AM 2.61 36.698 0.065 6.93 1.27 12.86
12/24/2021 5:30:00 AM 2.63 36.734 0.065 6.92 1.32 12.85
12/24/2021 5:45:00 AM 2.65 36.77 0.065 6.92 1.29 12.84
12/24/2021 6:00:00 AM 2.67 36.806 0.065 6.91 1.33 12.83
12/24/2021 6:15:00 AM 2.69 36.842 0.065 6.92 1.28 12.82
12/24/2021 6:30:00 AM 2.71 36.878 0.065 6.92 1.26 12.81
12/24/2021 6:45:00 AM 2.73 36.914 0.065 6.92 1.37 12.8
12/24/2021 7:00:00 AM 2.75 36.95 0.065 6.93 1.3 12.8
12/24/2021 7:15:00 AM 2.77 36.986 0.065 6.91 1.31 12.8
12/24/2021 7:30:00 AM 2.79 37.022 0.065 6.92 1.26 12.79
12/24/2021 7:45:00 AM 2.81 37.058 0.065 6.91 1.32 12.8
12/24/2021 8:00:00 AM 2.83 37.094 0.065 6.92 1.29 12.81
12/24/2021 8:15:00 AM 2.84 37.112 0.065 6.94 1.3 12.83
12/24/2021 8:30:00 AM 2.87 37.166 0.065 6.94 1.35 12.86
12/24/2021 8:45:00 AM 2.89 37.202 0.065 6.97 1.28 12.89
12/24/2021 9:00:00 AM 2.91 37.238 0.065 6.97 1.28 12.93
12/24/2021 9:15:00 AM 2.94 37.292 0.065 6.98 1.24 12.97
12/24/2021 9:30:00 AM 2.97 37.346 0.065 7 1.32 13.03
12/24/2021 9:45:00 AM 3.01 37.418 0.065 7.02 1.24 13.08
12/24/2021 10:00:00 AM 3.05 37.49 0.065 7.03 1.27 13.14
12/24/2021 10:15:00 AM 3.1 37.58 0.065 7.08 1.28 13.18
12/24/2021 10:30:00 AM 3.16 37.688 0.065 7.11 1.32 13.22
12/24/2021 10:45:00 AM 3.22 37.796 0.065 7.13 1.27 13.26
12/24/2021 11:00:00 AM 3.29 37.922 0.064 7.14 1.22 13.27
12/24/2021 11:15:00 AM 3.36 38.048 0.064 7.17 1.31 13.27
12/24/2021 11:30:00 AM 3.41 38.138 0.064 7.18 1.19 13.25
12/24/2021 11:45:00 AM 3.45 38.21 0.064 7.17 1.26 13.21
12/24/2021 12:00:00 PM 3.52 38.336 0.064 7.18 1.25 13.18
12/24/2021 12:15:00 PM 3.62 38.516 0.064 7.19 1.24 13.15
12/24/2021 12:30:00 PM 3.72 38.696 0.064 7.2 1.27 13.12
12/24/2021 12:45:00 PM 3.83 38.894 0.064 7.2 1.4 13.12
12/24/2021 1:00:00 PM 3.92 39.056 0.064 7.19 1.21 13.07
12/24/2021 1:15:00 PM 3.97 39.146 0.064 7.17 1.22 12.99
12/24/2021 1:30:00 PM 4.03 39.254 0.064 7.17 1.19 12.96
12/24/2021 1:45:00 PM 4.11 39.398 0.064 7.18 1.22 12.94
12/24/2021 2:00:00 PM 4.2 39.56 0.064 7.18 1.27 12.92
12/24/2021 2:15:00 PM 4.27 39.686 0.064 7.2 1.27 12.9
12/24/2021 2:30:00 PM 4.34 39.812 0.064 7.19 1.28 12.88
12/24/2021 2:45:00 PM 4.39 39.902 0.064 7.21 1.3 12.85
12/24/2021 3:00:00 PM 4.42 39.956 0.064 7.19 1.3 12.8
12/24/2021 3:15:00 PM 4.44 39.992 0.064 7.19 1.33 12.76
12/24/2021 3:30:00 PM 4.45 40.01 0.064 7.17 1.36 12.73
12/24/2021 3:45:00 PM 4.47 40.046 0.064 7.15 1.38 12.69
12/24/2021 4:00:00 PM 4.5 40.1 0.064 7.14 1.4 12.64
12/24/2021 4:15:00 PM 4.5 40.1 0.064 7.12 1.42 12.54
12/24/2021 4:30:00 PM 4.5 40.1 0.064 7.05 1.31 12.44
12/24/2021 4:45:00 PM 4.48 40.064 0.064 7.03 1.35 12.37
12/24/2021 5:00:00 PM 4.46 40.028 0.065 7.01 1.34 12.31
12/24/2021 5:15:00 PM 4.44 39.992 0.065 6.99 1.34 12.27
12/24/2021 5:30:00 PM 4.42 39.956 0.065 6.98 1.37 12.24
12/24/2021 5:45:00 PM 4.41 39.938 0.065 6.95 1.46 12.22
12/24/2021 6:00:00 PM 4.39 39.902 0.065 6.93 1.41 12.21
12/24/2021 6:15:00 PM 4.37 39.866 0.065 6.93 1.49 12.21
12/24/2021 6:30:00 PM 4.35 39.83 0.065 6.93 1.44 12.21
12/24/2021 6:45:00 PM 4.33 39.794 0.065 6.93 1.44 12.21
12/24/2021 7:00:00 PM 4.32 39.776 0.065 6.92 1.44 12.21
12/24/2021 7:15:00 PM 4.3 39.74 0.066 6.92 1.46 12.21
12/24/2021 7:30:00 PM 4.28 39.704 0.066 6.92 1.39 12.22
12/24/2021 7:45:00 PM 4.27 39.686 0.066 6.91 1.51 12.22
12/24/2021 8:00:00 PM 4.27 39.686 0.066 6.92 1.5 12.22
12/24/2021 8:15:00 PM 4.27 39.686 0.066 6.92 1.54 12.22
12/24/2021 8:30:00 PM 4.27 39.686 0.066 6.93 1.5 12.22
12/24/2021 8:45:00 PM 4.27 39.686 0.066 6.92 1.46 12.21
12/24/2021 9:00:00 PM 4.27 39.686 0.066 6.91 1.5 12.21
12/24/2021 9:15:00 PM 4.28 39.704 0.066 6.9 1.4 12.21
12/24/2021 9:30:00 PM 4.28 39.704 0.066 6.91 1.4 12.2
12/24/2021 9:45:00 PM 4.28 39.704 0.066 6.91 1.43 12.2
12/24/2021 10:00:00 PM 4.29 39.722 0.066 6.9 1.41 12.2
12/24/2021 10:15:00 PM 4.29 39.722 0.066 6.9 1.43 12.2
12/24/2021 10:30:00 PM 4.29 39.722 0.066 6.91 1.44 12.19
12/24/2021 10:45:00 PM 4.3 39.74 0.066 6.91 1.44 12.18
12/24/2021 11:00:00 PM 4.31 39.758 0.066 6.89 1.51 12.18
12/24/2021 11:15:00 PM 4.31 39.758 0.066 6.9 1.43 12.17
12/24/2021 11:30:00 PM 4.32 39.776 0.066 6.91 1.49 12.17
12/24/2021 11:45:00 PM 4.33 39.794 0.066 6.9 1.46 12.17
12/25/2021 12:00:00 AM 4.34 39.812 0.066 6.89 1.46 12.16
12/25/2021 12:15:00 AM 4.35 39.83 0.066 6.9 1.48 12.16
12/25/2021 12:30:00 AM 4.35 39.83 0.066 6.91 1.48 12.15
12/25/2021 12:45:00 AM 4.36 39.848 0.066 6.91 1.47 12.14
12/25/2021 1:00:00 AM 4.37 39.866 0.066 6.89 1.47 12.14
12/25/2021 1:15:00 AM 4.38 39.884 0.066 6.91 1.46 12.13
12/25/2021 1:30:00 AM 4.38 39.884 0.066 6.9 1.52 12.12
12/25/2021 1:45:00 AM 4.39 39.902 0.066 6.9 1.5 12.12
12/25/2021 2:00:00 AM 4.4 39.92 0.066 6.9 1.44 12.11
12/25/2021 2:15:00 AM 4.41 39.938 0.066 6.89 1.51 12.1
12/25/2021 2:30:00 AM 4.41 39.938 0.066 6.89 1.46 12.1
12/25/2021 2:45:00 AM 4.42 39.956 0.066 6.9 1.45 12.09
12/25/2021 3:00:00 AM 4.43 39.974 0.066 6.9 1.44 12.09
12/25/2021 3:15:00 AM 4.43 39.974 0.066 6.91 1.45 12.08
12/25/2021 3:30:00 AM 4.44 39.992 0.066 6.9 1.43 12.08
12/25/2021 3:45:00 AM 4.44 39.992 0.066 6.9 1.42 12.07
12/25/2021 4:00:00 AM 4.45 40.01 0.066 6.9 1.51 12.07
12/25/2021 4:15:00 AM 4.46 40.028 0.066 6.9 1.48 12.06
12/25/2021 4:30:00 AM 4.47 40.046 0.066 6.9 1.43 12.06
12/25/2021 4:45:00 AM 4.47 40.046 0.066 6.9 1.45 12.05
12/25/2021 5:00:00 AM 4.48 40.064 0.066 6.9 1.43 12.04
12/25/2021 5:15:00 AM 4.49 40.082 0.066 6.89 1.52 12.04
12/25/2021 5:30:00 AM 4.49 40.082 0.066 6.91 1.52 12.03
12/25/2021 5:45:00 AM 4.5 40.1 0.066 6.9 1.58 12.03
12/25/2021 6:00:00 AM 4.5 40.1 0.066 6.89 1.5 12.02
12/25/2021 6:15:00 AM 4.51 40.118 0.066 6.88 1.52 12.02
12/25/2021 6:30:00 AM 4.51 40.118 0.066 6.88 1.56 12.02
12/25/2021 6:45:00 AM 4.51 40.118 0.066 6.88 1.52 12.02
12/25/2021 7:00:00 AM 4.52 40.136 0.066 6.88 1.55 12.02
12/25/2021 7:15:00 AM 4.52 40.136 0.066 6.88 1.57 12.01
12/25/2021 7:30:00 AM 4.53 40.154 0.066 6.87 1.58 12
12/25/2021 7:45:00 AM 4.53 40.154 0.066 6.87 1.58 12.01
12/25/2021 8:00:00 AM 4.53 40.154 0.066 6.87 1.58 12.01
12/25/2021 8:15:00 AM 4.54 40.172 0.066 6.88 1.64 12.03
12/25/2021 8:30:00 AM 4.55 40.19 0.066 6.87 1.61 12.05
12/25/2021 8:45:00 AM 4.56 40.208 0.066 6.92 1.59 12.08
12/25/2021 9:00:00 AM 4.57 40.226 0.066 6.94 1.55 12.12
12/25/2021 9:15:00 AM 4.59 40.262 0.065 6.94 1.62 12.15
12/25/2021 9:30:00 AM 4.62 40.316 0.065 6.96 1.66 12.23
12/25/2021 9:45:00 AM 4.65 40.37 0.065 6.99 1.75 12.3
12/25/2021 10:00:00 AM 4.68 40.424 0.065 7.01 1.62 12.34
12/25/2021 10:15:00 AM 4.72 40.496 0.065 7.04 1.69 12.41
12/25/2021 10:30:00 AM 4.75 40.55 0.065 7.06 1.78 12.43
12/25/2021 10:45:00 AM 4.79 40.622 0.065 7.07 1.66 12.39
12/25/2021 11:00:00 AM 4.82 40.676 0.065 7.06 1.67 12.38
12/25/2021 11:15:00 AM 4.86 40.748 0.065 7.08 1.73 12.41
12/25/2021 11:30:00 AM 4.9 40.82 0.065 7.09 1.7 12.4
12/25/2021 11:45:00 AM 4.94 40.892 0.065 7.08 1.77 12.39
12/25/2021 12:00:00 PM 4.98 40.964 0.065 7.1 1.85 12.41
12/25/2021 12:15:00 PM 5.03 41.054 0.065 7.12 1.83 12.41
12/25/2021 12:30:00 PM 5.08 41.144 0.065 7.13 1.89 12.42
12/25/2021 12:45:00 PM 5.11 41.198 0.065 7.12 2.04 12.37
12/25/2021 1:00:00 PM 5.15 41.27 0.065 7.1 2.07 12.34
12/25/2021 1:15:00 PM 5.2 41.36 0.065 7.13 2.14 12.35
12/25/2021 1:30:00 PM 5.26 41.468 0.066 7.15 2.11 12.37
12/25/2021 1:45:00 PM 5.3 41.54 0.066 7.17 2.1 12.37
12/25/2021 2:00:00 PM 5.36 41.648 0.066 7.17 2.17 12.38
12/25/2021 2:15:00 PM 5.4 41.72 0.066 7.17 2.14 12.33
12/25/2021 2:30:00 PM 5.43 41.774 0.066 7.13 2.15 12.27
12/25/2021 2:45:00 PM 5.46 41.828 0.066 7.14 2.15 12.25
12/25/2021 3:00:00 PM 5.47 41.846 0.067 7.11 2.19 12.17
12/25/2021 3:15:00 PM 5.48 41.864 0.067 7.09 2.1 12.08
12/25/2021 3:30:00 PM 5.49 41.882 0.067 7.05 2.16 12.02
12/25/2021 3:45:00 PM 5.51 41.918 0.068 7.02 2.17 11.96
12/25/2021 4:00:00 PM 5.52 41.936 0.068 7 2.14 11.9
12/25/2021 4:15:00 PM 5.53 41.954 0.068 6.97 2.13 11.85
12/25/2021 4:30:00 PM 5.53 41.954 0.069 6.95 2.17 11.81
12/25/2021 4:45:00 PM 5.54 41.972 0.069 6.94 2.09 11.78
12/25/2021 5:00:00 PM 5.55 41.99 0.069 6.93 2.15 11.75
12/25/2021 5:15:00 PM 5.56 42.008 0.069 6.92 2.09 11.74
12/25/2021 5:30:00 PM 5.57 42.026 0.069 6.91 2.07 11.72
12/25/2021 5:45:00 PM 5.58 42.044 0.07 6.9 2.13 11.71
12/25/2021 6:00:00 PM 5.59 42.062 0.07 6.9 2.08 11.71
12/25/2021 6:15:00 PM 5.61 42.098 0.07 6.9 2.09 11.7
12/25/2021 6:30:00 PM 5.63 42.134 0.07 6.9 2.15 11.68
12/25/2021 6:45:00 PM 5.64 42.152 0.07 6.9 1.95 11.69
12/25/2021 7:00:00 PM 5.66 42.188 0.07 6.91 1.93 11.68
12/25/2021 7:15:00 PM 5.67 42.206 0.07 6.91 1.97 11.67
12/25/2021 7:30:00 PM 5.68 42.224 0.07 6.91 1.98 11.67
12/25/2021 7:45:00 PM 5.69 42.242 0.07 6.9 2.01 11.67
12/25/2021 8:00:00 PM 5.69 42.242 0.07 6.9 1.99 11.67
12/25/2021 8:15:00 PM 5.7 42.26 0.07 6.9 1.97 11.67
12/25/2021 8:30:00 PM 5.7 42.26 0.07 6.91 1.96 11.67
12/25/2021 8:45:00 PM 5.72 42.296 0.07 6.9 1.92 11.67
12/25/2021 9:00:00 PM 5.72 42.296 0.07 6.9 1.92 11.67
12/25/2021 9:15:00 PM 5.72 42.296 0.07 6.9 1.96 11.67
12/25/2021 9:30:00 PM 5.72 42.296 0.07 6.89 1.93 11.68
12/25/2021 9:45:00 PM 5.72 42.296 0.07 6.89 1.84 11.68
12/25/2021 10:00:00 PM 5.72 42.296 0.07 6.89 1.81 11.69
12/25/2021 10:15:00 PM 5.73 42.314 0.07 6.89 1.89 11.69
12/25/2021 10:30:00 PM 5.73 42.314 0.07 6.92 1.83 11.69
12/25/2021 10:45:00 PM 5.71 42.278 0.07 6.92 1.85 11.69
12/25/2021 11:00:00 PM 5.7 42.26 0.07 6.9 1.85 11.7
12/25/2021 11:15:00 PM 5.69 42.242 0.07 6.91 1.91 11.71
12/25/2021 11:30:00 PM 5.67 42.206 0.07 6.9 1.87 11.72
12/25/2021 11:45:00 PM 5.66 42.188 0.07 6.9 1.85 11.72
12/26/2021 12:00:00 AM 5.65 42.17 0.07 6.93 1.87 11.73
12/26/2021 12:15:00 AM 5.63 42.134 0.07 6.94 1.9 11.73
12/26/2021 12:30:00 AM 5.61 42.098 0.07 6.94 1.79 11.74
12/26/2021 12:45:00 AM 5.59 42.062 0.07 6.93 1.81 11.75
12/26/2021 1:00:00 AM 5.56 42.008 0.07 6.93 1.87 11.75
12/26/2021 1:15:00 AM 5.53 41.954 0.07 6.93 1.77 11.77
12/26/2021 1:30:00 AM 5.51 41.918 0.07 6.94 1.76 11.78
12/26/2021 1:45:00 AM 5.49 41.882 0.07 6.93 1.75 11.79
12/26/2021 2:00:00 AM 5.46 41.828 0.07 6.94 1.69 11.8
12/26/2021 2:15:00 AM 5.44 41.792 0.07 6.93 1.77 11.81
12/26/2021 2:30:00 AM 5.42 41.756 0.07 6.93 1.78 11.81
12/26/2021 2:45:00 AM 5.39 41.702 0.07 6.93 1.73 11.82
12/26/2021 3:00:00 AM 5.38 41.684 0.07 6.93 1.74 11.84
12/26/2021 3:15:00 AM 5.35 41.63 0.07 6.93 1.73 11.84
12/26/2021 3:30:00 AM 5.33 41.594 0.07 6.93 1.68 11.85
12/26/2021 3:45:00 AM 5.31 41.558 0.07 6.93 1.74 11.86
12/26/2021 4:00:00 AM 5.29 41.522 0.07 6.93 1.69 11.87
12/26/2021 4:15:00 AM 5.26 41.468 0.07 6.93 1.73 11.88
12/26/2021 4:30:00 AM 5.24 41.432 0.07 6.92 1.65 11.88
12/26/2021 4:45:00 AM 5.21 41.378 0.069 6.94 1.67 11.9
12/26/2021 5:00:00 AM 5.19 41.342 0.069 6.94 1.7 11.91
12/26/2021 5:15:00 AM 5.16 41.288 0.069 6.94 1.68 11.92
12/26/2021 5:30:00 AM 5.14 41.252 0.069 6.94 1.61 11.93
12/26/2021 5:45:00 AM 5.12 41.216 0.069 6.94 1.63 11.93
12/26/2021 6:00:00 AM 5.09 41.162 0.069 6.93 1.66 11.95
12/26/2021 6:15:00 AM 5.06 41.108 0.069 6.94 1.8 11.97
12/26/2021 6:30:00 AM 5.04 41.072 0.069 6.95 1.7 11.97
12/26/2021 6:45:00 AM 5 41 0.069 6.94 1.68 11.98
12/26/2021 7:00:00 AM 4.96 40.928 0.069 6.94 1.64 12
12/26/2021 7:15:00 AM 4.93 40.874 0.069 6.94 1.69 12.01
12/26/2021 7:30:00 AM 4.88 40.784 0.069 6.94 1.7 12.03
12/26/2021 7:45:00 AM 4.84 40.712 0.069 6.95 1.64 12.06
12/26/2021 8:00:00 AM 4.79 40.622 0.069 6.96 1.56 12.11
12/26/2021 8:15:00 AM 4.75 40.55 0.069 6.97 1.62 12.17
12/26/2021 8:30:00 AM 4.71 40.478 0.069 6.99 1.56 12.25
12/26/2021 8:45:00 AM 4.68 40.424 0.069 7.01 1.54 12.32
12/26/2021 9:00:00 AM 4.67 40.406 0.069 7.03 1.59 12.4
12/26/2021 9:15:00 AM 4.68 40.424 0.069 7.06 1.6 12.5
12/26/2021 9:30:00 AM 4.69 40.442 0.069 7.1 1.53 12.57
12/26/2021 9:45:00 AM 4.71 40.478 0.068 7.12 1.51 12.63
12/26/2021 10:00:00 AM 4.71 40.478 0.068 7.14 1.5 12.66
12/26/2021 10:15:00 AM 4.75 40.55 0.068 7.17 1.48 12.72
12/26/2021 10:30:00 AM 4.79 40.622 0.068 7.19 1.47 12.74
12/26/2021 10:45:00 AM 4.83 40.694 0.068 7.2 1.46 12.76
12/26/2021 11:00:00 AM 4.87 40.766 0.068 7.21 1.47 12.73
12/26/2021 11:15:00 AM 4.91 40.838 0.068 7.22 1.52 12.73
12/26/2021 11:30:00 AM 4.96 40.928 0.068 7.23 1.46 12.74
12/26/2021 11:45:00 AM 5.02 41.036 0.067 7.25 1.5 12.75
12/26/2021 12:00:00 PM 5.04 41.072 0.067 7.26 1.48 12.73
12/26/2021 12:15:00 PM 5.06 41.108 0.067 7.27 1.49 12.73
12/26/2021 12:30:00 PM 5.08 41.144 0.067 7.27 1.44 12.72
12/26/2021 12:45:00 PM 5.1 41.18 0.067 7.27 1.51 12.71
12/26/2021 1:00:00 PM 5.11 41.198 0.067 7.27 1.46 12.7
12/26/2021 1:15:00 PM 5.14 41.252 0.067 7.27 1.49 12.69
12/26/2021 1:30:00 PM 5.15 41.27 0.067 7.28 1.5 12.67
12/26/2021 1:45:00 PM 5.17 41.306 0.067 7.28 1.45 12.67
12/26/2021 2:00:00 PM 5.2 41.36 0.067 7.29 1.47 12.67
12/26/2021 2:15:00 PM 5.21 41.378 0.067 7.29 1.51 12.66
12/26/2021 2:30:00 PM 5.2 41.36 0.067 7.28 1.48 12.63
12/26/2021 2:45:00 PM 5.2 41.36 0.067 7.26 1.46 12.59
12/26/2021 3:00:00 PM 5.21 41.378 0.067 7.24 1.48 12.58
12/26/2021 3:15:00 PM 5.21 41.378 0.067 7.24 1.46 12.57
12/26/2021 3:30:00 PM 5.2 41.36 0.067 7.23 1.47 12.54
12/26/2021 3:45:00 PM 5.15 41.27 0.067 7.19 1.55 12.48
12/26/2021 4:00:00 PM 5.1 41.18 0.067 7.16 1.52 12.42
12/26/2021 4:15:00 PM 5.04 41.072 0.068 7.12 1.5 12.36
12/26/2021 4:30:00 PM 5 41 0.068 7.09 1.44 12.3
12/26/2021 4:45:00 PM 4.96 40.928 0.068 7.07 1.47 12.26
12/26/2021 5:00:00 PM 4.93 40.874 0.068 7.04 1.49 12.21
12/26/2021 5:15:00 PM 4.91 40.838 0.068 7.03 1.51 12.17
12/26/2021 5:30:00 PM 4.86 40.748 0.068 7.01 1.47 12.16
12/26/2021 5:45:00 PM 4.82 40.676 0.068 7 1.54 12.15
12/26/2021 6:00:00 PM 4.76 40.568 0.068 6.99 1.53 12.15
12/26/2021 6:15:00 PM 4.69 40.442 0.068 6.98 1.54 12.16
12/26/2021 6:30:00 PM 4.63 40.334 0.069 6.98 1.55 12.16
12/26/2021 6:45:00 PM 4.56 40.208 0.069 6.98 1.59 12.19
12/26/2021 7:00:00 PM 4.5 40.1 0.069 6.97 1.56 12.21
12/26/2021 7:15:00 PM 4.44 39.992 0.069 6.97 1.55 12.22
12/26/2021 7:30:00 PM 4.39 39.902 0.069 6.97 1.56 12.25
12/26/2021 7:45:00 PM 4.33 39.794 0.069 6.97 1.57 12.27
12/26/2021 8:00:00 PM 4.28 39.704 0.069 6.97 1.55 12.28
12/26/2021 8:15:00 PM 4.23 39.614 0.069 6.97 1.56 12.3
12/26/2021 8:30:00 PM 4.2 39.56 0.069 6.96 1.52 12.32
12/26/2021 8:45:00 PM 4.17 39.506 0.069 6.96 1.59 12.33
12/26/2021 9:00:00 PM 4.14 39.452 0.069 6.96 1.5 12.34
12/26/2021 9:15:00 PM 4.12 39.416 0.069 6.96 1.56 12.35
12/26/2021 9:30:00 PM 4.1 39.38 0.069 6.96 1.53 12.36
12/26/2021 9:45:00 PM 4.06 39.308 0.069 6.96 1.53 12.37
12/26/2021 10:00:00 PM 4.05 39.29 0.069 6.97 1.54 12.37
12/26/2021 10:15:00 PM 4.04 39.272 0.069 6.97 1.56 12.38
12/26/2021 10:30:00 PM 4.02 39.236 0.069 6.96 1.51 12.38
12/26/2021 10:45:00 PM 4.01 39.218 0.069 6.97 1.52 12.39
12/26/2021 11:00:00 PM 4 39.2 0.069 6.96 1.55 12.39
12/26/2021 11:15:00 PM 3.98 39.164 0.069 6.97 1.55 12.4
12/26/2021 11:30:00 PM 3.97 39.146 0.069 6.96 1.5 12.4
12/26/2021 11:45:00 PM 3.95 39.11 0.069 6.97 1.52 12.41
12/27/2021 12:00:00 AM 3.94 39.092 0.069 6.96 1.58 12.41
12/27/2021 12:15:00 AM 3.93 39.074 0.069 6.96 1.56 12.42
12/27/2021 12:30:00 AM 3.91 39.038 0.069 6.96 1.58 12.42
12/27/2021 12:45:00 AM 3.9 39.02 0.069 6.96 1.56 12.43
12/27/2021 1:00:00 AM 3.89 39.002 0.069 6.96 1.54 12.43
12/27/2021 1:15:00 AM 3.87 38.966 0.069 6.96 1.54 12.44
12/27/2021 1:30:00 AM 3.85 38.93 0.069 6.96 1.51 12.45
12/27/2021 1:45:00 AM 3.83 38.894 0.069 6.96 1.53 12.44
12/27/2021 2:00:00 AM 3.81 38.858 0.069 6.96 1.56 12.45
12/27/2021 2:15:00 AM 3.8 38.84 0.069 6.96 1.53 12.46
12/27/2021 2:30:00 AM 3.77 38.786 0.069 6.96 1.52 12.46
12/27/2021 2:45:00 AM 3.75 38.75 0.069 6.96 1.5 12.47
12/27/2021 3:00:00 AM 3.72 38.696 0.069 6.96 1.55 12.48
12/27/2021 3:15:00 AM 3.7 38.66 0.069 6.96 1.53 12.49
12/27/2021 3:30:00 AM 3.68 38.624 0.069 6.95 1.53 12.49
12/27/2021 3:45:00 AM 3.67 38.606 0.069 6.96 1.55 12.49
12/27/2021 4:00:00 AM 3.66 38.588 0.069 6.95 1.54 12.5
12/27/2021 4:15:00 AM 3.64 38.552 0.069 6.96 1.5 12.5
12/27/2021 4:30:00 AM 3.63 38.534 0.069 6.96 1.49 12.51
12/27/2021 4:45:00 AM 3.62 38.516 0.069 6.96 1.56 12.51
12/27/2021 5:00:00 AM 3.61 38.498 0.069 6.96 1.54 12.52
12/27/2021 5:15:00 AM 3.6 38.48 0.069 6.95 1.57 12.52
12/27/2021 5:30:00 AM 3.58 38.444 0.069 6.96 1.55 12.52
12/27/2021 5:45:00 AM 3.57 38.426 0.069 6.96 1.53 12.52
12/27/2021 6:00:00 AM 3.56 38.408 0.069 6.96 1.51 12.52
12/27/2021 6:15:00 AM 3.55 38.39 0.069 6.97 1.53 12.53
12/27/2021 6:30:00 AM 3.54 38.372 0.069 6.96 1.55 12.53
12/27/2021 6:45:00 AM 3.54 38.372 0.069 6.96 1.51 12.53
12/27/2021 7:00:00 AM 3.53 38.354 0.069 6.97 1.53 12.54
12/27/2021 7:15:00 AM 3.52 38.336 0.069 6.97 1.58 12.54
12/27/2021 7:30:00 AM 3.52 38.336 0.069 6.96 1.54 12.54
12/27/2021 7:45:00 AM 3.51 38.318 0.069 6.96 1.53 12.55
12/27/2021 8:00:00 AM 3.51 38.318 0.069 6.96 1.53 12.56
12/27/2021 8:15:00 AM 3.51 38.318 0.069 6.97 1.49 12.57
12/27/2021 8:30:00 AM 3.5 38.3 0.069 6.97 1.45 12.57
12/27/2021 8:45:00 AM 3.45 38.21 0.069 6.97 1.49 12.59
12/27/2021 9:00:00 AM 3.36 38.048 0.069 6.98 1.49 12.61
12/27/2021 9:15:00 AM 3.2 37.76 0.068 6.99 1.47 12.69
12/27/2021 9:30:00 AM 3.19 37.742 0.068 7.02 1.45 12.79
12/27/2021 9:45:00 AM 3.22 37.796 0.068 7.05 1.46 12.91
12/27/2021 10:00:00 AM 3.23 37.814 0.068 7.09 1.48 13
12/27/2021 10:15:00 AM 3.25 37.85 0.068 7.1 1.44 13.05
12/27/2021 10:30:00 AM 3.26 37.868 0.068 7.13 1.46 13.08
12/27/2021 10:45:00 AM 3.29 37.922 0.068 7.13 1.47 13.13
12/27/2021 11:00:00 AM 3.3 37.94 0.067 7.15 1.48 13.16
12/27/2021 11:15:00 AM 3.31 37.958 0.067 7.16 1.43 13.17
12/27/2021 11:30:00 AM 3.34 38.012 0.067 7.17 1.42 13.16
12/27/2021 11:45:00 AM 3.35 38.03 0.067 7.19 1.39 13.19
12/27/2021 12:00:00 PM 3.36 38.048 0.067 7.18 1.46 13.14
12/27/2021 12:15:00 PM 3.39 38.102 0.067 7.16 1.48 13.06
12/27/2021 12:30:00 PM 3.39 38.102 0.067 7.14 1.44 13.01
12/27/2021 12:45:00 PM 3.4 38.12 0.067 7.14 1.44 13.02
12/27/2021 1:00:00 PM 3.42 38.156 0.067 7.15 1.42 13.01
12/27/2021 1:15:00 PM 3.43 38.174 0.067 7.14 1.45 13
12/27/2021 1:30:00 PM 3.45 38.21 0.067 7.14 1.45 12.98
12/27/2021 1:45:00 PM 3.46 38.228 0.067 7.13 1.43 12.94
12/27/2021 2:00:00 PM 3.47 38.246 0.067 7.13 1.4 12.93
12/27/2021 2:15:00 PM 3.49 38.282 0.067 7.13 1.4 12.91
12/27/2021 2:30:00 PM 3.5 38.3 0.067 7.12 1.45 12.88
12/27/2021 2:45:00 PM 3.52 38.336 0.067 7.12 1.44 12.88
12/27/2021 3:00:00 PM 3.53 38.354 0.067 7.11 1.44 12.83
12/27/2021 3:15:00 PM 3.54 38.372 0.067 7.1 1.45 12.77
12/27/2021 3:30:00 PM 3.55 38.39 0.067 7.08 1.44 12.73
12/27/2021 3:45:00 PM 3.56 38.408 0.067 7.07 1.43 12.68
12/27/2021 4:00:00 PM 3.56 38.408 0.068 7.06 1.43 12.65
12/27/2021 4:15:00 PM 3.56 38.408 0.068 7.04 1.45 12.62
12/27/2021 4:30:00 PM 3.56 38.408 0.068 7.03 1.46 12.58
12/27/2021 4:45:00 PM 3.56 38.408 0.068 7.02 1.45 12.55
12/27/2021 5:00:00 PM 3.56 38.408 0.068 7.01 1.49 12.51
12/27/2021 5:15:00 PM 3.56 38.408 0.068 7 1.45 12.49
12/27/2021 5:30:00 PM 3.56 38.408 0.068 6.99 1.44 12.47
12/27/2021 5:45:00 PM 3.56 38.408 0.068 6.99 1.55 12.47
12/27/2021 6:00:00 PM 3.56 38.408 0.068 6.98 1.54 12.45
12/27/2021 6:15:00 PM 3.56 38.408 0.068 6.98 1.51 12.45
12/27/2021 6:30:00 PM 3.57 38.426 0.068 6.98 1.52 12.44
12/27/2021 6:45:00 PM 3.57 38.426 0.068 6.98 1.53 12.43
12/27/2021 7:00:00 PM 3.57 38.426 0.068 6.97 1.5 12.43
12/27/2021 7:15:00 PM 3.58 38.444 0.068 6.98 1.46 12.43
12/27/2021 7:30:00 PM 3.58 38.444 0.068 6.97 1.5 12.42
12/27/2021 7:45:00 PM 3.58 38.444 0.068 6.97 1.5 12.42
12/27/2021 8:00:00 PM 3.58 38.444 0.068 6.97 1.52 12.42
12/27/2021 8:15:00 PM 3.58 38.444 0.068 6.97 1.52 12.41
12/27/2021 8:30:00 PM 3.58 38.444 0.068 6.97 1.53 12.42
12/27/2021 8:45:00 PM 3.59 38.462 0.068 6.97 1.45 12.41
12/27/2021 9:00:00 PM 3.6 38.48 0.068 6.97 1.49 12.4
12/27/2021 9:15:00 PM 3.61 38.498 0.068 6.97 1.47 12.4
12/27/2021 9:30:00 PM 3.61 38.498 0.068 6.96 1.47 12.4
12/27/2021 9:45:00 PM 3.62 38.516 0.068 6.96 1.49 12.39
12/27/2021 10:00:00 PM 3.63 38.534 0.068 6.97 1.52 12.39
12/27/2021 10:15:00 PM 3.64 38.552 0.068 6.96 1.51 12.38
12/27/2021 10:30:00 PM 3.65 38.57 0.068 6.97 1.49 12.38
12/27/2021 10:45:00 PM 3.66 38.588 0.068 6.98 1.49 12.38
12/27/2021 11:00:00 PM 3.67 38.606 0.068 6.97 1.5 12.37
12/27/2021 11:15:00 PM 3.67 38.606 0.068 6.97 1.53 12.37
12/27/2021 11:30:00 PM 3.68 38.624 0.068 6.97 1.54 12.37
12/27/2021 11:45:00 PM 3.69 38.642 0.068 6.96 1.48 12.36
12/28/2021 12:00:00 AM 3.7 38.66 0.068 6.96 1.44 12.35
12/28/2021 12:15:00 AM 3.71 38.678 0.068 6.96 1.48 12.36
12/28/2021 12:30:00 AM 3.72 38.696 0.068 6.96 1.5 12.35
12/28/2021 12:45:00 AM 3.73 38.714 0.069 6.96 1.5 12.35
12/28/2021 1:00:00 AM 3.74 38.732 0.069 6.96 1.51 12.35
12/28/2021 1:15:00 AM 3.76 38.768 0.069 6.96 1.5 12.34
12/28/2021 1:30:00 AM 3.78 38.804 0.069 6.95 1.51 12.34
12/28/2021 1:45:00 AM 3.79 38.822 0.069 6.96 1.5 12.33
12/28/2021 2:00:00 AM 3.8 38.84 0.069 6.96 1.44 12.33
12/28/2021 2:15:00 AM 3.81 38.858 0.069 6.96 1.48 12.32
12/28/2021 2:30:00 AM 3.82 38.876 0.069 6.95 1.42 12.33
12/28/2021 2:45:00 AM 3.81 38.858 0.069 6.95 1.53 12.32
12/28/2021 3:00:00 AM 3.79 38.822 0.069 6.96 1.5 12.33
12/28/2021 3:15:00 AM 3.79 38.822 0.069 6.95 1.49 12.33
12/28/2021 3:30:00 AM 3.78 38.804 0.069 6.95 1.47 12.33
12/28/2021 3:45:00 AM 3.77 38.786 0.069 6.94 1.49 12.34
12/28/2021 4:00:00 AM 3.75 38.75 0.069 6.95 1.5 12.34
12/28/2021 4:15:00 AM 3.73 38.714 0.069 6.95 1.48 12.34
12/28/2021 4:30:00 AM 3.71 38.678 0.069 6.95 1.43 12.36
12/28/2021 4:45:00 AM 3.7 38.66 0.069 6.95 1.44 12.36
12/28/2021 5:00:00 AM 3.68 38.624 0.069 6.95 1.46 12.37
12/28/2021 5:15:00 AM 3.65 38.57 0.069 6.95 1.48 12.38
12/28/2021 5:30:00 AM 3.62 38.516 0.069 6.95 1.47 12.39
12/28/2021 5:45:00 AM 3.6 38.48 0.069 6.95 1.45 12.4
12/28/2021 6:00:00 AM 3.57 38.426 0.069 6.95 1.51 12.41
12/28/2021 6:15:00 AM 3.54 38.372 0.069 6.95 1.47 12.42
12/28/2021 6:30:00 AM 3.51 38.318 0.069 6.94 1.45 12.44
12/28/2021 6:45:00 AM 3.48 38.264 0.069 6.95 1.43 12.45
12/28/2021 7:00:00 AM 3.45 38.21 0.069 6.95 1.45 12.46
12/28/2021 7:15:00 AM 3.42 38.156 0.069 6.95 1.45 12.46
12/28/2021 7:30:00 AM 3.39 38.102 0.069 6.95 1.48 12.48
12/28/2021 7:45:00 AM 3.37 38.066 0.069 6.96 1.43 12.5
12/28/2021 8:00:00 AM 3.35 38.03 0.069 6.97 1.44 12.56
12/28/2021 8:15:00 AM 3.33 37.994 0.069 6.98 1.54 12.61
12/28/2021 8:30:00 AM 3.31 37.958 0.069 7 1.5 12.67
12/28/2021 8:45:00 AM 3.3 37.94 0.068 7.02 1.5 12.75
12/28/2021 9:00:00 AM 3.31 37.958 0.068 7.04 1.38 12.84
12/28/2021 9:15:00 AM 3.33 37.994 0.068 7.06 1.4 12.91
12/28/2021 9:30:00 AM 3.35 38.03 0.068 7.08 1.33 12.94
12/28/2021 9:45:00 AM 3.4 38.12 0.068 7.1 1.35 12.99
12/28/2021 10:00:00 AM 3.47 38.246 0.068 7.14 1.36 13.05
12/28/2021 10:15:00 AM 3.53 38.354 0.068 7.16 1.34 13.11
12/28/2021 10:30:00 AM 3.62 38.516 0.068 7.19 1.28 13.11
12/28/2021 10:45:00 AM 3.68 38.624 0.067 7.2 1.37 13.11
12/28/2021 11:00:00 AM 3.74 38.732 0.067 7.21 1.37 13.11
12/28/2021 11:15:00 AM 3.83 38.894 0.067 7.23 1.33 13.09
12/28/2021 11:30:00 AM 3.95 39.11 0.067 7.25 1.3 13.07
12/28/2021 11:45:00 AM 4.03 39.254 0.067 7.26 1.27 13.05
12/28/2021 12:00:00 PM 4.08 39.344 0.067 7.27 1.28 13.04
12/28/2021 12:15:00 PM 4.13 39.434 0.067 7.27 1.33 13.01
12/28/2021 12:30:00 PM 4.16 39.488 0.067 7.26 1.19 12.97
12/28/2021 12:45:00 PM 4.19 39.542 0.067 7.25 1.3 12.93
12/28/2021 1:00:00 PM 4.21 39.578 0.067 7.23 1.26 12.89
12/28/2021 1:15:00 PM 4.24 39.632 0.067 7.22 1.27 12.83
12/28/2021 1:30:00 PM 4.26 39.668 0.067 7.2 1.26 12.78
12/28/2021 1:45:00 PM 4.28 39.704 0.067 7.19 1.22 12.72
12/28/2021 2:00:00 PM 4.31 39.758 0.067 7.19 1.28 12.73
12/28/2021 2:15:00 PM 4.34 39.812 0.067 7.2 1.29 12.75
12/28/2021 2:30:00 PM 4.36 39.848 0.067 7.18 1.28 12.69
12/28/2021 2:45:00 PM 4.37 39.866 0.067 7.17 1.25 12.65
12/28/2021 3:00:00 PM 4.38 39.884 0.067 7.14 1.27 12.58
12/28/2021 3:15:00 PM 4.37 39.866 0.067 7.11 1.3 12.51
12/28/2021 3:30:00 PM 4.37 39.866 0.067 7.09 1.27 12.45
12/28/2021 3:45:00 PM 4.37 39.866 0.067 7.07 1.26 12.43
12/28/2021 4:00:00 PM 4.37 39.866 0.067 7.05 1.3 12.39
12/28/2021 4:15:00 PM 4.37 39.866 0.068 7.04 1.31 12.35
12/28/2021 4:30:00 PM 4.37 39.866 0.068 7.02 1.29 12.3
12/28/2021 4:45:00 PM 4.35 39.83 0.068 7.01 1.3 12.27
12/28/2021 5:00:00 PM 4.34 39.812 0.068 7 1.34 12.25
12/28/2021 5:15:00 PM 4.32 39.776 0.068 6.99 1.37 12.24
12/28/2021 5:30:00 PM 4.29 39.722 0.068 6.99 1.38 12.23
12/28/2021 5:45:00 PM 4.22 39.596 0.068 6.98 1.36 12.23
12/28/2021 6:00:00 PM 4.15 39.47 0.068 6.97 1.42 12.24
12/28/2021 6:15:00 PM 4.01 39.218 0.068 6.97 1.41 12.25
12/28/2021 6:30:00 PM 3.88 38.984 0.068 6.97 1.41 12.27
12/28/2021 6:45:00 PM 3.75 38.75 0.068 6.97 1.42 12.31
12/28/2021 7:00:00 PM 3.66 38.588 0.068 6.96 1.42 12.35
12/28/2021 7:15:00 PM 3.56 38.408 0.068 6.96 1.4 12.39
12/28/2021 7:30:00 PM 3.45 38.21 0.067 6.97 1.47 12.43
12/28/2021 7:45:00 PM 3.34 38.012 0.067 6.95 1.47 12.45
12/28/2021 8:00:00 PM 3.16 37.688 0.067 6.96 1.54 12.5
12/28/2021 8:15:00 PM 3.05 37.49 0.067 6.95 1.46 12.53
12/28/2021 8:30:00 PM 3.02 37.436 0.067 6.96 1.42 12.57
12/28/2021 8:45:00 PM 3 37.4 0.067 6.95 1.51 12.6
12/28/2021 9:00:00 PM 3.03 37.454 0.067 6.95 1.44 12.62
12/28/2021 9:15:00 PM 3.05 37.49 0.067 6.95 1.39 12.62
12/28/2021 9:30:00 PM 3.07 37.526 0.067 6.96 1.39 12.63
12/28/2021 9:45:00 PM 3.09 37.562 0.067 6.95 1.41 12.62
12/28/2021 10:00:00 PM 3.1 37.58 0.067 6.95 1.38 12.61
12/28/2021 10:15:00 PM 3.09 37.562 0.067 6.95 1.49 12.61
12/28/2021 10:30:00 PM 3.1 37.58 0.067 6.96 1.38 12.61
12/28/2021 10:45:00 PM 3.13 37.634 0.067 6.96 1.37 12.59
12/28/2021 11:00:00 PM 3.16 37.688 0.067 6.95 1.41 12.58
12/28/2021 11:15:00 PM 3.18 37.724 0.067 6.95 1.44 12.57
12/28/2021 11:30:00 PM 3.19 37.742 0.067 6.95 1.4 12.57
12/28/2021 11:45:00 PM 3.19 37.742 0.067 6.95 1.39 12.57
12/29/2021 12:00:00 AM 3.18 37.724 0.067 6.95 1.44 12.57
12/29/2021 12:15:00 AM 3.18 37.724 0.067 6.95 1.41 12.56
12/29/2021 12:30:00 AM 3.19 37.742 0.067 6.95 1.38 12.56
12/29/2021 12:45:00 AM 3.2 37.76 0.067 6.95 1.47 12.55
12/29/2021 1:00:00 AM 3.22 37.796 0.067 6.95 1.41 12.54
12/29/2021 1:15:00 AM 3.24 37.832 0.067 6.95 1.43 12.53
12/29/2021 1:30:00 AM 3.27 37.886 0.067 6.95 1.43 12.52
12/29/2021 1:45:00 AM 3.29 37.922 0.067 6.95 1.49 12.51
12/29/2021 2:00:00 AM 3.31 37.958 0.067 6.95 1.49 12.5
12/29/2021 2:15:00 AM 3.33 37.994 0.067 6.95 1.51 12.49
12/29/2021 2:30:00 AM 3.35 38.03 0.067 6.95 1.47 12.49
12/29/2021 2:45:00 AM 3.36 38.048 0.067 6.95 1.49 12.48
12/29/2021 3:00:00 AM 3.38 38.084 0.067 6.95 1.46 12.47
12/29/2021 3:15:00 AM 3.4 38.12 0.067 6.94 1.41 12.47
12/29/2021 3:30:00 AM 3.42 38.156 0.067 6.94 1.49 12.46
12/29/2021 3:45:00 AM 3.45 38.21 0.067 6.94 1.43 12.46
12/29/2021 4:00:00 AM 3.47 38.246 0.067 6.94 1.51 12.45
12/29/2021 4:15:00 AM 3.49 38.282 0.067 6.94 1.42 12.45
12/29/2021 4:30:00 AM 3.51 38.318 0.067 6.94 1.47 12.44
12/29/2021 4:45:00 AM 3.53 38.354 0.067 6.94 1.47 12.43
12/29/2021 5:00:00 AM 3.55 38.39 0.067 6.93 1.38 12.42
12/29/2021 5:15:00 AM 3.57 38.426 0.067 6.94 1.41 12.42
12/29/2021 5:30:00 AM 3.58 38.444 0.067 6.94 1.44 12.41
12/29/2021 5:45:00 AM 3.6 38.48 0.068 6.94 1.42 12.41
12/29/2021 6:00:00 AM 3.62 38.516 0.068 6.94 1.46 12.41
12/29/2021 6:15:00 AM 3.63 38.534 0.068 6.94 1.52 12.4
12/29/2021 6:30:00 AM 3.65 38.57 0.068 6.94 1.49 12.39
12/29/2021 6:45:00 AM 3.66 38.588 0.068 6.94 1.5 12.39
12/29/2021 7:00:00 AM 3.68 38.624 0.068 6.94 1.48 12.39
12/29/2021 7:15:00 AM 3.69 38.642 0.068 6.93 1.42 12.39
12/29/2021 7:30:00 AM 3.7 38.66 0.068 6.94 1.47 12.38
12/29/2021 7:45:00 AM 3.72 38.696 0.068 6.94 1.47 12.39
12/29/2021 8:00:00 AM 3.73 38.714 0.068 6.94 1.49 12.4
12/29/2021 8:15:00 AM 3.75 38.75 0.068 6.95 1.49 12.42
12/29/2021 8:30:00 AM 3.76 38.768 0.068 6.96 1.45 12.44
12/29/2021 8:45:00 AM 3.78 38.804 0.068 6.97 1.41 12.48
12/29/2021 9:00:00 AM 3.8 38.84 0.068 6.98 1.4 12.52
12/29/2021 9:15:00 AM 3.82 38.876 0.068 7 1.48 12.58
12/29/2021 9:30:00 AM 3.85 38.93 0.068 7.02 1.43 12.66
12/29/2021 9:45:00 AM 3.88 38.984 0.069 7.05 1.42 12.71
12/29/2021 10:00:00 AM 3.91 39.038 0.068 7.07 1.42 12.77
12/29/2021 10:15:00 AM 3.95 39.11 0.068 7.09 1.4 12.79
12/29/2021 10:30:00 AM 3.98 39.164 0.068 7.1 1.41 12.8
12/29/2021 10:45:00 AM 4.01 39.218 0.068 7.11 1.39 12.8
12/29/2021 11:00:00 AM 4.04 39.272 0.068 7.11 1.41 12.8
12/29/2021 11:15:00 AM 4.08 39.344 0.068 7.13 1.41 12.81
12/29/2021 11:30:00 AM 4.11 39.398 0.068 7.13 1.43 12.81
12/29/2021 11:45:00 AM 4.16 39.488 0.068 7.15 1.4 12.83
12/29/2021 12:00:00 PM 4.2 39.56 0.068 7.16 1.39 12.83
12/29/2021 12:15:00 PM 4.23 39.614 0.068 7.16 1.36 12.81
12/29/2021 12:30:00 PM 4.27 39.686 0.068 7.16 1.42 12.81
12/29/2021 12:45:00 PM 4.32 39.776 0.068 7.18 1.4 12.82
12/29/2021 1:00:00 PM 4.36 39.848 0.068 7.19 1.39 12.81
12/29/2021 1:15:00 PM 4.41 39.938 0.068 7.2 1.38 12.8
12/29/2021 1:30:00 PM 4.45 40.01 0.068 7.2 1.46 12.79
12/29/2021 1:45:00 PM 4.49 40.082 0.068 7.21 1.47 12.77
12/29/2021 2:00:00 PM 4.52 40.136 0.068 7.2 1.4 12.75
12/29/2021 2:15:00 PM 4.57 40.226 0.068 7.21 1.45 12.74
12/29/2021 2:30:00 PM 4.6 40.28 0.068 7.21 1.44 12.72
12/29/2021 2:45:00 PM 4.63 40.334 0.068 7.19 1.48 12.66
12/29/2021 3:00:00 PM 4.65 40.37 0.068 7.16 1.47 12.6
12/29/2021 3:15:00 PM 4.67 40.406 0.068 7.15 1.49 12.56
12/29/2021 3:30:00 PM 4.69 40.442 0.068 7.13 1.46 12.53
12/29/2021 3:45:00 PM 4.7 40.46 0.069 7.12 1.58 12.48
12/29/2021 4:00:00 PM 4.71 40.478 0.069 7.09 1.53 12.41
12/29/2021 4:15:00 PM 4.72 40.496 0.069 7.05 1.5 12.34
12/29/2021 4:30:00 PM 4.72 40.496 0.069 7.04 1.6 12.28
12/29/2021 4:45:00 PM 4.71 40.478 0.069 7.02 1.57 12.23
12/29/2021 5:00:00 PM 4.71 40.478 0.069 7 1.52 12.19
12/29/2021 5:15:00 PM 4.7 40.46 0.07 6.99 1.57 12.16
12/29/2021 5:30:00 PM 4.7 40.46 0.07 6.97 1.61 12.14
12/29/2021 5:45:00 PM 4.69 40.442 0.07 6.96 1.56 12.13
12/29/2021 6:00:00 PM 4.68 40.424 0.07 6.96 1.6 12.12
12/29/2021 6:15:00 PM 4.67 40.406 0.07 6.95 1.65 12.12
12/29/2021 6:30:00 PM 4.67 40.406 0.07 6.95 1.68 12.12
12/29/2021 6:45:00 PM 4.66 40.388 0.071 6.94 1.71 12.12
12/29/2021 7:00:00 PM 4.65 40.37 0.071 6.94 1.69 12.12
12/29/2021 7:15:00 PM 4.64 40.352 0.071 6.94 1.74 12.13
12/29/2021 7:30:00 PM 4.63 40.334 0.071 6.94 1.75 12.13
12/29/2021 7:45:00 PM 4.62 40.316 0.071 6.93 1.73 12.13
12/29/2021 8:00:00 PM 4.62 40.316 0.071 6.93 1.76 12.14
12/29/2021 8:15:00 PM 4.61 40.298 0.072 6.92 1.68 12.14
12/29/2021 8:30:00 PM 4.6 40.28 0.072 6.94 1.7 12.14
12/29/2021 8:45:00 PM 4.59 40.262 0.072 6.93 1.64 12.14
12/29/2021 9:00:00 PM 4.58 40.244 0.072 6.93 1.61 12.15
12/29/2021 9:15:00 PM 4.58 40.244 0.072 6.93 1.7 12.15
12/29/2021 9:30:00 PM 4.57 40.226 0.072 6.93 1.69 12.15
12/29/2021 9:45:00 PM 4.57 40.226 0.072 6.93 1.64 12.15
12/29/2021 10:00:00 PM 4.56 40.208 0.072 6.93 1.62 12.15
12/29/2021 10:15:00 PM 4.56 40.208 0.073 6.92 1.69 12.16
12/29/2021 10:30:00 PM 4.55 40.19 0.073 6.92 1.66 12.16
12/29/2021 10:45:00 PM 4.55 40.19 0.073 6.92 1.67 12.16
12/29/2021 11:00:00 PM 4.54 40.172 0.073 6.92 1.68 12.16
12/29/2021 11:15:00 PM 4.54 40.172 0.073 6.92 1.68 12.16
12/29/2021 11:30:00 PM 4.54 40.172 0.073 6.92 1.77 12.16
12/29/2021 11:45:00 PM 4.54 40.172 0.073 6.92 1.68 12.16
12/30/2021 12:00:00 AM 4.53 40.154 0.073 6.92 1.67 12.16
12/30/2021 12:15:00 AM 4.53 40.154 0.073 6.92 1.66 12.16
12/30/2021 12:30:00 AM 4.53 40.154 0.073 6.92 1.73 12.16
12/30/2021 12:45:00 AM 4.52 40.136 0.073 6.92 1.69 12.16
12/30/2021 1:00:00 AM 4.52 40.136 0.073 6.93 1.71 12.16
12/30/2021 1:15:00 AM 4.52 40.136 0.073 6.92 1.67 12.16
12/30/2021 1:30:00 AM 4.52 40.136 0.073 6.92 1.62 12.16
12/30/2021 1:45:00 AM 4.52 40.136 0.073 6.92 1.67 12.16
12/30/2021 2:00:00 AM 4.52 40.136 0.073 6.92 1.74 12.16
12/30/2021 2:15:00 AM 4.52 40.136 0.073 6.91 1.62 12.15
12/30/2021 2:30:00 AM 4.52 40.136 0.073 6.91 1.63 12.16
12/30/2021 2:45:00 AM 4.52 40.136 0.073 6.91 1.65 12.16
12/30/2021 3:00:00 AM 4.52 40.136 0.073 6.91 1.61 12.15
12/30/2021 3:15:00 AM 4.52 40.136 0.073 6.91 1.62 12.15
12/30/2021 3:30:00 AM 4.52 40.136 0.073 6.9 1.63 12.15
12/30/2021 3:45:00 AM 4.52 40.136 0.073 6.91 1.59 12.15
12/30/2021 4:00:00 AM 4.52 40.136 0.073 6.91 1.68 12.15
12/30/2021 4:15:00 AM 4.52 40.136 0.073 6.9 1.61 12.15
12/30/2021 4:30:00 AM 4.53 40.154 0.073 6.92 1.64 12.15
12/30/2021 4:45:00 AM 4.53 40.154 0.072 6.91 1.66 12.15
12/30/2021 5:00:00 AM 4.53 40.154 0.072 6.91 1.63 12.15
12/30/2021 5:15:00 AM 4.53 40.154 0.072 6.91 1.58 12.15
12/30/2021 5:30:00 AM 4.54 40.172 0.072 6.92 1.75 12.14
12/30/2021 5:45:00 AM 4.54 40.172 0.072 6.91 1.63 12.14
12/30/2021 6:00:00 AM 4.54 40.172 0.072 6.91 1.6 12.14
12/30/2021 6:15:00 AM 4.55 40.19 0.072 6.91 1.62 12.14
12/30/2021 6:30:00 AM 4.55 40.19 0.072 6.91 1.61 12.15
12/30/2021 6:45:00 AM 4.56 40.208 0.072 6.92 1.64 12.14
12/30/2021 7:00:00 AM 4.56 40.208 0.072 6.91 1.61 12.14
12/30/2021 7:15:00 AM 4.56 40.208 0.072 6.91 1.6 12.14
12/30/2021 7:30:00 AM 4.56 40.208 0.072 6.91 1.57 12.14
12/30/2021 7:45:00 AM 4.56 40.208 0.072 6.91 1.57 12.15
12/30/2021 8:00:00 AM 4.56 40.208 0.072 6.91 1.52 12.15
12/30/2021 8:15:00 AM 4.57 40.226 0.072 6.91 1.52 12.18
12/30/2021 8:30:00 AM 4.58 40.244 0.072 6.93 1.54 12.21
12/30/2021 8:45:00 AM 4.59 40.262 0.072 6.94 1.58 12.24
12/30/2021 9:00:00 AM 4.6 40.28 0.072 6.95 1.58 12.28
12/30/2021 9:15:00 AM 4.61 40.298 0.072 6.97 1.58 12.32
12/30/2021 9:30:00 AM 4.63 40.334 0.072 6.98 1.52 12.36
12/30/2021 9:45:00 AM 4.65 40.37 0.071 7 1.48 12.41
12/30/2021 10:00:00 AM 4.68 40.424 0.071 7.03 1.52 12.49
12/30/2021 10:15:00 AM 4.72 40.496 0.071 7.06 1.51 12.57
12/30/2021 10:30:00 AM 4.75 40.55 0.071 7.07 1.43 12.58
12/30/2021 10:45:00 AM 4.79 40.622 0.071 7.1 1.54 12.62
12/30/2021 11:00:00 AM 4.83 40.694 0.071 7.12 1.52 12.64
12/30/2021 11:15:00 AM 4.86 40.748 0.071 7.13 1.48 12.63
12/30/2021 11:30:00 AM 4.9 40.82 0.071 7.14 1.45 12.64
12/30/2021 11:45:00 AM 4.95 40.91 0.07 7.16 1.49 12.65
12/30/2021 12:00:00 PM 4.98 40.964 0.07 7.13 1.46 12.58
12/30/2021 12:15:00 PM 5.02 41.036 0.07 7.14 1.44 12.57
12/30/2021 12:30:00 PM 5.07 41.126 0.07 7.15 1.42 12.59
12/30/2021 12:45:00 PM 5.11 41.198 0.07 7.15 1.46 12.55
12/30/2021 1:00:00 PM 5.15 41.27 0.07 7.16 1.46 12.54
12/30/2021 1:15:00 PM 5.19 41.342 0.07 7.17 1.45 12.52
12/30/2021 1:30:00 PM 5.23 41.414 0.07 7.18 1.46 12.51
12/30/2021 1:45:00 PM 5.28 41.504 0.07 7.19 1.43 12.5
12/30/2021 2:00:00 PM 5.32 41.576 0.07 7.17 1.5 12.46
12/30/2021 2:15:00 PM 5.35 41.63 0.07 7.16 1.46 12.42
12/30/2021 2:30:00 PM 5.38 41.684 0.07 7.15 1.51 12.39
12/30/2021 2:45:00 PM 5.41 41.738 0.07 7.15 1.46 12.35
12/30/2021 3:00:00 PM 5.43 41.774 0.07 7.12 1.51 12.3
12/30/2021 3:15:00 PM 5.46 41.828 0.07 7.11 1.47 12.25
12/30/2021 3:30:00 PM 5.48 41.864 0.07 7.09 1.53 12.21
12/30/2021 3:45:00 PM 5.49 41.882 0.07 7.06 1.52 12.13
12/30/2021 4:00:00 PM 5.51 41.918 0.07 7.03 1.57 12.08
12/30/2021 4:15:00 PM 5.52 41.936 0.07 7.02 1.53 12.05
12/30/2021 4:30:00 PM 5.53 41.954 0.07 7 1.53 12.01
12/30/2021 4:45:00 PM 5.54 41.972 0.071 6.98 1.55 11.97
12/30/2021 5:00:00 PM 5.53 41.954 0.071 6.97 1.56 11.93
12/30/2021 5:15:00 PM 5.53 41.954 0.071 6.96 1.59 11.89
12/30/2021 5:30:00 PM 5.53 41.954 0.071 6.94 1.59 11.87
12/30/2021 5:45:00 PM 5.53 41.954 0.071 6.93 1.61 11.86
12/30/2021 6:00:00 PM 5.53 41.954 0.071 6.93 1.6 11.85
12/30/2021 6:15:00 PM 5.53 41.954 0.071 6.92 1.68 11.84
12/30/2021 6:30:00 PM 5.52 41.936 0.071 6.92 1.69 11.84
12/30/2021 6:45:00 PM 5.51 41.918 0.071 6.92 1.68 11.84
12/30/2021 7:00:00 PM 5.51 41.918 0.071 6.91 1.71 11.84
12/30/2021 7:15:00 PM 5.5 41.9 0.071 6.91 1.76 11.85
12/30/2021 7:30:00 PM 5.49 41.882 0.072 6.9 1.74 11.85
12/30/2021 7:45:00 PM 5.47 41.846 0.072 6.9 1.69 11.85
12/30/2021 8:00:00 PM 5.46 41.828 0.072 6.9 1.75 11.85
12/30/2021 8:15:00 PM 5.44 41.792 0.072 6.9 1.69 11.86
12/30/2021 8:30:00 PM 5.43 41.774 0.072 6.9 1.68 11.86
12/30/2021 8:45:00 PM 5.42 41.756 0.072 6.89 1.68 11.87
12/30/2021 9:00:00 PM 5.41 41.738 0.072 6.91 1.76 11.87
12/30/2021 9:15:00 PM 5.4 41.72 0.072 6.9 1.81 11.87
12/30/2021 9:30:00 PM 5.39 41.702 0.072 6.91 1.72 11.88
12/30/2021 9:45:00 PM 5.38 41.684 0.072 6.91 1.73 11.88
12/30/2021 10:00:00 PM 5.37 41.666 0.072 6.9 1.73 11.88
12/30/2021 10:15:00 PM 5.35 41.63 0.072 6.9 1.71 11.89
12/30/2021 10:30:00 PM 5.33 41.594 0.072 6.9 1.73 11.89
12/30/2021 10:45:00 PM 5.32 41.576 0.072 6.9 1.71 11.89
12/30/2021 11:00:00 PM 5.31 41.558 0.072 6.9 1.78 11.9
12/30/2021 11:15:00 PM 5.31 41.558 0.072 6.9 1.82 11.89
12/30/2021 11:30:00 PM 5.31 41.558 0.072 6.89 1.72 11.9
12/30/2021 11:45:00 PM 5.3 41.54 0.072 6.89 1.73 11.9
12/31/2021 12:00:00 AM 5.3 41.54 0.072 6.89 1.78 11.9
12/31/2021 12:15:00 AM 5.3 41.54 0.072 6.89 1.72 11.9
12/31/2021 12:30:00 AM 5.3 41.54 0.072 6.89 1.73 11.9
12/31/2021 12:45:00 AM 5.3 41.54 0.072 6.89 1.67 11.9
12/31/2021 1:00:00 AM 5.3 41.54 0.072 6.89 1.74 11.9
12/31/2021 1:15:00 AM 5.3 41.54 0.072 6.88 1.79 11.9
12/31/2021 1:30:00 AM 5.3 41.54 0.072 6.89 1.76 11.9
12/31/2021 1:45:00 AM 5.3 41.54 0.072 6.89 1.72 11.9
12/31/2021 2:00:00 AM 5.3 41.54 0.072 6.89 1.73 11.89
12/31/2021 2:15:00 AM 5.3 41.54 0.072 6.89 1.7 11.9
12/31/2021 2:30:00 AM 5.3 41.54 0.072 6.89 1.67 11.9
12/31/2021 2:45:00 AM 5.3 41.54 0.072 6.89 1.71 11.89
12/31/2021 3:00:00 AM 5.31 41.558 0.072 6.89 1.71 11.89
12/31/2021 3:15:00 AM 5.31 41.558 0.072 6.89 1.69 11.89
12/31/2021 3:30:00 AM 5.31 41.558 0.072 6.88 1.73 11.89
12/31/2021 3:45:00 AM 5.32 41.576 0.072 6.87 1.79 11.89
12/31/2021 4:00:00 AM 5.32 41.576 0.072 6.88 1.82 11.88
12/31/2021 4:15:00 AM 5.33 41.594 0.072 6.87 1.78 11.88
12/31/2021 4:30:00 AM 5.33 41.594 0.071 6.88 1.68 11.88
12/31/2021 4:45:00 AM 5.33 41.594 0.071 6.88 1.72 11.88
12/31/2021 5:00:00 AM 5.33 41.594 0.071 6.87 1.71 11.88
12/31/2021 5:15:00 AM 5.33 41.594 0.071 6.87 1.75 11.87
12/31/2021 5:30:00 AM 5.33 41.594 0.071 6.87 1.7 11.87
12/31/2021 5:45:00 AM 5.33 41.594 0.071 6.87 1.72 11.87
12/31/2021 6:00:00 AM 5.34 41.612 0.071 6.87 1.66 11.87
12/31/2021 6:15:00 AM 5.33 41.594 0.071 6.87 1.8 11.87
12/31/2021 6:30:00 AM 5.34 41.612 0.071 6.87 1.74 11.87
12/31/2021 6:45:00 AM 5.34 41.612 0.071 6.87 1.76 11.87
12/31/2021 7:00:00 AM 5.34 41.612 0.071 6.87 1.83 11.87
12/31/2021 7:15:00 AM 5.34 41.612 0.071 6.87 1.68 11.88
12/31/2021 7:30:00 AM 5.34 41.612 0.071 6.87 1.72 11.88
12/31/2021 7:45:00 AM 5.34 41.612 0.071 6.88 1.74 11.89
12/31/2021 8:00:00 AM 5.34 41.612 0.071 6.88 1.75 11.91
12/31/2021 8:15:00 AM 5.34 41.612 0.071 6.89 1.65 11.94
12/31/2021 8:30:00 AM 5.34 41.612 0.071 6.9 1.65 11.99
12/31/2021 8:45:00 AM 5.35 41.63 0.071 6.91 1.65 12.03
12/31/2021 9:00:00 AM 5.35 41.63 0.071 6.94 1.67 12.12
12/31/2021 9:15:00 AM 5.36 41.648 0.07 6.96 1.63 12.19
12/31/2021 9:30:00 AM 5.39 41.702 0.07 6.99 1.61 12.27
12/31/2021 9:45:00 AM 5.41 41.738 0.07 7 1.59 12.26
12/31/2021 10:00:00 AM 5.43 41.774 0.07 7.01 1.62 12.26
12/31/2021 10:15:00 AM 5.46 41.828 0.07 7.03 1.65 12.32
12/31/2021 10:30:00 AM 5.56 42.008 0.07 7.07 1.54 12.4
12/31/2021 10:45:00 AM 5.58 42.044 0.07 7.09 1.56 12.39
12/31/2021 11:00:00 AM 5.61 42.098 0.07 7.09 1.5 12.35
12/31/2021 11:15:00 AM 5.63 42.134 0.07 7.1 1.54 12.37
12/31/2021 11:30:00 AM 5.65 42.17 0.069 7.11 1.53 12.38
12/31/2021 11:45:00 AM 5.67 42.206 0.069 7.13 1.53 12.39
12/31/2021 12:00:00 PM 5.71 42.278 0.069 7.16 1.54 12.4
12/31/2021 12:15:00 PM 5.79 42.422 0.069 7.17 1.51 12.4
12/31/2021 12:30:00 PM 5.89 42.602 0.069 7.18 1.62 12.38
12/31/2021 12:45:00 PM 5.97 42.746 0.069 7.2 1.59 12.38
12/31/2021 1:00:00 PM 6 42.8 0.069 7.2 1.56 12.36
12/31/2021 1:15:00 PM 6.06 42.908 0.069 7.21 1.58 12.35
12/31/2021 1:30:00 PM 6.1 42.98 0.069 7.22 1.57 12.33
12/31/2021 1:45:00 PM 6.17 43.106 0.068 7.22 1.51 12.33
12/31/2021 2:00:00 PM 6.22 43.196 0.068 7.24 1.53 12.33
12/31/2021 2:15:00 PM 6.28 43.304 0.068 7.24 1.53 12.3
12/31/2021 2:30:00 PM 6.32 43.376 0.068 7.23 1.55 12.25
12/31/2021 2:45:00 PM 6.33 43.394 0.068 7.2 1.52 12.18
12/31/2021 3:00:00 PM 6.35 43.43 0.068 7.18 1.56 12.13
12/31/2021 3:15:00 PM 6.38 43.484 0.068 7.16 1.62 12.07
12/31/2021 3:30:00 PM 6.4 43.52 0.068 7.12 1.52 12
12/31/2021 3:45:00 PM 6.42 43.556 0.068 7.1 1.6 11.95
12/31/2021 4:00:00 PM 6.43 43.574 0.069 7.08 1.57 11.89
12/31/2021 4:15:00 PM 6.43 43.574 0.069 7.05 1.62 11.82
12/31/2021 4:30:00 PM 6.42 43.556 0.069 7.02 1.59 11.75
12/31/2021 4:45:00 PM 6.4 43.52 0.069 6.99 1.61 11.69
12/31/2021 5:00:00 PM 6.38 43.484 0.069 6.96 1.63 11.64
12/31/2021 5:15:00 PM 6.36 43.448 0.069 6.95 1.61 11.62
12/31/2021 5:30:00 PM 6.33 43.394 0.069 6.94 1.81 11.6
12/31/2021 5:45:00 PM 6.3 43.34 0.069 6.93 1.74 11.6
12/31/2021 6:00:00 PM 6.28 43.304 0.069 6.91 1.68 11.6
12/31/2021 6:15:00 PM 6.24 43.232 0.069 6.91 1.66 11.6
12/31/2021 6:30:00 PM 6.21 43.178 0.069 6.9 1.67 11.61
12/31/2021 6:45:00 PM 6.18 43.124 0.069 6.9 1.75 11.62
12/31/2021 7:00:00 PM 6.15 43.07 0.069 6.9 1.73 11.63
12/31/2021 7:15:00 PM 6.11 42.998 0.069 6.9 1.75 11.63
12/31/2021 7:30:00 PM 6.08 42.944 0.07 6.89 1.7 11.64
12/31/2021 7:45:00 PM 6.04 42.872 0.07 6.89 1.72 11.65
12/31/2021 8:00:00 PM 6 42.8 0.07 6.88 1.7 11.65
12/31/2021 8:15:00 PM 5.95 42.71 0.07 6.89 1.72 11.66
12/31/2021 8:30:00 PM 5.91 42.638 0.07 6.88 1.7 11.67
12/31/2021 8:45:00 PM 5.88 42.584 0.07 6.88 1.76 11.68
12/31/2021 9:00:00 PM 5.84 42.512 0.07 6.88 1.67 11.69
12/31/2021 9:15:00 PM 5.81 42.458 0.07 6.88 1.68 11.71
12/31/2021 9:30:00 PM 5.78 42.404 0.07 6.88 1.76 11.72
12/31/2021 9:45:00 PM 5.75 42.35 0.07 6.87 1.78 11.73
12/31/2021 10:00:00 PM 5.73 42.314 0.07 6.88 1.73 11.74
12/31/2021 10:15:00 PM 5.71 42.278 0.07 6.88 1.66 11.74
12/31/2021 10:30:00 PM 5.69 42.242 0.07 6.88 1.73 11.75
12/31/2021 10:45:00 PM 5.68 42.224 0.07 6.88 1.76 11.76
12/31/2021 11:00:00 PM 5.67 42.206 0.07 6.88 1.68 11.76
12/31/2021 11:15:00 PM 5.66 42.188 0.07 6.88 1.81 11.77
12/31/2021 11:30:00 PM 5.65 42.17 0.07 6.89 1.83 11.77
12/31/2021 11:45:00 PM 5.64 42.152 0.07 6.89 1.79 11.77
1/1/2022 12:00:00 AM 5.63 42.134 0.07 6.9 1.77 11.77
1/1/2022 12:15:00 AM 5.63 42.134 0.07 6.89 1.8 11.77
1/1/2022 12:30:00 AM 5.63 42.134 0.07 6.87 1.76 11.77
1/1/2022 12:45:00 AM 5.63 42.134 0.07 6.88 1.81 11.77
1/1/2022 1:00:00 AM 5.64 42.152 0.069 6.88 1.84 11.76
1/1/2022 1:15:00 AM 5.64 42.152 0.069 6.88 1.91 11.76
1/1/2022 1:30:00 AM 5.65 42.17 0.069 6.88 1.81 11.76
1/1/2022 1:45:00 AM 5.66 42.188 0.069 6.88 1.78 11.75
1/1/2022 2:00:00 AM 5.67 42.206 0.069 6.87 1.78 11.75
1/1/2022 2:15:00 AM 5.68 42.224 0.069 6.87 1.72 11.74
1/1/2022 2:30:00 AM 5.7 42.26 0.069 6.86 1.83 11.73
1/1/2022 2:45:00 AM 5.71 42.278 0.069 6.87 1.84 11.73
1/1/2022 3:00:00 AM 5.73 42.314 0.069 6.87 1.78 11.72
1/1/2022 3:15:00 AM 5.75 42.35 0.069 6.87 1.82 11.72
1/1/2022 3:30:00 AM 5.77 42.386 0.069 6.87 1.77 11.71
1/1/2022 3:45:00 AM 5.8 42.44 0.069 6.87 1.77 11.7
1/1/2022 4:00:00 AM 5.83 42.494 0.069 6.87 1.82 11.68
1/1/2022 4:15:00 AM 5.86 42.548 0.069 6.88 1.85 11.67
1/1/2022 4:30:00 AM 5.9 42.62 0.069 6.88 1.8 11.66
1/1/2022 4:45:00 AM 5.93 42.674 0.069 6.88 1.91 11.65
1/1/2022 5:00:00 AM 5.95 42.71 0.069 6.88 1.82 11.64
1/1/2022 5:15:00 AM 5.98 42.764 0.069 6.87 1.85 11.64
1/1/2022 5:30:00 AM 5.99 42.782 0.069 6.87 1.89 11.63
1/1/2022 5:45:00 AM 6 42.8 0.069 6.86 1.91 11.63
1/1/2022 6:00:00 AM 6.01 42.818 0.069 6.86 1.9 11.62
1/1/2022 6:15:00 AM 6.02 42.836 0.069 6.86 1.95 11.62
1/1/2022 6:30:00 AM 6.02 42.836 0.069 6.86 1.85 11.62
1/1/2022 6:45:00 AM 6.03 42.854 0.069 6.86 1.86 11.61
1/1/2022 7:00:00 AM 6.04 42.872 0.069 6.86 1.85 11.61
1/1/2022 7:15:00 AM 6.05 42.89 0.069 6.86 1.9 11.61
1/1/2022 7:30:00 AM 6.06 42.908 0.069 6.86 1.84 11.61
1/1/2022 7:45:00 AM 6.08 42.944 0.069 6.86 1.78 11.61
1/1/2022 8:00:00 AM 6.08 42.944 0.068 6.86 1.77 11.63
1/1/2022 8:15:00 AM 6.09 42.962 0.068 6.87 1.8 11.64
1/1/2022 8:30:00 AM 6.1 42.98 0.068 6.88 1.78 11.66
1/1/2022 8:45:00 AM 6.11 42.998 0.068 6.88 1.81 11.68
1/1/2022 9:00:00 AM 6.13 43.034 0.068 6.89 1.75 11.71
1/1/2022 9:15:00 AM 6.15 43.07 0.068 6.89 1.84 11.73
1/1/2022 9:30:00 AM 6.17 43.106 0.068 6.92 1.83 11.8
1/1/2022 9:45:00 AM 6.19 43.142 0.068 6.93 1.72 11.84
1/1/2022 10:00:00 AM 6.21 43.178 0.068 6.95 1.82 11.87
1/1/2022 10:15:00 AM 6.24 43.232 0.068 6.97 1.79 11.91
1/1/2022 10:30:00 AM 6.28 43.304 0.068 6.98 1.74 11.92
1/1/2022 10:45:00 AM 6.31 43.358 0.068 6.97 1.73 11.92
1/1/2022 11:00:00 AM 6.35 43.43 0.068 7.01 1.75 11.95
1/1/2022 11:15:00 AM 6.39 43.502 0.067 7.03 1.71 11.99
1/1/2022 11:30:00 AM 6.43 43.574 0.067 7.03 1.71 11.93
1/1/2022 11:45:00 AM 6.47 43.646 0.067 7.02 1.71 11.91
1/1/2022 12:00:00 PM 6.52 43.736 0.067 7.03 1.72 11.91
1/1/2022 12:15:00 PM 6.56 43.808 0.067 7.05 1.77 11.92
1/1/2022 12:30:00 PM 6.63 43.934 0.067 7.07 1.72 11.96
1/1/2022 12:45:00 PM 6.7 44.06 0.067 7.1 1.74 12
1/1/2022 1:00:00 PM 6.77 44.186 0.067 7.13 1.82 12.02
1/1/2022 1:15:00 PM 6.82 44.276 0.067 7.13 1.75 11.96
1/1/2022 1:30:00 PM 6.87 44.366 0.067 7.12 1.77 11.93
1/1/2022 1:45:00 PM 6.91 44.438 0.067 7.12 1.69 11.89
1/1/2022 2:00:00 PM 6.95 44.51 0.067 7.11 1.76 11.83
1/1/2022 2:15:00 PM 7 44.6 0.067 7.11 1.73 11.81
1/1/2022 2:30:00 PM 7.04 44.672 0.067 7.11 1.77 11.78
1/1/2022 2:45:00 PM 7.08 44.744 0.067 7.07 1.71 11.68
1/1/2022 3:00:00 PM 7.1 44.78 0.067 7.06 1.81 11.65
1/1/2022 3:15:00 PM 7.12 44.816 0.067 7.04 1.86 11.6
1/1/2022 3:30:00 PM 7.13 44.834 0.067 7.02 1.73 11.55
1/1/2022 3:45:00 PM 7.14 44.852 0.067 7 1.84 11.51
1/1/2022 4:00:00 PM 7.14 44.852 0.067 6.98 1.77 11.47
1/1/2022 4:15:00 PM 7.15 44.87 0.067 6.96 1.79 11.42
1/1/2022 4:30:00 PM 7.15 44.87 0.067 6.94 1.87 11.38
1/1/2022 4:45:00 PM 7.15 44.87 0.067 6.93 1.92 11.34
1/1/2022 5:00:00 PM 7.15 44.87 0.067 6.9 1.87 11.31
1/1/2022 5:15:00 PM 7.14 44.852 0.067 6.88 1.9 11.3
1/1/2022 5:30:00 PM 7.13 44.834 0.067 6.88 1.9 11.29
1/1/2022 5:45:00 PM 7.13 44.834 0.067 6.87 1.94 11.28
1/1/2022 6:00:00 PM 7.12 44.816 0.067 6.86 1.96 11.27
1/1/2022 6:15:00 PM 7.11 44.798 0.067 6.86 1.97 11.28
1/1/2022 6:30:00 PM 7.1 44.78 0.067 6.85 2 11.27
1/1/2022 6:45:00 PM 7.09 44.762 0.067 6.84 2.02 11.27
1/1/2022 7:00:00 PM 7.08 44.744 0.067 6.84 2.02 11.28
1/1/2022 7:15:00 PM 7.08 44.744 0.067 6.84 1.98 11.28
1/1/2022 7:30:00 PM 7.07 44.726 0.067 6.84 2.08 11.27
1/1/2022 7:45:00 PM 7.07 44.726 0.067 6.84 2.14 11.27
1/1/2022 8:00:00 PM 7.06 44.708 0.067 6.85 2 11.28
1/1/2022 8:15:00 PM 7.05 44.69 0.067 6.85 2.08 11.28
1/1/2022 8:30:00 PM 7.05 44.69 0.067 6.96 2.08 11.28
1/1/2022 8:45:00 PM 7.04 44.672 0.067 6.95 2.17 11.28
1/1/2022 9:00:00 PM 7.04 44.672 0.067 6.94 2.16 11.28
1/1/2022 9:15:00 PM 7.03 44.654 0.067 6.94 2.22 11.28
1/1/2022 9:30:00 PM 7.03 44.654 0.067 6.95 2.21 11.28
1/1/2022 9:45:00 PM 7.02 44.636 0.067 6.94 2.13 11.27
1/1/2022 10:00:00 PM 7.02 44.636 0.067 6.95 2.12 11.28
1/1/2022 10:15:00 PM 7.02 44.636 0.067 6.96 2.13 11.28
1/1/2022 10:30:00 PM 7 44.6 0.067 6.97 2.21 11.28
1/1/2022 10:45:00 PM 6.98 44.564 0.067 6.98 2.2 11.29
1/1/2022 11:00:00 PM 6.95 44.51 0.067 6.98 2.32 11.3
1/1/2022 11:15:00 PM 6.91 44.438 0.067 6.98 2.23 11.31
1/1/2022 11:30:00 PM 6.87 44.366 0.067 6.86 2.29 11.33
1/1/2022 11:45:00 PM 6.84 44.312 0.067 6.83 2.33 11.34
1/2/2022 12:00:00 AM 6.8 44.24 0.067 6.84 2.31 11.36
1/2/2022 12:15:00 AM 6.77 44.186 0.067 6.85 2.38 11.37
1/2/2022 12:30:00 AM 6.73 44.114 0.067 6.85 2.45 11.38
1/2/2022 12:45:00 AM 6.7 44.06 0.067 6.85 2.77 11.39
1/2/2022 1:00:00 AM 6.66 43.988 0.067 6.85 2.84 11.39
1/2/2022 1:15:00 AM 6.62 43.916 0.068 6.84 3.04 11.4
1/2/2022 1:30:00 AM 6.59 43.862 0.068 6.86 2.92 11.41
1/2/2022 1:45:00 AM 6.56 43.808 0.067 6.85 2.77 11.42
1/2/2022 2:00:00 AM 6.53 43.754 0.067 6.85 2.51 11.43
1/2/2022 2:15:00 AM 6.49 43.682 0.067 6.86 2.58 11.44
1/2/2022 2:30:00 AM 6.46 43.628 0.067 6.86 2.55 11.45
1/2/2022 2:45:00 AM 6.43 43.574 0.067 6.86 2.49 11.47
1/2/2022 3:00:00 AM 6.4 43.52 0.068 6.85 2.62 11.48
1/2/2022 3:15:00 AM 6.37 43.466 0.068 6.86 2.68 11.49
1/2/2022 3:30:00 AM 6.35 43.43 0.068 6.86 2.63 11.49
1/2/2022 3:45:00 AM 6.32 43.376 0.068 6.87 2.6 11.51
1/2/2022 4:00:00 AM 6.29 43.322 0.068 6.86 2.59 11.52
1/2/2022 4:15:00 AM 6.26 43.268 0.068 6.87 2.61 11.52
1/2/2022 4:30:00 AM 6.23 43.214 0.068 6.87 2.54 11.53
1/2/2022 4:45:00 AM 6.2 43.16 0.068 6.87 2.74 11.55
1/2/2022 5:00:00 AM 6.17 43.106 0.068 6.79 2.61 11.55
1/2/2022 5:15:00 AM 6.15 43.07 0.068 6.81 2.95 11.55
1/2/2022 5:30:00 AM 6.12 43.016 0.068 6.82 2.79 11.56
1/2/2022 5:45:00 AM 6.09 42.962 0.069 6.83 2.8 11.57
1/2/2022 6:00:00 AM 6.06 42.908 0.069 6.83 2.83 11.57
1/2/2022 6:15:00 AM 6.03 42.854 0.069 6.84 2.65 11.58
1/2/2022 6:30:00 AM 6 42.8 0.069 6.83 2.56 11.59
1/2/2022 6:45:00 AM 5.97 42.746 0.069 6.84 2.71 11.6
1/2/2022 7:00:00 AM 5.95 42.71 0.069 6.83 2.55 11.61
1/2/2022 7:15:00 AM 5.92 42.656 0.069 6.83 2.46 11.62
1/2/2022 7:30:00 AM 5.9 42.62 0.069 6.82 2.53 11.63
1/2/2022 7:45:00 AM 5.88 42.584 0.069 6.84 2.3 11.64
1/2/2022 8:00:00 AM 5.86 42.548 0.069 6.82 2.57 11.66
1/2/2022 8:15:00 AM 5.84 42.512 0.069 6.82 2.36 11.69
1/2/2022 8:30:00 AM 5.82 42.476 0.069 6.83 2.46 11.72
1/2/2022 8:45:00 AM 5.79 42.422 0.069 6.83 2.21 11.74
1/2/2022 9:00:00 AM 5.77 42.386 0.069 6.86 2.17 11.79
1/2/2022 9:15:00 AM 5.74 42.332 0.069 6.87 2.36 11.84
1/2/2022 9:30:00 AM 5.72 42.296 0.069 6.91 2.12 11.89
1/2/2022 9:45:00 AM 5.7 42.26 0.069 6.9 2.12 11.95
1/2/2022 10:00:00 AM 5.68 42.224 0.069 6.92 2 12.01
1/2/2022 10:15:00 AM 5.65 42.17 0.069 6.92 2.01 12.03
1/2/2022 10:30:00 AM 5.63 42.134 0.069 6.95 1.9 12.09
1/2/2022 10:45:00 AM 5.61 42.098 0.069 6.96 1.89 12.1
1/2/2022 11:00:00 AM 5.58 42.044 0.069 6.96 1.88 12.12
1/2/2022 11:15:00 AM 5.56 42.008 0.069 6.97 1.8 12.16
1/2/2022 11:30:00 AM 5.55 41.99 0.069 7.01 1.8 12.22
1/2/2022 11:45:00 AM 5.53 41.954 0.069 6.99 2.42 12.24
1/2/2022 12:00:00 PM 5.53 41.954 0.068 7.03 1.87 12.28
1/2/2022 12:15:00 PM 5.53 41.954 0.068 7.05 1.78 12.31
1/2/2022 12:30:00 PM 5.52 41.936 0.068 7.06 1.79 12.33
1/2/2022 12:45:00 PM 5.51 41.918 0.068 7.06 1.79 12.31
1/2/2022 1:00:00 PM 5.49 41.882 0.068 7.04 1.84 12.28
1/2/2022 1:15:00 PM 5.47 41.846 0.068 7.03 1.77 12.26
1/2/2022 1:30:00 PM 5.45 41.81 0.068 7.03 1.82 12.26
1/2/2022 1:45:00 PM 5.43 41.774 0.068 7.03 1.71 12.25
1/2/2022 2:00:00 PM 5.41 41.738 0.068 7.03 1.76 12.29
1/2/2022 2:15:00 PM 5.39 41.702 0.068 7.04 1.72 12.3
1/2/2022 2:30:00 PM 5.37 41.666 0.068 7.04 1.77 12.3
1/2/2022 2:45:00 PM 5.34 41.612 0.068 7.03 1.74 12.28
1/2/2022 3:00:00 PM 5.31 41.558 0.068 7.02 1.69 12.26
1/2/2022 3:15:00 PM 5.27 41.486 0.068 7 1.69 12.24
1/2/2022 3:30:00 PM 5.23 41.414 0.068 6.99 1.73 12.21
1/2/2022 3:45:00 PM 5.18 41.324 0.068 6.96 1.77 12.17
1/2/2022 4:00:00 PM 5.14 41.252 0.068 6.94 1.74 12.15
1/2/2022 4:15:00 PM 5.09 41.162 0.068 6.91 1.8 12.12
1/2/2022 4:30:00 PM 5.04 41.072 0.068 6.9 1.72 12.1
1/2/2022 4:45:00 PM 5 41 0.068 6.89 1.67 12.1
1/2/2022 5:00:00 PM 4.96 40.928 0.068 6.88 1.72 12.09
1/2/2022 5:15:00 PM 4.92 40.856 0.068 6.87 1.73 12.09
1/2/2022 5:30:00 PM 4.87 40.766 0.068 6.86 1.75 12.11
1/2/2022 5:45:00 PM 4.83 40.694 0.068 6.86 1.76 12.11
1/2/2022 6:00:00 PM 4.78 40.604 0.068 6.85 1.82 12.12
1/2/2022 6:15:00 PM 4.74 40.532 0.068 6.85 1.8 12.13
1/2/2022 6:30:00 PM 4.7 40.46 0.068 6.85 1.87 12.15
1/2/2022 6:45:00 PM 4.65 40.37 0.068 6.86 1.91 12.16
1/2/2022 7:00:00 PM 4.61 40.298 0.068 6.84 1.82 12.18
1/2/2022 7:15:00 PM 4.56 40.208 0.068 6.86 1.85 12.2
1/2/2022 7:30:00 PM 4.52 40.136 0.068 6.85 1.79 12.22
1/2/2022 7:45:00 PM 4.48 40.064 0.068 6.84 1.79 12.24
1/2/2022 8:00:00 PM 4.45 40.01 0.068 6.85 1.97 12.25
1/2/2022 8:15:00 PM 4.42 39.956 0.068 6.85 1.91 12.26
1/2/2022 8:30:00 PM 4.38 39.884 0.068 6.85 1.79 12.28
1/2/2022 8:45:00 PM 4.34 39.812 0.068 6.85 1.89 12.29
1/2/2022 9:00:00 PM 4.31 39.758 0.068 6.85 1.97 12.3
1/2/2022 9:15:00 PM 4.27 39.686 0.068 6.85 1.94 12.31
1/2/2022 9:30:00 PM 4.24 39.632 0.068 6.85 2.23 12.33
1/2/2022 9:45:00 PM 4.19 39.542 0.068 6.83 2.04 12.35
1/2/2022 10:00:00 PM 4.15 39.47 0.068 6.82 1.7 12.36
1/2/2022 10:15:00 PM 4.11 39.398 0.068 6.82 1.73 12.37
1/2/2022 10:30:00 PM 4.08 39.344 0.068 6.82 1.69 12.38
1/2/2022 10:45:00 PM 4.04 39.272 0.068 6.82 1.65 12.39
1/2/2022 11:00:00 PM 4 39.2 0.068 6.82 1.66 12.41
1/2/2022 11:15:00 PM 3.97 39.146 0.068 6.82 1.74 12.42
1/2/2022 11:30:00 PM 3.93 39.074 0.068 6.82 1.69 12.43
1/2/2022 11:45:00 PM 3.9 39.02 0.068 6.82 1.7 12.46
1/3/2022 12:00:00 AM 3.86 38.948 0.068 6.82 1.66 12.47
1/3/2022 12:15:00 AM 3.82 38.876 0.068 6.82 1.65 12.48
1/3/2022 12:30:00 AM 3.79 38.822 0.068 6.82 1.64 12.5
1/3/2022 12:45:00 AM 3.75 38.75 0.068 6.82 1.64 12.51
1/3/2022 1:00:00 AM 3.72 38.696 0.068 6.82 1.68 12.53
1/3/2022 1:15:00 AM 3.68 38.624 0.068 6.82 1.63 12.55
1/3/2022 1:30:00 AM 3.65 38.57 0.068 6.82 1.68 12.56
1/3/2022 1:45:00 AM 3.62 38.516 0.068 6.82 1.65 12.57
1/3/2022 2:00:00 AM 3.58 38.444 0.068 6.82 1.57 12.59
1/3/2022 2:15:00 AM 3.55 38.39 0.068 6.81 1.66 12.6
1/3/2022 2:30:00 AM 3.52 38.336 0.068 6.81 1.68 12.61
1/3/2022 2:45:00 AM 3.49 38.282 0.068 6.81 1.62 12.62
1/3/2022 3:00:00 AM 3.46 38.228 0.068 6.82 1.65 12.63
1/3/2022 3:15:00 AM 3.43 38.174 0.068 6.81 1.64 12.64
1/3/2022 3:30:00 AM 3.39 38.102 0.068 6.81 1.68 12.65
1/3/2022 3:45:00 AM 3.34 38.012 0.068 6.81 1.81 12.67
1/3/2022 4:00:00 AM 3.3 37.94 0.068 6.81 1.75 12.68
1/3/2022 4:15:00 AM 3.25 37.85 0.068 6.81 1.69 12.7
1/3/2022 4:30:00 AM 3.21 37.778 0.068 6.81 1.81 12.71
1/3/2022 4:45:00 AM 3.16 37.688 0.068 6.81 1.81 12.74
1/3/2022 5:00:00 AM 3.12 37.616 0.068 6.72 1.76 12.75
1/3/2022 5:15:00 AM 3.08 37.544 0.068 6.79 1.72 12.77
1/3/2022 5:30:00 AM 3.05 37.49 0.068 6.8 1.79 12.78
1/3/2022 5:45:00 AM 3.01 37.418 0.068 6.8 1.67 12.79
1/3/2022 6:00:00 AM 2.97 37.346 0.068 6.8 1.68 12.81
1/3/2022 6:15:00 AM 2.92 37.256 0.068 6.8 1.67 12.83
1/3/2022 6:30:00 AM 2.87 37.166 0.068 6.79 1.7 12.84
1/3/2022 6:45:00 AM 2.83 37.094 0.068 6.79 1.67 12.85
1/3/2022 7:00:00 AM 2.78 37.004 0.068 6.78 1.68 12.87
1/3/2022 7:15:00 AM 2.72 36.896 0.068 6.77 1.67 12.88
1/3/2022 7:30:00 AM 2.69 36.842 0.067 6.8 1.64 12.9
1/3/2022 7:45:00 AM 2.66 36.788 0.067 6.79 1.66 12.92
1/3/2022 8:00:00 AM 2.63 36.734 0.067 6.8 1.61 12.95
1/3/2022 8:15:00 AM 2.59 36.662 0.067 6.81 1.65 13
1/3/2022 8:30:00 AM 2.56 36.608 0.067 6.83 1.67 13.06
1/3/2022 8:45:00 AM 2.53 36.554 0.067 6.84 1.69 13.13
1/3/2022 9:00:00 AM 2.51 36.518 0.067 6.85 1.6 13.2
1/3/2022 9:15:00 AM 2.49 36.482 0.067 6.88 1.56 13.28
1/3/2022 9:30:00 AM 2.46 36.428 0.067 6.9 1.53 13.34
1/3/2022 9:45:00 AM 2.46 36.428 0.067 6.92 1.58 13.4
1/3/2022 10:00:00 AM 2.45 36.41 0.067 6.94 1.57 13.44
1/3/2022 10:15:00 AM 2.46 36.428 0.067 6.96 1.52 13.47
1/3/2022 10:30:00 AM 2.46 36.428 0.067 6.97 1.47 13.5
1/3/2022 10:45:00 AM 2.46 36.428 0.067 6.98 1.51 13.5
1/3/2022 11:00:00 AM 2.46 36.428 0.067 6.99 1.47 13.5
1/3/2022 11:15:00 AM 2.47 36.446 0.066 6.99 1.45 13.51
1/3/2022 11:30:00 AM 2.48 36.464 0.066 6.99 1.49 13.51
1/3/2022 11:45:00 AM 2.49 36.482 0.066 7 1.47 13.48
1/3/2022 12:00:00 PM 2.54 36.572 0.066 7 1.42 13.47
1/3/2022 12:15:00 PM 2.57 36.626 0.066 7 1.42 13.45
1/3/2022 12:30:00 PM 2.56 36.608 0.066 6.99 1.41 13.44
1/3/2022 12:45:00 PM 2.56 36.608 0.066 7 1.42 13.42
1/3/2022 1:00:00 PM 2.59 36.662 0.066 7 1.43 13.39
1/3/2022 1:15:00 PM 2.63 36.734 0.066 7 1.38 13.35
1/3/2022 1:30:00 PM 2.67 36.806 0.066 6.99 1.39 13.32
1/3/2022 1:45:00 PM 2.68 36.824 0.066 7.02 1.38 13.3
1/3/2022 2:00:00 PM 2.69 36.842 0.066 6.98 1.36 13.29
1/3/2022 2:15:00 PM 2.7 36.86 0.066 6.98 1.46 13.27
1/3/2022 2:30:00 PM 2.71 36.878 0.066 6.98 1.43 13.25
1/3/2022 2:45:00 PM 2.7 36.86 0.066 6.98 1.5 13.24
1/3/2022 3:00:00 PM 2.69 36.842 0.066 6.97 1.47 13.23
1/3/2022 3:15:00 PM 2.64 36.752 0.066 6.97 1.46 13.22
1/3/2022 3:30:00 PM 2.6 36.68 0.066 6.96 1.51 13.22
1/3/2022 3:45:00 PM 2.54 36.572 0.066 6.94 1.49 13.22
1/3/2022 4:00:00 PM 2.49 36.482 0.066 6.94 1.46 13.21
1/3/2022 4:15:00 PM 2.46 36.428 0.066 6.93 1.48 13.2
1/3/2022 4:30:00 PM 2.42 36.356 0.066 6.92 1.46 13.2
1/3/2022 4:45:00 PM 2.37 36.266 0.066 6.9 1.5 13.18
1/3/2022 5:00:00 PM 2.32 36.176 0.066 6.89 1.49 13.17
1/3/2022 5:15:00 PM 2.27 36.086 0.066 6.84 1.48 13.16
1/3/2022 5:30:00 PM 2.2 35.96 0.067 6.86 1.48 13.16
1/3/2022 5:45:00 PM 2.15 35.87 0.067 6.84 1.55 13.17
1/3/2022 6:00:00 PM 2.1 35.78 0.067 6.85 1.55 13.17
1/3/2022 6:15:00 PM 2.04 35.672 0.067 6.79 1.66 13.18
1/3/2022 6:30:00 PM 2 35.6 0.067 6.82 1.52 13.2
1/3/2022 6:45:00 PM 1.95 35.51 0.067 6.83 1.56 13.22
1/3/2022 7:00:00 PM 1.91 35.438 0.067 6.82 1.58 13.24
1/3/2022 7:15:00 PM 1.87 35.366 0.067 6.83 1.56 13.26
1/3/2022 7:30:00 PM 1.83 35.294 0.067 6.82 1.53 13.27
1/3/2022 7:45:00 PM 1.79 35.222 0.067 6.82 1.54 13.29
1/3/2022 8:00:00 PM 1.76 35.168 0.067 6.82 1.57 13.3
1/3/2022 8:15:00 PM 1.72 35.096 0.067 6.82 1.58 13.32
1/3/2022 8:30:00 PM 1.68 35.024 0.067 6.82 1.55 13.34
1/3/2022 8:45:00 PM 1.65 34.97 0.067 6.81 1.54 13.35
1/3/2022 9:00:00 PM 1.62 34.916 0.067 6.82 1.6 13.37
1/3/2022 9:15:00 PM 1.58 34.844 0.067 6.82 1.56 13.39
1/3/2022 9:30:00 PM 1.55 34.79 0.067 6.82 1.58 13.4
1/3/2022 9:45:00 PM 1.52 34.736 0.067 6.82 1.57 13.41
1/3/2022 10:00:00 PM 1.49 34.682 0.067 6.83 1.51 13.42
1/3/2022 10:15:00 PM 1.45 34.61 0.067 6.81 1.52 13.43
1/3/2022 10:30:00 PM 1.42 34.556 0.067 6.82 1.54 13.44
1/3/2022 10:45:00 PM 1.39 34.502 0.067 6.82 1.5 13.45
1/3/2022 11:00:00 PM 1.37 34.466 0.067 6.83 1.58 13.46
1/3/2022 11:15:00 PM 1.34 34.412 0.067 6.83 1.64 13.48
1/3/2022 11:30:00 PM 1.31 34.358 0.067 6.83 1.63 13.48
1/3/2022 11:45:00 PM 1.29 34.322 0.067 6.81 1.68 13.5
1/4/2022 12:00:00 AM 1.27 34.286 0.067 6.79 1.71 13.51
1/4/2022 12:15:00 AM 1.24 34.232 0.067 6.81 1.75 13.52
1/4/2022 12:30:00 AM 1.22 34.196 0.067 6.83 1.64 13.53
1/4/2022 12:45:00 AM 1.2 34.16 0.067 6.81 1.63 13.54
1/4/2022 1:00:00 AM 1.17 34.106 0.067 6.82 1.62 13.55
1/4/2022 1:15:00 AM 1.15 34.07 0.067 6.82 1.57 13.56
1/4/2022 1:30:00 AM 1.14 34.052 0.067 6.82 1.66 13.57
1/4/2022 1:45:00 AM 1.14 34.052 0.067 6.83 1.61 13.57
1/4/2022 2:00:00 AM 1.14 34.052 0.067 6.83 1.58 13.57
1/4/2022 2:15:00 AM 1.15 34.07 0.067 6.83 1.59 13.58
1/4/2022 2:30:00 AM 1.15 34.07 0.067 6.83 1.76 13.58
1/4/2022 2:45:00 AM 1.15 34.07 0.067 6.83 1.71 13.58
1/4/2022 3:00:00 AM 1.15 34.07 0.067 6.84 1.69 13.58
1/4/2022 3:15:00 AM 1.14 34.052 0.067 6.84 1.58 13.58
1/4/2022 3:30:00 AM 1.13 34.034 0.067 6.84 1.59 13.58
1/4/2022 3:45:00 AM 1.12 34.016 0.067 6.83 1.54 13.58
1/4/2022 4:00:00 AM 1.11 33.998 0.067 6.83 1.58 13.58
1/4/2022 4:15:00 AM 1.1 33.98 0.067 6.83 1.62 13.58
1/4/2022 4:30:00 AM 1.09 33.962 0.067 6.83 1.54 13.58
1/4/2022 4:45:00 AM 1.08 33.944 0.067 6.83 1.54 13.58
1/4/2022 5:00:00 AM 1.07 33.926 0.067 6.83 1.59 13.59
1/4/2022 5:15:00 AM 1.06 33.908 0.067 6.83 1.6 13.59
1/4/2022 5:30:00 AM 1.05 33.89 0.067 6.83 1.57 13.59
1/4/2022 5:45:00 AM 1.04 33.872 0.067 6.83 1.58 13.6
1/4/2022 6:00:00 AM 1.03 33.854 0.067 6.83 1.55 13.6
1/4/2022 6:15:00 AM 1.02 33.836 0.067 6.83 1.55 13.6
1/4/2022 6:30:00 AM 1.01 33.818 0.067 6.83 1.55 13.61
1/4/2022 6:45:00 AM 1 33.8 0.067 6.83 1.6 13.62
1/4/2022 7:00:00 AM 0.99 33.782 0.067 6.83 1.58 13.63
1/4/2022 7:15:00 AM 0.98 33.764 0.067 6.83 1.57 13.63
1/4/2022 7:30:00 AM 0.98 33.764 0.066 6.82 1.62 13.63
1/4/2022 7:45:00 AM 0.98 33.764 0.066 6.83 1.53 13.65
1/4/2022 8:00:00 AM 0.97 33.746 0.066 6.84 1.54 13.68
1/4/2022 8:15:00 AM 0.98 33.764 0.066 6.85 1.52 13.72
1/4/2022 8:30:00 AM 0.99 33.782 0.066 6.86 1.56 13.76
1/4/2022 8:45:00 AM 1 33.8 0.066 6.88 1.52 13.8
1/4/2022 9:00:00 AM 1.03 33.854 0.066 6.89 1.46 13.83
1/4/2022 9:15:00 AM 1.06 33.908 0.066 6.9 1.47 13.87
1/4/2022 9:30:00 AM 1.1 33.98